<?xml version="1.0" encoding="UTF-8" standalone="no" ?><gpx xmlns="http://www.topografix.com/GPX/1/1" xmlns:gpxx="http://www.garmin.com/xmlschemas/GpxExtensions/v3" xmlns:wptx1="http://www.garmin.com/xmlschemas/WaypointExtension/v1" xmlns:gpxtpx="http://www.garmin.com/xmlschemas/TrackPointExtension/v1" creator="GuideVTT.com" version="1.1" xmlns:xsi="http://www.w3.org/2001/XMLSchema-instance" xsi:schemaLocation="http://www.topografix.com/GPX/1/1 http://www.topografix.com/GPX/1/1/gpx.xsd http://www.garmin.com/xmlschemas/GpxExtensions/v3 http://www8.garmin.com/xmlschemas/GpxExtensionsv3.xsd http://www.garmin.com/xmlschemas/WaypointExtension/v1 http://www8.garmin.com/xmlschemas/WaypointExtensionv1.xsd http://www.garmin.com/xmlschemas/TrackPointExtension/v1 http://www.garmin.com/xmlschemas/TrackPointExtensionv1.xsd">
<metadata><link href="http://www.garmin.com"><text>Garmin International</text></link><time>2013-06-22T15:13:50Z</time></metadata>
<trk><name>versoix-barillette-versoix-240607.gpx</name><extensions><gpxx:TrackExtension><gpxx:DisplayColor>Cyan</gpxx:DisplayColor></gpxx:TrackExtension></extensions><trkseg>
<trkpt lat="46.28585385" lon="6.16030547"><ele>407.736328</ele><time>2007-06-24T08:08:28Z</time></trkpt>
<trkpt lat="46.28584170" lon="6.16028158"><ele>406.294312</ele><time>2007-06-24T08:08:34Z</time></trkpt>
<trkpt lat="46.28582728" lon="6.16025308"><ele>409.178345</ele><time>2007-06-24T08:08:37Z</time></trkpt>
<trkpt lat="46.28582728" lon="6.16025233"><ele>409.178345</ele><time>2007-06-24T08:08:38Z</time></trkpt>
<trkpt lat="46.28584103" lon="6.16026842"><ele>407.255615</ele><time>2007-06-24T08:09:09Z</time></trkpt>
<trkpt lat="46.28584212" lon="6.16027093"><ele>408.697632</ele><time>2007-06-24T08:09:11Z</time></trkpt>
<trkpt lat="46.28584337" lon="6.16027605"><ele>405.813721</ele><time>2007-06-24T08:09:20Z</time></trkpt>
<trkpt lat="46.28584312" lon="6.16027605"><ele>409.659058</ele><time>2007-06-24T08:09:21Z</time></trkpt>
<trkpt lat="46.28584262" lon="6.16027613"><ele>410.620239</ele><time>2007-06-24T08:09:23Z</time></trkpt>
<trkpt lat="46.28584237" lon="6.16027630"><ele>414.946167</ele><time>2007-06-24T08:09:24Z</time></trkpt>
<trkpt lat="46.28584203" lon="6.16027638"><ele>414.465454</ele><time>2007-06-24T08:09:25Z</time></trkpt>
<trkpt lat="46.28584119" lon="6.16027605"><ele>406.774902</ele><time>2007-06-24T08:09:28Z</time></trkpt>
<trkpt lat="46.28584069" lon="6.16027554"><ele>410.620239</ele><time>2007-06-24T08:09:29Z</time></trkpt>
<trkpt lat="46.28583977" lon="6.16027487"><ele>413.504272</ele><time>2007-06-24T08:09:31Z</time></trkpt>
<trkpt lat="46.28583868" lon="6.16027353"><ele>407.736328</ele><time>2007-06-24T08:09:33Z</time></trkpt>
<trkpt lat="46.28583826" lon="6.16027303"><ele>408.217041</ele><time>2007-06-24T08:09:34Z</time></trkpt>
<trkpt lat="46.28583709" lon="6.16027144"><ele>409.659058</ele><time>2007-06-24T08:09:37Z</time></trkpt>
<trkpt lat="46.28583625" lon="6.16027043"><ele>406.774902</ele><time>2007-06-24T08:09:39Z</time></trkpt>
<trkpt lat="46.28583407" lon="6.16026733"><ele>410.620239</ele><time>2007-06-24T08:09:47Z</time></trkpt>
<trkpt lat="46.28583374" lon="6.16026683"><ele>406.294312</ele><time>2007-06-24T08:09:49Z</time></trkpt>
<trkpt lat="46.28583357" lon="6.16026649"><ele>411.100952</ele><time>2007-06-24T08:09:50Z</time></trkpt>
<trkpt lat="46.28583323" lon="6.16026582"><ele>407.736328</ele><time>2007-06-24T08:09:52Z</time></trkpt>
<trkpt lat="46.28583298" lon="6.16026549"><ele>412.542847</ele><time>2007-06-24T08:09:54Z</time></trkpt>
<trkpt lat="46.28583290" lon="6.16026557"><ele>412.062256</ele><time>2007-06-24T08:09:55Z</time></trkpt>
<trkpt lat="46.28583214" lon="6.16026473"><ele>408.697632</ele><time>2007-06-24T08:09:59Z</time></trkpt>
<trkpt lat="46.28583323" lon="6.16026733"><ele>409.178345</ele><time>2007-06-24T08:10:12Z</time></trkpt>
<trkpt lat="46.28583122" lon="6.16026733"><ele>405.813721</ele><time>2007-06-24T08:10:21Z</time></trkpt>
<trkpt lat="46.28583089" lon="6.16026716"><ele>409.659058</ele><time>2007-06-24T08:10:22Z</time></trkpt>
<trkpt lat="46.28583030" lon="6.16026716"><ele>413.504272</ele><time>2007-06-24T08:10:23Z</time></trkpt>
<trkpt lat="46.28582988" lon="6.16026716"><ele>409.659058</ele><time>2007-06-24T08:10:24Z</time></trkpt>
<trkpt lat="46.28582636" lon="6.16026490"><ele>405.813721</ele><time>2007-06-24T08:10:34Z</time></trkpt>
<trkpt lat="46.28582594" lon="6.16026473"><ele>409.659058</ele><time>2007-06-24T08:10:35Z</time></trkpt>
<trkpt lat="46.28581320" lon="6.16025568"><ele>405.813721</ele><time>2007-06-24T08:11:05Z</time></trkpt>
<trkpt lat="46.28581278" lon="6.16025543"><ele>409.659058</ele><time>2007-06-24T08:11:06Z</time></trkpt>
<trkpt lat="46.28581655" lon="6.16027596"><ele>406.774902</ele><time>2007-06-24T08:11:35Z</time></trkpt>
<trkpt lat="46.28585402" lon="6.16027102"><ele>407.255615</ele><time>2007-06-24T08:12:04Z</time></trkpt>
<trkpt lat="46.28586005" lon="6.16029809"><ele>407.255615</ele><time>2007-06-24T08:12:17Z</time></trkpt>
<trkpt lat="46.28585695" lon="6.16004169"><ele>407.736328</ele><time>2007-06-24T08:12:42Z</time></trkpt>
<trkpt lat="46.28584689" lon="6.16003926"><ele>409.659058</ele><time>2007-06-24T08:13:59Z</time></trkpt>
<trkpt lat="46.28584539" lon="6.16015744"><ele>409.659058</ele><time>2007-06-24T08:14:29Z</time></trkpt>
<trkpt lat="46.28593214" lon="6.16007237"><ele>409.178345</ele><time>2007-06-24T08:15:25Z</time></trkpt>
<trkpt lat="46.28593222" lon="6.16008033"><ele>409.178345</ele><time>2007-06-24T08:15:29Z</time></trkpt>
<trkpt lat="46.28594153" lon="6.16000364"><ele>409.659058</ele><time>2007-06-24T08:15:35Z</time></trkpt>
<trkpt lat="46.28592133" lon="6.15992527"><ele>409.659058</ele><time>2007-06-24T08:15:41Z</time></trkpt>
<trkpt lat="46.28621444" lon="6.15968646"><ele>410.139648</ele><time>2007-06-24T08:15:51Z</time></trkpt>
<trkpt lat="46.28631444" lon="6.15960298"><ele>410.139648</ele><time>2007-06-24T08:15:53Z</time></trkpt>
<trkpt lat="46.28650085" lon="6.15956979"><ele>410.139648</ele><time>2007-06-24T08:15:57Z</time></trkpt>
<trkpt lat="46.28678508" lon="6.15957658"><ele>410.620239</ele><time>2007-06-24T08:16:02Z</time></trkpt>
<trkpt lat="46.28701709" lon="6.15958488"><ele>410.620239</ele><time>2007-06-24T08:16:06Z</time></trkpt>
<trkpt lat="46.28731599" lon="6.15963617"><ele>410.620239</ele><time>2007-06-24T08:16:12Z</time></trkpt>
<trkpt lat="46.28745848" lon="6.15967188"><ele>410.620239</ele><time>2007-06-24T08:16:15Z</time></trkpt>
<trkpt lat="46.28771313" lon="6.15973332"><ele>411.100952</ele><time>2007-06-24T08:16:24Z</time></trkpt>
<trkpt lat="46.28775227" lon="6.15974547"><ele>411.100952</ele><time>2007-06-24T08:16:25Z</time></trkpt>
<trkpt lat="46.28829743" lon="6.15943652"><ele>412.542847</ele><time>2007-06-24T08:16:39Z</time></trkpt>
<trkpt lat="46.28890143" lon="6.15911390"><ele>415.42688</ele><time>2007-06-24T08:16:55Z</time></trkpt>
<trkpt lat="46.28927845" lon="6.15878725"><ele>416.868896</ele><time>2007-06-24T08:17:05Z</time></trkpt>
<trkpt lat="46.28943192" lon="6.15853127"><ele>418.791504</ele><time>2007-06-24T08:17:11Z</time></trkpt>
<trkpt lat="46.28981045" lon="6.15789844"><ele>422.156006</ele><time>2007-06-24T08:17:26Z</time></trkpt>
<trkpt lat="46.29012150" lon="6.15732092"><ele>425.520752</ele><time>2007-06-24T08:17:39Z</time></trkpt>
<trkpt lat="46.29061930" lon="6.15640495"><ele>427.443359</ele><time>2007-06-24T08:17:57Z</time></trkpt>
<trkpt lat="46.29118600" lon="6.15538596"><ele>426.482056</ele><time>2007-06-24T08:18:13Z</time></trkpt>
<trkpt lat="46.29196292" lon="6.15396992"><ele>425.520752</ele><time>2007-06-24T08:18:33Z</time></trkpt>
<trkpt lat="46.29214154" lon="6.15381863"><ele>425.520752</ele><time>2007-06-24T08:18:37Z</time></trkpt>
<trkpt lat="46.29225235" lon="6.15340817"><ele>426.001343</ele><time>2007-06-24T08:18:45Z</time></trkpt>
<trkpt lat="46.29230607" lon="6.15327816"><ele>426.001343</ele><time>2007-06-24T08:18:47Z</time></trkpt>
<trkpt lat="46.29291946" lon="6.15215507"><ele>428.404663</ele><time>2007-06-24T08:19:05Z</time></trkpt>
<trkpt lat="46.29342875" lon="6.15119333"><ele>430.327271</ele><time>2007-06-24T08:19:20Z</time></trkpt>
<trkpt lat="46.29393049" lon="6.15024325"><ele>430.327271</ele><time>2007-06-24T08:19:34Z</time></trkpt>
<trkpt lat="46.29419066" lon="6.14973849"><ele>430.807983</ele><time>2007-06-24T08:19:42Z</time></trkpt>
<trkpt lat="46.29428638" lon="6.14955157"><ele>431.288574</ele><time>2007-06-24T08:19:45Z</time></trkpt>
<trkpt lat="46.29445888" lon="6.14922929"><ele>431.288574</ele><time>2007-06-24T08:19:50Z</time></trkpt>
<trkpt lat="46.29492366" lon="6.14840082"><ele>432.25</ele><time>2007-06-24T08:20:02Z</time></trkpt>
<trkpt lat="46.29594659" lon="6.14655579"><ele>432.25</ele><time>2007-06-24T08:20:28Z</time></trkpt>
<trkpt lat="46.29675108" lon="6.14509047"><ele>433.691895</ele><time>2007-06-24T08:20:49Z</time></trkpt>
<trkpt lat="46.29747452" lon="6.14379379"><ele>436.575928</ele><time>2007-06-24T08:21:11Z</time></trkpt>
<trkpt lat="46.29789915" lon="6.14301612"><ele>439.459717</ele><time>2007-06-24T08:21:26Z</time></trkpt>
<trkpt lat="46.29816167" lon="6.14254078"><ele>442.824463</ele><time>2007-06-24T08:21:35Z</time></trkpt>
<trkpt lat="46.29895058" lon="6.14113807"><ele>445.708374</ele><time>2007-06-24T08:22:01Z</time></trkpt>
<trkpt lat="46.29932684" lon="6.14045595"><ele>445.708374</ele><time>2007-06-24T08:22:13Z</time></trkpt>
<trkpt lat="46.29947520" lon="6.14044866"><ele>445.708374</ele><time>2007-06-24T08:22:17Z</time></trkpt>
<trkpt lat="46.30002354" lon="6.14095995"><ele>445.708374</ele><time>2007-06-24T08:22:33Z</time></trkpt>
<trkpt lat="46.30002857" lon="6.14094218"><ele>446.189087</ele><time>2007-06-24T08:22:40Z</time></trkpt>
<trkpt lat="46.29987895" lon="6.14085149"><ele>446.669678</ele><time>2007-06-24T08:22:48Z</time></trkpt>
<trkpt lat="46.29940873" lon="6.14037146"><ele>445.227661</ele><time>2007-06-24T08:23:02Z</time></trkpt>
<trkpt lat="46.29960755" lon="6.13993283"><ele>446.189087</ele><time>2007-06-24T08:23:11Z</time></trkpt>
<trkpt lat="46.29970185" lon="6.13975572"><ele>445.708374</ele><time>2007-06-24T08:23:14Z</time></trkpt>
<trkpt lat="46.29985498" lon="6.13973410"><ele>446.189087</ele><time>2007-06-24T08:23:18Z</time></trkpt>
<trkpt lat="46.30055839" lon="6.14040842"><ele>447.630981</ele><time>2007-06-24T08:23:35Z</time></trkpt>
<trkpt lat="46.30136599" lon="6.14091553"><ele>450.034424</ele><time>2007-06-24T08:23:53Z</time></trkpt>
<trkpt lat="46.30161242" lon="6.14087027"><ele>450.034424</ele><time>2007-06-24T08:23:58Z</time></trkpt>
<trkpt lat="46.30194719" lon="6.14083179"><ele>450.515015</ele><time>2007-06-24T08:24:05Z</time></trkpt>
<trkpt lat="46.30265789" lon="6.14064756"><ele>450.515015</ele><time>2007-06-24T08:24:19Z</time></trkpt>
<trkpt lat="46.30271003" lon="6.14062912"><ele>450.515015</ele><time>2007-06-24T08:24:20Z</time></trkpt>
<trkpt lat="46.30298487" lon="6.14061244"><ele>450.515015</ele><time>2007-06-24T08:24:25Z</time></trkpt>
<trkpt lat="46.30320129" lon="6.14064077"><ele>450.034424</ele><time>2007-06-24T08:24:29Z</time></trkpt>
<trkpt lat="46.30335275" lon="6.14070598"><ele>450.515015</ele><time>2007-06-24T08:24:32Z</time></trkpt>
<trkpt lat="46.30375349" lon="6.14089348"><ele>450.034424</ele><time>2007-06-24T08:24:39Z</time></trkpt>
<trkpt lat="46.30416479" lon="6.14101804"><ele>450.034424</ele><time>2007-06-24T08:24:46Z</time></trkpt>
<trkpt lat="46.30445933" lon="6.14090865"><ele>450.034424</ele><time>2007-06-24T08:24:51Z</time></trkpt>
<trkpt lat="46.30483442" lon="6.14050440"><ele>450.034424</ele><time>2007-06-24T08:24:58Z</time></trkpt>
<trkpt lat="46.30531797" lon="6.13998430"><ele>450.515015</ele><time>2007-06-24T08:25:08Z</time></trkpt>
<trkpt lat="46.30572039" lon="6.13941886"><ele>450.995605</ele><time>2007-06-24T08:25:18Z</time></trkpt>
<trkpt lat="46.30618759" lon="6.13858494"><ele>452.918213</ele><time>2007-06-24T08:25:33Z</time></trkpt>
<trkpt lat="46.30622364" lon="6.13853565"><ele>452.918213</ele><time>2007-06-24T08:25:34Z</time></trkpt>
<trkpt lat="46.30654424" lon="6.13795445"><ele>454.360229</ele><time>2007-06-24T08:25:45Z</time></trkpt>
<trkpt lat="46.30697499" lon="6.13721609"><ele>456.282959</ele><time>2007-06-24T08:25:59Z</time></trkpt>
<trkpt lat="46.30735486" lon="6.13649257"><ele>458.205566</ele><time>2007-06-24T08:26:12Z</time></trkpt>
<trkpt lat="46.30756424" lon="6.13608185"><ele>458.205566</ele><time>2007-06-24T08:26:22Z</time></trkpt>
<trkpt lat="46.30778753" lon="6.13576518"><ele>459.16687</ele><time>2007-06-24T08:26:31Z</time></trkpt>
<trkpt lat="46.30797353" lon="6.13588362"><ele>458.686157</ele><time>2007-06-24T08:26:40Z</time></trkpt>
<trkpt lat="46.30811887" lon="6.13607733"><ele>458.686157</ele><time>2007-06-24T08:26:49Z</time></trkpt>
<trkpt lat="46.30829573" lon="6.13628704"><ele>459.647583</ele><time>2007-06-24T08:26:54Z</time></trkpt>
<trkpt lat="46.30875397" lon="6.13672810"><ele>460.128174</ele><time>2007-06-24T08:27:07Z</time></trkpt>
<trkpt lat="46.30882027" lon="6.13680186"><ele>460.128174</ele><time>2007-06-24T08:27:09Z</time></trkpt>
<trkpt lat="46.30900534" lon="6.13701727"><ele>459.647583</ele><time>2007-06-24T08:27:14Z</time></trkpt>
<trkpt lat="46.30934129" lon="6.13731944"><ele>460.128174</ele><time>2007-06-24T08:27:22Z</time></trkpt>
<trkpt lat="46.30962149" lon="6.13759629"><ele>460.608765</ele><time>2007-06-24T08:27:28Z</time></trkpt>
<trkpt lat="46.31034753" lon="6.13831286"><ele>460.608765</ele><time>2007-06-24T08:27:44Z</time></trkpt>
<trkpt lat="46.31057770" lon="6.13853272"><ele>460.608765</ele><time>2007-06-24T08:27:49Z</time></trkpt>
<trkpt lat="46.31086864" lon="6.13879155"><ele>459.16687</ele><time>2007-06-24T08:27:57Z</time></trkpt>
<trkpt lat="46.31108707" lon="6.13900647"><ele>459.647583</ele><time>2007-06-24T08:28:03Z</time></trkpt>
<trkpt lat="46.31144003" lon="6.13942933"><ele>459.16687</ele><time>2007-06-24T08:28:11Z</time></trkpt>
<trkpt lat="46.31153592" lon="6.13952614"><ele>458.686157</ele><time>2007-06-24T08:28:13Z</time></trkpt>
<trkpt lat="46.31174983" lon="6.13968037"><ele>458.686157</ele><time>2007-06-24T08:28:17Z</time></trkpt>
<trkpt lat="46.31192844" lon="6.13981842"><ele>458.205566</ele><time>2007-06-24T08:28:21Z</time></trkpt>
<trkpt lat="46.31227143" lon="6.14024732"><ele>458.205566</ele><time>2007-06-24T08:28:32Z</time></trkpt>
<trkpt lat="46.31243605" lon="6.14040029"><ele>458.686157</ele><time>2007-06-24T08:28:37Z</time></trkpt>
<trkpt lat="46.31263294" lon="6.14027884"><ele>458.686157</ele><time>2007-06-24T08:28:42Z</time></trkpt>
<trkpt lat="46.31273696" lon="6.14004297"><ele>458.686157</ele><time>2007-06-24T08:28:46Z</time></trkpt>
<trkpt lat="46.31318640" lon="6.13918902"><ele>460.128174</ele><time>2007-06-24T08:28:59Z</time></trkpt>
<trkpt lat="46.31383290" lon="6.13789000"><ele>462.531372</ele><time>2007-06-24T08:29:19Z</time></trkpt>
<trkpt lat="46.31408444" lon="6.13737744"><ele>463.492798</ele><time>2007-06-24T08:29:27Z</time></trkpt>
<trkpt lat="46.31425694" lon="6.13733729"><ele>463.492798</ele><time>2007-06-24T08:29:31Z</time></trkpt>
<trkpt lat="46.31522873" lon="6.13827196"><ele>463.492798</ele><time>2007-06-24T08:29:51Z</time></trkpt>
<trkpt lat="46.31630807" lon="6.13929044"><ele>464.934814</ele><time>2007-06-24T08:30:12Z</time></trkpt>
<trkpt lat="46.31786333" lon="6.14073884"><ele>466.857422</ele><time>2007-06-24T08:30:42Z</time></trkpt>
<trkpt lat="46.31884309" lon="6.14150142"><ele>469.260742</ele><time>2007-06-24T08:31:02Z</time></trkpt>
<trkpt lat="46.31888492" lon="6.14152850"><ele>469.260742</ele><time>2007-06-24T08:31:03Z</time></trkpt>
<trkpt lat="46.31910210" lon="6.14168742"><ele>469.260742</ele><time>2007-06-24T08:31:08Z</time></trkpt>
<trkpt lat="46.31984767" lon="6.14223115"><ele>470.221924</ele><time>2007-06-24T08:31:23Z</time></trkpt>
<trkpt lat="46.32012385" lon="6.14244824"><ele>471.18335</ele><time>2007-06-24T08:31:30Z</time></trkpt>
<trkpt lat="46.32028185" lon="6.14256525"><ele>471.18335</ele><time>2007-06-24T08:31:34Z</time></trkpt>
<trkpt lat="46.32045426" lon="6.14268562"><ele>471.66394</ele><time>2007-06-24T08:31:38Z</time></trkpt>
<trkpt lat="46.32070103" lon="6.14287656"><ele>472.144653</ele><time>2007-06-24T08:31:44Z</time></trkpt>
<trkpt lat="46.32078342" lon="6.14292325"><ele>472.625366</ele><time>2007-06-24T08:31:46Z</time></trkpt>
<trkpt lat="46.32090362" lon="6.14301888"><ele>472.625366</ele><time>2007-06-24T08:31:49Z</time></trkpt>
<trkpt lat="46.32120604" lon="6.14325416"><ele>473.106079</ele><time>2007-06-24T08:31:56Z</time></trkpt>
<trkpt lat="46.32166805" lon="6.14356739"><ele>473.58667</ele><time>2007-06-24T08:32:06Z</time></trkpt>
<trkpt lat="46.32175438" lon="6.14362992"><ele>473.106079</ele><time>2007-06-24T08:32:08Z</time></trkpt>
<trkpt lat="46.32192613" lon="6.14372782"><ele>473.58667</ele><time>2007-06-24T08:32:12Z</time></trkpt>
<trkpt lat="46.32209234" lon="6.14385707"><ele>474.067261</ele><time>2007-06-24T08:32:16Z</time></trkpt>
<trkpt lat="46.32225377" lon="6.14398138"><ele>475.028687</ele><time>2007-06-24T08:32:20Z</time></trkpt>
<trkpt lat="46.32297420" lon="6.14452796"><ele>476.951294</ele><time>2007-06-24T08:32:36Z</time></trkpt>
<trkpt lat="46.32338642" lon="6.14475813"><ele>477.912476</ele><time>2007-06-24T08:32:47Z</time></trkpt>
<trkpt lat="46.32340335" lon="6.14476223"><ele>476.951294</ele><time>2007-06-24T08:32:48Z</time></trkpt>
<trkpt lat="46.32369236" lon="6.14500456"><ele>479.354492</ele><time>2007-06-24T08:32:59Z</time></trkpt>
<trkpt lat="46.32379596" lon="6.14510514"><ele>479.354492</ele><time>2007-06-24T08:33:02Z</time></trkpt>
<trkpt lat="46.32431430" lon="6.14550864"><ele>481.277222</ele><time>2007-06-24T08:33:15Z</time></trkpt>
<trkpt lat="46.32448814" lon="6.14559975"><ele>481.277222</ele><time>2007-06-24T08:33:19Z</time></trkpt>
<trkpt lat="46.32471646" lon="6.14577569"><ele>481.277222</ele><time>2007-06-24T08:33:24Z</time></trkpt>
<trkpt lat="46.32519515" lon="6.14620149"><ele>480.796631</ele><time>2007-06-24T08:33:36Z</time></trkpt>
<trkpt lat="46.32528367" lon="6.14627995"><ele>480.796631</ele><time>2007-06-24T08:33:38Z</time></trkpt>
<trkpt lat="46.32595514" lon="6.14692217"><ele>480.796631</ele><time>2007-06-24T08:33:52Z</time></trkpt>
<trkpt lat="46.32624549" lon="6.14720380"><ele>480.796631</ele><time>2007-06-24T08:33:58Z</time></trkpt>
<trkpt lat="46.32647557" lon="6.14741419"><ele>481.277222</ele><time>2007-06-24T08:34:03Z</time></trkpt>
<trkpt lat="46.32727269" lon="6.14816277"><ele>481.757813</ele><time>2007-06-24T08:34:20Z</time></trkpt>
<trkpt lat="46.32765918" lon="6.14851347"><ele>481.757813</ele><time>2007-06-24T08:34:28Z</time></trkpt>
<trkpt lat="46.32780955" lon="6.14862948"><ele>481.277222</ele><time>2007-06-24T08:34:31Z</time></trkpt>
<trkpt lat="46.32861614" lon="6.14934856"><ele>480.796631</ele><time>2007-06-24T08:34:46Z</time></trkpt>
<trkpt lat="46.32892485" lon="6.14960572"><ele>480.315918</ele><time>2007-06-24T08:34:52Z</time></trkpt>
<trkpt lat="46.32969925" lon="6.15035648"><ele>480.796631</ele><time>2007-06-24T08:35:07Z</time></trkpt>
<trkpt lat="46.32975264" lon="6.15040032"><ele>479.835083</ele><time>2007-06-24T08:35:08Z</time></trkpt>
<trkpt lat="46.32989807" lon="6.15056159"><ele>480.315918</ele><time>2007-06-24T08:35:11Z</time></trkpt>
<trkpt lat="46.33026134" lon="6.15091304"><ele>480.315918</ele><time>2007-06-24T08:35:18Z</time></trkpt>
<trkpt lat="46.33053585" lon="6.15114556"><ele>480.315918</ele><time>2007-06-24T08:35:24Z</time></trkpt>
<trkpt lat="46.33070785" lon="6.15130414"><ele>480.315918</ele><time>2007-06-24T08:35:29Z</time></trkpt>
<trkpt lat="46.33083383" lon="6.15142124"><ele>480.315918</ele><time>2007-06-24T08:35:32Z</time></trkpt>
<trkpt lat="46.33121587" lon="6.15177856"><ele>480.796631</ele><time>2007-06-24T08:35:40Z</time></trkpt>
<trkpt lat="46.33186832" lon="6.15243034"><ele>479.835083</ele><time>2007-06-24T08:35:53Z</time></trkpt>
<trkpt lat="46.33208256" lon="6.15262974"><ele>478.873901</ele><time>2007-06-24T08:35:58Z</time></trkpt>
<trkpt lat="46.33229278" lon="6.15233495"><ele>479.835083</ele><time>2007-06-24T08:36:07Z</time></trkpt>
<trkpt lat="46.33232245" lon="6.15226815"><ele>480.315918</ele><time>2007-06-24T08:36:08Z</time></trkpt>
<trkpt lat="46.33262889" lon="6.15223286"><ele>480.796631</ele><time>2007-06-24T08:36:16Z</time></trkpt>
<trkpt lat="46.33277223" lon="6.15239907"><ele>479.835083</ele><time>2007-06-24T08:36:20Z</time></trkpt>
<trkpt lat="46.33291564" lon="6.15258683"><ele>480.796631</ele><time>2007-06-24T08:36:24Z</time></trkpt>
<trkpt lat="46.33295755" lon="6.15263318"><ele>480.315918</ele><time>2007-06-24T08:36:25Z</time></trkpt>
<trkpt lat="46.33322049" lon="6.15289796"><ele>480.796631</ele><time>2007-06-24T08:36:31Z</time></trkpt>
<trkpt lat="46.33331127" lon="6.15300215"><ele>480.796631</ele><time>2007-06-24T08:36:33Z</time></trkpt>
<trkpt lat="46.33368988" lon="6.15342678"><ele>480.315918</ele><time>2007-06-24T08:36:41Z</time></trkpt>
<trkpt lat="46.33390403" lon="6.15365845"><ele>480.315918</ele><time>2007-06-24T08:36:45Z</time></trkpt>
<trkpt lat="46.33469235" lon="6.15447049"><ele>478.873901</ele><time>2007-06-24T08:36:59Z</time></trkpt>
<trkpt lat="46.33487164" lon="6.15470644"><ele>478.393188</ele><time>2007-06-24T08:37:03Z</time></trkpt>
<trkpt lat="46.33525302" lon="6.15512688"><ele>479.354492</ele><time>2007-06-24T08:37:11Z</time></trkpt>
<trkpt lat="46.33541135" lon="6.15528488"><ele>479.354492</ele><time>2007-06-24T08:37:14Z</time></trkpt>
<trkpt lat="46.33562199" lon="6.15551236"><ele>479.835083</ele><time>2007-06-24T08:37:18Z</time></trkpt>
<trkpt lat="46.33618106" lon="6.15610278"><ele>480.796631</ele><time>2007-06-24T08:37:30Z</time></trkpt>
<trkpt lat="46.33647996" lon="6.15641559"><ele>478.873901</ele><time>2007-06-24T08:37:36Z</time></trkpt>
<trkpt lat="46.33692739" lon="6.15689588"><ele>479.354492</ele><time>2007-06-24T08:37:47Z</time></trkpt>
<trkpt lat="46.33789868" lon="6.15793389"><ele>478.393188</ele><time>2007-06-24T08:38:05Z</time></trkpt>
<trkpt lat="46.33901113" lon="6.15913737"><ele>480.315918</ele><time>2007-06-24T08:38:26Z</time></trkpt>
<trkpt lat="46.33986734" lon="6.16006197"><ele>482.719238</ele><time>2007-06-24T08:38:45Z</time></trkpt>
<trkpt lat="46.34090242" lon="6.16118364"><ele>484.161133</ele><time>2007-06-24T08:39:07Z</time></trkpt>
<trkpt lat="46.34126133" lon="6.16158572"><ele>484.161133</ele><time>2007-06-24T08:39:16Z</time></trkpt>
<trkpt lat="46.34137533" lon="6.16167842"><ele>485.122437</ele><time>2007-06-24T08:39:19Z</time></trkpt>
<trkpt lat="46.34150927" lon="6.16180566"><ele>485.603027</ele><time>2007-06-24T08:39:22Z</time></trkpt>
<trkpt lat="46.34214294" lon="6.16191044"><ele>484.641846</ele><time>2007-06-24T08:39:33Z</time></trkpt>
<trkpt lat="46.34342135" lon="6.16213993"><ele>485.603027</ele><time>2007-06-24T08:39:53Z</time></trkpt>
<trkpt lat="46.34358815" lon="6.16188956"><ele>486.08374</ele><time>2007-06-24T08:39:58Z</time></trkpt>
<trkpt lat="46.34380658" lon="6.16059179"><ele>483.199829</ele><time>2007-06-24T08:40:11Z</time></trkpt>
<trkpt lat="46.34388990" lon="6.15999752"><ele>481.757813</ele><time>2007-06-24T08:40:16Z</time></trkpt>
<trkpt lat="46.34390658" lon="6.15987816"><ele>481.757813</ele><time>2007-06-24T08:40:17Z</time></trkpt>
<trkpt lat="46.34413918" lon="6.15958354"><ele>479.835083</ele><time>2007-06-24T08:40:22Z</time></trkpt>
<trkpt lat="46.34556536" lon="6.15986877"><ele>480.796631</ele><time>2007-06-24T08:40:42Z</time></trkpt>
<trkpt lat="46.34685424" lon="6.16037713"><ele>480.796631</ele><time>2007-06-24T08:41:03Z</time></trkpt>
<trkpt lat="46.34710503" lon="6.16049993"><ele>482.238525</ele><time>2007-06-24T08:41:07Z</time></trkpt>
<trkpt lat="46.34836516" lon="6.16115724"><ele>482.719238</ele><time>2007-06-24T08:41:28Z</time></trkpt>
<trkpt lat="46.34852853" lon="6.16126075"><ele>482.719238</ele><time>2007-06-24T08:41:31Z</time></trkpt>
<trkpt lat="46.34953268" lon="6.16178177"><ele>481.277222</ele><time>2007-06-24T08:41:48Z</time></trkpt>
<trkpt lat="46.35062367" lon="6.16236222"><ele>477.912476</ele><time>2007-06-24T08:42:04Z</time></trkpt>
<trkpt lat="46.35173360" lon="6.16294376"><ele>476.470581</ele><time>2007-06-24T08:42:21Z</time></trkpt>
<trkpt lat="46.35187777" lon="6.16322380"><ele>476.470581</ele><time>2007-06-24T08:42:26Z</time></trkpt>
<trkpt lat="46.35189453" lon="6.16372218"><ele>476.470581</ele><time>2007-06-24T08:42:32Z</time></trkpt>
<trkpt lat="46.35238856" lon="6.16498140"><ele>476.470581</ele><time>2007-06-24T08:42:48Z</time></trkpt>
<trkpt lat="46.35282526" lon="6.16600307"><ele>475.989868</ele><time>2007-06-24T08:43:02Z</time></trkpt>
<trkpt lat="46.35294177" lon="6.16624254"><ele>476.470581</ele><time>2007-06-24T08:43:05Z</time></trkpt>
<trkpt lat="46.35335826" lon="6.16632217"><ele>475.989868</ele><time>2007-06-24T08:43:12Z</time></trkpt>
<trkpt lat="46.35341048" lon="6.16625704"><ele>476.470581</ele><time>2007-06-24T08:43:13Z</time></trkpt>
<trkpt lat="46.35377275" lon="6.16575027"><ele>475.028687</ele><time>2007-06-24T08:43:20Z</time></trkpt>
<trkpt lat="46.35414633" lon="6.16569403"><ele>475.028687</ele><time>2007-06-24T08:43:26Z</time></trkpt>
<trkpt lat="46.35438044" lon="6.16583987"><ele>475.989868</ele><time>2007-06-24T08:43:30Z</time></trkpt>
<trkpt lat="46.35519189" lon="6.16609904"><ele>476.951294</ele><time>2007-06-24T08:43:44Z</time></trkpt>
<trkpt lat="46.35552272" lon="6.16581917"><ele>478.393188</ele><time>2007-06-24T08:43:51Z</time></trkpt>
<trkpt lat="46.35570570" lon="6.16547978"><ele>478.873901</ele><time>2007-06-24T08:43:56Z</time></trkpt>
<trkpt lat="46.35615698" lon="6.16529337"><ele>478.873901</ele><time>2007-06-24T08:44:04Z</time></trkpt>
<trkpt lat="46.35715753" lon="6.16557894"><ele>481.757813</ele><time>2007-06-24T08:44:21Z</time></trkpt>
<trkpt lat="46.35839528" lon="6.16604875"><ele>480.315918</ele><time>2007-06-24T08:44:40Z</time></trkpt>
<trkpt lat="46.35953715" lon="6.16708785"><ele>480.315918</ele><time>2007-06-24T08:44:59Z</time></trkpt>
<trkpt lat="46.36072269" lon="6.16795194"><ele>479.354492</ele><time>2007-06-24T08:45:17Z</time></trkpt>
<trkpt lat="46.36216446" lon="6.16875954"><ele>478.873901</ele><time>2007-06-24T08:45:38Z</time></trkpt>
<trkpt lat="46.36380597" lon="6.16959312"><ele>478.873901</ele><time>2007-06-24T08:46:01Z</time></trkpt>
<trkpt lat="46.36553122" lon="6.17003409"><ele>477.912476</ele><time>2007-06-24T08:46:24Z</time></trkpt>
<trkpt lat="46.36693058" lon="6.17022143"><ele>476.470581</ele><time>2007-06-24T08:46:42Z</time></trkpt>
<trkpt lat="46.36803112" lon="6.16974525"><ele>476.470581</ele><time>2007-06-24T08:46:57Z</time></trkpt>
<trkpt lat="46.36934968" lon="6.16848478"><ele>475.509277</ele><time>2007-06-24T08:47:18Z</time></trkpt>
<trkpt lat="46.37068927" lon="6.16721844"><ele>475.509277</ele><time>2007-06-24T08:47:41Z</time></trkpt>
<trkpt lat="46.37219206" lon="6.16577424"><ele>476.951294</ele><time>2007-06-24T08:48:08Z</time></trkpt>
<trkpt lat="46.37297904" lon="6.16446113"><ele>478.393188</ele><time>2007-06-24T08:48:27Z</time></trkpt>
<trkpt lat="46.37316009" lon="6.16411186"><ele>479.354492</ele><time>2007-06-24T08:48:32Z</time></trkpt>
<trkpt lat="46.37340786" lon="6.16389016"><ele>480.796631</ele><time>2007-06-24T08:48:37Z</time></trkpt>
<trkpt lat="46.37428603" lon="6.16332337"><ele>479.835083</ele><time>2007-06-24T08:48:53Z</time></trkpt>
<trkpt lat="46.37445157" lon="6.16305959"><ele>480.315918</ele><time>2007-06-24T08:48:57Z</time></trkpt>
<trkpt lat="46.37497184" lon="6.16208729"><ele>482.238525</ele><time>2007-06-24T08:49:11Z</time></trkpt>
<trkpt lat="46.37568547" lon="6.16154264"><ele>483.199829</ele><time>2007-06-24T08:49:25Z</time></trkpt>
<trkpt lat="46.37655577" lon="6.16130912"><ele>486.564453</ele><time>2007-06-24T08:49:43Z</time></trkpt>
<trkpt lat="46.37664705" lon="6.16129068"><ele>487.045044</ele><time>2007-06-24T08:49:45Z</time></trkpt>
<trkpt lat="46.37748524" lon="6.16107685"><ele>489.448364</ele><time>2007-06-24T08:50:03Z</time></trkpt>
<trkpt lat="46.37786670" lon="6.16096705"><ele>490.40979</ele><time>2007-06-24T08:50:11Z</time></trkpt>
<trkpt lat="46.37872836" lon="6.16073596"><ele>493.293579</ele><time>2007-06-24T08:50:29Z</time></trkpt>
<trkpt lat="46.37903513" lon="6.16065617"><ele>493.774292</ele><time>2007-06-24T08:50:35Z</time></trkpt>
<trkpt lat="46.37927427" lon="6.16055215"><ele>494.735596</ele><time>2007-06-24T08:50:40Z</time></trkpt>
<trkpt lat="46.37965539" lon="6.16006600"><ele>496.177734</ele><time>2007-06-24T08:50:50Z</time></trkpt>
<trkpt lat="46.38003820" lon="6.15868424"><ele>497.619629</ele><time>2007-06-24T08:51:10Z</time></trkpt>
<trkpt lat="46.38031170" lon="6.15760172"><ele>501.464844</ele><time>2007-06-24T08:51:28Z</time></trkpt>
<trkpt lat="46.38047590" lon="6.15698406"><ele>504.348877</ele><time>2007-06-24T08:51:41Z</time></trkpt>
<trkpt lat="46.38058428" lon="6.15654099"><ele>507.713501</ele><time>2007-06-24T08:51:51Z</time></trkpt>
<trkpt lat="46.38076063" lon="6.15586616"><ele>511.078003</ele><time>2007-06-24T08:52:06Z</time></trkpt>
<trkpt lat="46.38101695" lon="6.15517742"><ele>514.442627</ele><time>2007-06-24T08:52:24Z</time></trkpt>
<trkpt lat="46.38115969" lon="6.15486754"><ele>515.884644</ele><time>2007-06-24T08:52:33Z</time></trkpt>
<trkpt lat="46.38135809" lon="6.15445146"><ele>518.768555</ele><time>2007-06-24T08:52:45Z</time></trkpt>
<trkpt lat="46.38158348" lon="6.15395157"><ele>522.133179</ele><time>2007-06-24T08:52:59Z</time></trkpt>
<trkpt lat="46.38173964" lon="6.15343977"><ele>525.497803</ele><time>2007-06-24T08:53:12Z</time></trkpt>
<trkpt lat="46.38162288" lon="6.15290995"><ele>528.381836</ele><time>2007-06-24T08:53:25Z</time></trkpt>
<trkpt lat="46.38146379" lon="6.15225683"><ele>530.785156</ele><time>2007-06-24T08:53:41Z</time></trkpt>
<trkpt lat="46.38189487" lon="6.15177177"><ele>530.785156</ele><time>2007-06-24T08:53:54Z</time></trkpt>
<trkpt lat="46.38190334" lon="6.15144504"><ele>531.265747</ele><time>2007-06-24T08:54:00Z</time></trkpt>
<trkpt lat="46.38160176" lon="6.15093039"><ele>533.188354</ele><time>2007-06-24T08:54:10Z</time></trkpt>
<trkpt lat="46.38158449" lon="6.15064482"><ele>533.668945</ele><time>2007-06-24T08:54:15Z</time></trkpt>
<trkpt lat="46.38195933" lon="6.14955643"><ele>537.514282</ele><time>2007-06-24T08:54:35Z</time></trkpt>
<trkpt lat="46.38238865" lon="6.14863928"><ele>541.359497</ele><time>2007-06-24T08:54:54Z</time></trkpt>
<trkpt lat="46.38280833" lon="6.14793872"><ele>543.282104</ele><time>2007-06-24T08:55:11Z</time></trkpt>
<trkpt lat="46.38301142" lon="6.14757629"><ele>546.16626</ele><time>2007-06-24T08:55:20Z</time></trkpt>
<trkpt lat="46.38338182" lon="6.14697036"><ele>549.530762</ele><time>2007-06-24T08:55:36Z</time></trkpt>
<trkpt lat="46.38383805" lon="6.14635547"><ele>551.934082</ele><time>2007-06-24T08:55:53Z</time></trkpt>
<trkpt lat="46.38445999" lon="6.14547729"><ele>550.492188</ele><time>2007-06-24T08:56:10Z</time></trkpt>
<trkpt lat="46.38454657" lon="6.14534168"><ele>550.972656</ele><time>2007-06-24T08:56:12Z</time></trkpt>
<trkpt lat="46.38461882" lon="6.14520103"><ele>549.050049</ele><time>2007-06-24T08:56:14Z</time></trkpt>
<trkpt lat="46.38516373" lon="6.14403049"><ele>548.088867</ele><time>2007-06-24T08:56:31Z</time></trkpt>
<trkpt lat="46.38584568" lon="6.14330127"><ele>550.011475</ele><time>2007-06-24T08:56:46Z</time></trkpt>
<trkpt lat="46.38645639" lon="6.14258529"><ele>550.011475</ele><time>2007-06-24T08:57:01Z</time></trkpt>
<trkpt lat="46.38654440" lon="6.14251764"><ele>556.26001</ele><time>2007-06-24T08:57:03Z</time></trkpt>
<trkpt lat="46.38659016" lon="6.14248856"><ele>552.895264</ele><time>2007-06-24T08:57:04Z</time></trkpt>
<trkpt lat="46.38668329" lon="6.14243986"><ele>549.530762</ele><time>2007-06-24T08:57:06Z</time></trkpt>
<trkpt lat="46.38673173" lon="6.14241756"><ele>552.895264</ele><time>2007-06-24T08:57:07Z</time></trkpt>
<trkpt lat="46.38702376" lon="6.14234523"><ele>554.817871</ele><time>2007-06-24T08:57:13Z</time></trkpt>
<trkpt lat="46.38716600" lon="6.14232863"><ele>558.66333</ele><time>2007-06-24T08:57:16Z</time></trkpt>
<trkpt lat="46.38721319" lon="6.14232587"><ele>554.817871</ele><time>2007-06-24T08:57:17Z</time></trkpt>
<trkpt lat="46.38739944" lon="6.14233484"><ele>554.337402</ele><time>2007-06-24T08:57:21Z</time></trkpt>
<trkpt lat="46.38755148" lon="6.14230810"><ele>554.817871</ele><time>2007-06-24T08:57:29Z</time></trkpt>
<trkpt lat="46.38755098" lon="6.14231262"><ele>555.298584</ele><time>2007-06-24T08:57:33Z</time></trkpt>
<trkpt lat="46.38754394" lon="6.14230449"><ele>555.298584</ele><time>2007-06-24T08:57:47Z</time></trkpt>
<trkpt lat="46.38754453" lon="6.14230718"><ele>551.934082</ele><time>2007-06-24T08:57:54Z</time></trkpt>
<trkpt lat="46.38754453" lon="6.14230759"><ele>551.934082</ele><time>2007-06-24T08:57:55Z</time></trkpt>
<trkpt lat="46.38754436" lon="6.14230843"><ele>557.702148</ele><time>2007-06-24T08:57:57Z</time></trkpt>
<trkpt lat="46.38754427" lon="6.14230894"><ele>557.702148</ele><time>2007-06-24T08:57:58Z</time></trkpt>
<trkpt lat="46.38754394" lon="6.14230927"><ele>554.337402</ele><time>2007-06-24T08:57:59Z</time></trkpt>
<trkpt lat="46.38754277" lon="6.14230994"><ele>558.182861</ele><time>2007-06-24T08:58:02Z</time></trkpt>
<trkpt lat="46.38754277" lon="6.14231036"><ele>557.702148</ele><time>2007-06-24T08:58:03Z</time></trkpt>
<trkpt lat="46.38754268" lon="6.14231078"><ele>553.375977</ele><time>2007-06-24T08:58:04Z</time></trkpt>
<trkpt lat="46.38754260" lon="6.14231103"><ele>553.375977</ele><time>2007-06-24T08:58:05Z</time></trkpt>
<trkpt lat="46.38754243" lon="6.14231145"><ele>555.298584</ele><time>2007-06-24T08:58:07Z</time></trkpt>
<trkpt lat="46.38754260" lon="6.14231212"><ele>559.624756</ele><time>2007-06-24T08:58:09Z</time></trkpt>
<trkpt lat="46.38754277" lon="6.14231254"><ele>556.26001</ele><time>2007-06-24T08:58:10Z</time></trkpt>
<trkpt lat="46.38754235" lon="6.14231355"><ele>552.895264</ele><time>2007-06-24T08:58:14Z</time></trkpt>
<trkpt lat="46.38754184" lon="6.14231396"><ele>558.66333</ele><time>2007-06-24T08:58:16Z</time></trkpt>
<trkpt lat="46.38754159" lon="6.14231413"><ele>556.26001</ele><time>2007-06-24T08:58:17Z</time></trkpt>
<trkpt lat="46.38753950" lon="6.14231438"><ele>553.375977</ele><time>2007-06-24T08:58:22Z</time></trkpt>
<trkpt lat="46.38753950" lon="6.14231455"><ele>557.221436</ele><time>2007-06-24T08:58:23Z</time></trkpt>
<trkpt lat="46.38753690" lon="6.14231598"><ele>552.895264</ele><time>2007-06-24T08:58:37Z</time></trkpt>
<trkpt lat="46.38753614" lon="6.14231589"><ele>556.740723</ele><time>2007-06-24T08:58:38Z</time></trkpt>
<trkpt lat="46.38753413" lon="6.14231564"><ele>553.375977</ele><time>2007-06-24T08:58:42Z</time></trkpt>
<trkpt lat="46.38753380" lon="6.14231564"><ele>553.375977</ele><time>2007-06-24T08:58:43Z</time></trkpt>
<trkpt lat="46.38753346" lon="6.14231564"><ele>558.66333</ele><time>2007-06-24T08:58:44Z</time></trkpt>
<trkpt lat="46.38753329" lon="6.14231564"><ele>557.221436</ele><time>2007-06-24T08:58:45Z</time></trkpt>
<trkpt lat="46.38753237" lon="6.14231606"><ele>553.375977</ele><time>2007-06-24T08:58:50Z</time></trkpt>
<trkpt lat="46.38753279" lon="6.14231614"><ele>556.740723</ele><time>2007-06-24T08:58:52Z</time></trkpt>
<trkpt lat="46.38753329" lon="6.14231698"><ele>557.702148</ele><time>2007-06-24T08:58:59Z</time></trkpt>
<trkpt lat="46.38753304" lon="6.14231765"><ele>554.337402</ele><time>2007-06-24T08:59:02Z</time></trkpt>
<trkpt lat="46.38754427" lon="6.14233232"><ele>555.298584</ele><time>2007-06-24T08:59:25Z</time></trkpt>
<trkpt lat="46.38754696" lon="6.14233643"><ele>554.817871</ele><time>2007-06-24T08:59:26Z</time></trkpt>
<trkpt lat="46.38764813" lon="6.14239485"><ele>556.26001</ele><time>2007-06-24T08:59:31Z</time></trkpt>
<trkpt lat="46.38786455" lon="6.14242293"><ele>557.221436</ele><time>2007-06-24T08:59:36Z</time></trkpt>
<trkpt lat="46.38869754" lon="6.14234758"><ele>557.702148</ele><time>2007-06-24T08:59:52Z</time></trkpt>
<trkpt lat="46.38965350" lon="6.14237976"><ele>558.66333</ele><time>2007-06-24T09:00:08Z</time></trkpt>
<trkpt lat="46.39000696" lon="6.14251052"><ele>557.702148</ele><time>2007-06-24T09:00:14Z</time></trkpt>
<trkpt lat="46.39091070" lon="6.14330965"><ele>556.740723</ele><time>2007-06-24T09:00:30Z</time></trkpt>
<trkpt lat="46.39181946" lon="6.14402672"><ele>559.144043</ele><time>2007-06-24T09:00:48Z</time></trkpt>
<trkpt lat="46.39276084" lon="6.14464648"><ele>561.06665</ele><time>2007-06-24T09:01:07Z</time></trkpt>
<trkpt lat="46.39319468" lon="6.14505988"><ele>561.547363</ele><time>2007-06-24T09:01:16Z</time></trkpt>
<trkpt lat="46.39381444" lon="6.14551292"><ele>562.508545</ele><time>2007-06-24T09:01:29Z</time></trkpt>
<trkpt lat="46.39440989" lon="6.14555885"><ele>565.392578</ele><time>2007-06-24T09:01:43Z</time></trkpt>
<trkpt lat="46.39489763" lon="6.14550076"><ele>568.276367</ele><time>2007-06-24T09:01:58Z</time></trkpt>
<trkpt lat="46.39504918" lon="6.14551535"><ele>570.198975</ele><time>2007-06-24T09:02:03Z</time></trkpt>
<trkpt lat="46.39544615" lon="6.14546254"><ele>573.083252</ele><time>2007-06-24T09:02:16Z</time></trkpt>
<trkpt lat="46.39582040" lon="6.14548367"><ele>575.967041</ele><time>2007-06-24T09:02:28Z</time></trkpt>
<trkpt lat="46.39616012" lon="6.14552356"><ele>577.889648</ele><time>2007-06-24T09:02:39Z</time></trkpt>
<trkpt lat="46.39649464" lon="6.14554192"><ele>581.254395</ele><time>2007-06-24T09:02:50Z</time></trkpt>
<trkpt lat="46.39686244" lon="6.14555533"><ele>583.657471</ele><time>2007-06-24T09:03:03Z</time></trkpt>
<trkpt lat="46.39739309" lon="6.14546916"><ele>586.541504</ele><time>2007-06-24T09:03:20Z</time></trkpt>
<trkpt lat="46.39779777" lon="6.14542005"><ele>588.945068</ele><time>2007-06-24T09:03:32Z</time></trkpt>
<trkpt lat="46.39831016" lon="6.14527906"><ele>590.867432</ele><time>2007-06-24T09:03:47Z</time></trkpt>
<trkpt lat="46.39883604" lon="6.14537160"><ele>592.790283</ele><time>2007-06-24T09:04:01Z</time></trkpt>
<trkpt lat="46.39920493" lon="6.14543027"><ele>594.232178</ele><time>2007-06-24T09:04:11Z</time></trkpt>
<trkpt lat="46.39974128" lon="6.14552700"><ele>597.59668</ele><time>2007-06-24T09:04:26Z</time></trkpt>
<trkpt lat="46.40003398" lon="6.14558450"><ele>599.038574</ele><time>2007-06-24T09:04:35Z</time></trkpt>
<trkpt lat="46.40042399" lon="6.14570964"><ele>601.922607</ele><time>2007-06-24T09:04:48Z</time></trkpt>
<trkpt lat="46.40076304" lon="6.14584945"><ele>604.326172</ele><time>2007-06-24T09:04:59Z</time></trkpt>
<trkpt lat="46.40086597" lon="6.14584669"><ele>605.287354</ele><time>2007-06-24T09:05:03Z</time></trkpt>
<trkpt lat="46.40117409" lon="6.14594224"><ele>609.132568</ele><time>2007-06-24T09:05:14Z</time></trkpt>
<trkpt lat="46.40144415" lon="6.14581534"><ele>610.574463</ele><time>2007-06-24T09:05:24Z</time></trkpt>
<trkpt lat="46.40155588" lon="6.14577183"><ele>612.49707</ele><time>2007-06-24T09:05:29Z</time></trkpt>
<trkpt lat="46.40180047" lon="6.14558458"><ele>613.458496</ele><time>2007-06-24T09:05:41Z</time></trkpt>
<trkpt lat="46.40215703" lon="6.14551359"><ele>615.861816</ele><time>2007-06-24T09:05:54Z</time></trkpt>
<trkpt lat="46.40231268" lon="6.14554376"><ele>617.78418</ele><time>2007-06-24T09:06:00Z</time></trkpt>
<trkpt lat="46.40265374" lon="6.14557989"><ele>621.14917</ele><time>2007-06-24T09:06:12Z</time></trkpt>
<trkpt lat="46.40304560" lon="6.14539616"><ele>623.55249</ele><time>2007-06-24T09:06:27Z</time></trkpt>
<trkpt lat="46.40339772" lon="6.14538057"><ele>627.397705</ele><time>2007-06-24T09:06:40Z</time></trkpt>
<trkpt lat="46.40374792" lon="6.14543312"><ele>630.281494</ele><time>2007-06-24T09:06:53Z</time></trkpt>
<trkpt lat="46.40400005" lon="6.14546807"><ele>633.645996</ele><time>2007-06-24T09:07:03Z</time></trkpt>
<trkpt lat="46.40402268" lon="6.14547579"><ele>633.645996</ele><time>2007-06-24T09:07:04Z</time></trkpt>
<trkpt lat="46.40431747" lon="6.14567419"><ele>635.088135</ele><time>2007-06-24T09:07:16Z</time></trkpt>
<trkpt lat="46.40469524" lon="6.14597258"><ele>637.972168</ele><time>2007-06-24T09:07:29Z</time></trkpt>
<trkpt lat="46.40485114" lon="6.14614299"><ele>634.607422</ele><time>2007-06-24T09:07:34Z</time></trkpt>
<trkpt lat="46.40487512" lon="6.14617182"><ele>637.972168</ele><time>2007-06-24T09:07:35Z</time></trkpt>
<trkpt lat="46.40494209" lon="6.14623946"><ele>639.414063</ele><time>2007-06-24T09:07:37Z</time></trkpt>
<trkpt lat="46.40535506" lon="6.14672494"><ele>641.33667</ele><time>2007-06-24T09:07:52Z</time></trkpt>
<trkpt lat="46.40539957" lon="6.14678353"><ele>638.452881</ele><time>2007-06-24T09:07:54Z</time></trkpt>
<trkpt lat="46.40541860" lon="6.14681052"><ele>642.778809</ele><time>2007-06-24T09:07:55Z</time></trkpt>
<trkpt lat="46.40574449" lon="6.14710297"><ele>642.778809</ele><time>2007-06-24T09:08:06Z</time></trkpt>
<trkpt lat="46.40619552" lon="6.14745869"><ele>644.220703</ele><time>2007-06-24T09:08:21Z</time></trkpt>
<trkpt lat="46.40663582" lon="6.14789095"><ele>646.624023</ele><time>2007-06-24T09:08:34Z</time></trkpt>
<trkpt lat="46.40701518" lon="6.14828129"><ele>648.546387</ele><time>2007-06-24T09:08:46Z</time></trkpt>
<trkpt lat="46.40725398" lon="6.14839093"><ele>649.988525</ele><time>2007-06-24T09:08:52Z</time></trkpt>
<trkpt lat="46.40782597" lon="6.14863124"><ele>651.43042</ele><time>2007-06-24T09:09:05Z</time></trkpt>
<trkpt lat="46.40802512" lon="6.14875697"><ele>652.872559</ele><time>2007-06-24T09:09:10Z</time></trkpt>
<trkpt lat="46.40856793" lon="6.14917346"><ele>654.795166</ele><time>2007-06-24T09:09:25Z</time></trkpt>
<trkpt lat="46.40903707" lon="6.14964084"><ele>657.198486</ele><time>2007-06-24T09:09:38Z</time></trkpt>
<trkpt lat="46.40949715" lon="6.15034542"><ele>659.121094</ele><time>2007-06-24T09:09:54Z</time></trkpt>
<trkpt lat="46.40996763" lon="6.15104975"><ele>662.005127</ele><time>2007-06-24T09:10:12Z</time></trkpt>
<trkpt lat="46.41040977" lon="6.15159684"><ele>664.408203</ele><time>2007-06-24T09:10:28Z</time></trkpt>
<trkpt lat="46.41075703" lon="6.15197092"><ele>665.850342</ele><time>2007-06-24T09:10:39Z</time></trkpt>
<trkpt lat="46.41120220" lon="6.15262748"><ele>667.292236</ele><time>2007-06-24T09:10:55Z</time></trkpt>
<trkpt lat="46.41170268" lon="6.15312696"><ele>669.215088</ele><time>2007-06-24T09:11:11Z</time></trkpt>
<trkpt lat="46.41210384" lon="6.15346299"><ele>670.656982</ele><time>2007-06-24T09:11:24Z</time></trkpt>
<trkpt lat="46.41242470" lon="6.15388175"><ele>672.57959</ele><time>2007-06-24T09:11:35Z</time></trkpt>
<trkpt lat="46.41256258" lon="6.15403455"><ele>673.541016</ele><time>2007-06-24T09:11:46Z</time></trkpt>
<trkpt lat="46.41259275" lon="6.15407277"><ele>674.021484</ele><time>2007-06-24T09:11:49Z</time></trkpt>
<trkpt lat="46.41265855" lon="6.15430637"><ele>674.502197</ele><time>2007-06-24T09:11:55Z</time></trkpt>
<trkpt lat="46.41272049" lon="6.15442590"><ele>673.541016</ele><time>2007-06-24T09:11:57Z</time></trkpt>
<trkpt lat="46.41288528" lon="6.15476495"><ele>673.060303</ele><time>2007-06-24T09:12:04Z</time></trkpt>
<trkpt lat="46.41293842" lon="6.15505840"><ele>672.098877</ele><time>2007-06-24T09:12:08Z</time></trkpt>
<trkpt lat="46.41292577" lon="6.15572769"><ele>663.447021</ele><time>2007-06-24T09:12:14Z</time></trkpt>
<trkpt lat="46.41293080" lon="6.15585803"><ele>663.447021</ele><time>2007-06-24T09:12:15Z</time></trkpt>
<trkpt lat="46.41300355" lon="6.15626992"><ele>660.562988</ele><time>2007-06-24T09:12:18Z</time></trkpt>
<trkpt lat="46.41305200" lon="6.15640344"><ele>660.562988</ele><time>2007-06-24T09:12:19Z</time></trkpt>
<trkpt lat="46.41345835" lon="6.15742905"><ele>658.640381</ele><time>2007-06-24T09:12:27Z</time></trkpt>
<trkpt lat="46.41360068" lon="6.15780775"><ele>656.717773</ele><time>2007-06-24T09:12:30Z</time></trkpt>
<trkpt lat="46.41381576" lon="6.15845927"><ele>654.314697</ele><time>2007-06-24T09:12:35Z</time></trkpt>
<trkpt lat="46.41394475" lon="6.15886336"><ele>652.391846</ele><time>2007-06-24T09:12:38Z</time></trkpt>
<trkpt lat="46.41401994" lon="6.15912496"><ele>658.159912</ele><time>2007-06-24T09:12:40Z</time></trkpt>
<trkpt lat="46.41406185" lon="6.15925237"><ele>655.756592</ele><time>2007-06-24T09:12:41Z</time></trkpt>
<trkpt lat="46.41421088" lon="6.15985905"><ele>653.833984</ele><time>2007-06-24T09:12:46Z</time></trkpt>
<trkpt lat="46.41423846" lon="6.16006474"><ele>651.43042</ele><time>2007-06-24T09:12:48Z</time></trkpt>
<trkpt lat="46.41432856" lon="6.16018812"><ele>651.911133</ele><time>2007-06-24T09:12:55Z</time></trkpt>
<trkpt lat="46.41433619" lon="6.16011227"><ele>655.275879</ele><time>2007-06-24T09:13:07Z</time></trkpt>
<trkpt lat="46.41433669" lon="6.16011059"><ele>653.353271</ele><time>2007-06-24T09:13:08Z</time></trkpt>
<trkpt lat="46.41432538" lon="6.16008025"><ele>650.949707</ele><time>2007-06-24T09:13:12Z</time></trkpt>
<trkpt lat="46.41431859" lon="6.16008268"><ele>651.911133</ele><time>2007-06-24T09:13:26Z</time></trkpt>
<trkpt lat="46.41433468" lon="6.16003239"><ele>652.872559</ele><time>2007-06-24T09:13:38Z</time></trkpt>
<trkpt lat="46.41435379" lon="6.15999484"><ele>653.353271</ele><time>2007-06-24T09:13:43Z</time></trkpt>
<trkpt lat="46.41438564" lon="6.16005720"><ele>652.872559</ele><time>2007-06-24T09:13:49Z</time></trkpt>
<trkpt lat="46.41444582" lon="6.16008863"><ele>654.314697</ele><time>2007-06-24T09:13:55Z</time></trkpt>
<trkpt lat="46.41466442" lon="6.16004010"><ele>656.717773</ele><time>2007-06-24T09:14:11Z</time></trkpt>
<trkpt lat="46.41483106" lon="6.15995787"><ele>659.601807</ele><time>2007-06-24T09:14:23Z</time></trkpt>
<trkpt lat="46.41503683" lon="6.15982183"><ele>662.485596</ele><time>2007-06-24T09:14:36Z</time></trkpt>
<trkpt lat="46.41523574" lon="6.15964808"><ele>665.369629</ele><time>2007-06-24T09:14:51Z</time></trkpt>
<trkpt lat="46.41535166" lon="6.15956753"><ele>666.811523</ele><time>2007-06-24T09:14:59Z</time></trkpt>
<trkpt lat="46.41552265" lon="6.15949100"><ele>669.695801</ele><time>2007-06-24T09:15:13Z</time></trkpt>
<trkpt lat="46.41573672" lon="6.15942487"><ele>673.060303</ele><time>2007-06-24T09:15:27Z</time></trkpt>
<trkpt lat="46.41595448" lon="6.15940089"><ele>676.424805</ele><time>2007-06-24T09:15:43Z</time></trkpt>
<trkpt lat="46.41600503" lon="6.15939008"><ele>676.424805</ele><time>2007-06-24T09:15:47Z</time></trkpt>
<trkpt lat="46.41621692" lon="6.15934549"><ele>678.828125</ele><time>2007-06-24T09:16:01Z</time></trkpt>
<trkpt lat="46.41635749" lon="6.15920275"><ele>681.711914</ele><time>2007-06-24T09:16:14Z</time></trkpt>
<trkpt lat="46.41641566" lon="6.15911725"><ele>683.153809</ele><time>2007-06-24T09:16:21Z</time></trkpt>
<trkpt lat="46.41654532" lon="6.15897006"><ele>686.999268</ele><time>2007-06-24T09:16:34Z</time></trkpt>
<trkpt lat="46.41668748" lon="6.15883059"><ele>689.883301</ele><time>2007-06-24T09:16:46Z</time></trkpt>
<trkpt lat="46.41690809" lon="6.15873252"><ele>691.805908</ele><time>2007-06-24T09:17:03Z</time></trkpt>
<trkpt lat="46.41695788" lon="6.15870805"><ele>692.286621</ele><time>2007-06-24T09:17:08Z</time></trkpt>
<trkpt lat="46.41714497" lon="6.15867024"><ele>695.17041</ele><time>2007-06-24T09:17:24Z</time></trkpt>
<trkpt lat="46.41730665" lon="6.15857360"><ele>698.054443</ele><time>2007-06-24T09:17:39Z</time></trkpt>
<trkpt lat="46.41733314" lon="6.15856279"><ele>698.534912</ele><time>2007-06-24T09:17:53Z</time></trkpt>
<trkpt lat="46.41728478" lon="6.15856379"><ele>698.534912</ele><time>2007-06-24T09:18:09Z</time></trkpt>
<trkpt lat="46.41730808" lon="6.15855508"><ele>698.534912</ele><time>2007-06-24T09:18:35Z</time></trkpt>
<trkpt lat="46.41734982" lon="6.15860537"><ele>698.054443</ele><time>2007-06-24T09:18:53Z</time></trkpt>
<trkpt lat="46.41735745" lon="6.15855969"><ele>697.093018</ele><time>2007-06-24T09:19:02Z</time></trkpt>
<trkpt lat="46.41735745" lon="6.15855692"><ele>701.419189</ele><time>2007-06-24T09:19:04Z</time></trkpt>
<trkpt lat="46.41735778" lon="6.15855658"><ele>699.015625</ele><time>2007-06-24T09:19:05Z</time></trkpt>
<trkpt lat="46.41735854" lon="6.15855348"><ele>698.534912</ele><time>2007-06-24T09:19:13Z</time></trkpt>
<trkpt lat="46.41735929" lon="6.15855365"><ele>700.938477</ele><time>2007-06-24T09:19:18Z</time></trkpt>
<trkpt lat="46.41736273" lon="6.15856295"><ele>697.093018</ele><time>2007-06-24T09:19:41Z</time></trkpt>
<trkpt lat="46.41734244" lon="6.15864166"><ele>698.534912</ele><time>2007-06-24T09:20:01Z</time></trkpt>
<trkpt lat="46.41705478" lon="6.15842675"><ele>698.054443</ele><time>2007-06-24T09:20:12Z</time></trkpt>
<trkpt lat="46.41696987" lon="6.15835894"><ele>697.57373</ele><time>2007-06-24T09:20:14Z</time></trkpt>
<trkpt lat="46.41662386" lon="6.15816968"><ele>693.247803</ele><time>2007-06-24T09:20:20Z</time></trkpt>
<trkpt lat="46.41603319" lon="6.15779199"><ele>691.325195</ele><time>2007-06-24T09:20:28Z</time></trkpt>
<trkpt lat="46.41566698" lon="6.15764346"><ele>686.999268</ele><time>2007-06-24T09:20:32Z</time></trkpt>
<trkpt lat="46.41557696" lon="6.15758093"><ele>686.999268</ele><time>2007-06-24T09:20:33Z</time></trkpt>
<trkpt lat="46.41518033" lon="6.15743735"><ele>682.192627</ele><time>2007-06-24T09:20:37Z</time></trkpt>
<trkpt lat="46.41509618" lon="6.15742888"><ele>681.231445</ele><time>2007-06-24T09:20:38Z</time></trkpt>
<trkpt lat="46.41496408" lon="6.15742260"><ele>679.308594</ele><time>2007-06-24T09:20:40Z</time></trkpt>
<trkpt lat="46.41481136" lon="6.15734934"><ele>676.905518</ele><time>2007-06-24T09:20:44Z</time></trkpt>
<trkpt lat="46.41479309" lon="6.15731564"><ele>677.38623</ele><time>2007-06-24T09:20:45Z</time></trkpt>
<trkpt lat="46.41483977" lon="6.15716184"><ele>678.828125</ele><time>2007-06-24T09:20:50Z</time></trkpt>
<trkpt lat="46.41488194" lon="6.15681977"><ele>682.67334</ele><time>2007-06-24T09:21:03Z</time></trkpt>
<trkpt lat="46.41489442" lon="6.15660729"><ele>685.076904</ele><time>2007-06-24T09:21:09Z</time></trkpt>
<trkpt lat="46.41496089" lon="6.15642993"><ele>686.038086</ele><time>2007-06-24T09:21:16Z</time></trkpt>
<trkpt lat="46.41510657" lon="6.15628324"><ele>689.402588</ele><time>2007-06-24T09:21:25Z</time></trkpt>
<trkpt lat="46.41532584" lon="6.15611653"><ele>691.325195</ele><time>2007-06-24T09:21:42Z</time></trkpt>
<trkpt lat="46.41547630" lon="6.15600589"><ele>694.689697</ele><time>2007-06-24T09:21:55Z</time></trkpt>
<trkpt lat="46.41564452" lon="6.15592727"><ele>698.054443</ele><time>2007-06-24T09:22:09Z</time></trkpt>
<trkpt lat="46.41574527" lon="6.15590489"><ele>699.496338</ele><time>2007-06-24T09:22:16Z</time></trkpt>
<trkpt lat="46.41589036" lon="6.15586272"><ele>703.341797</ele><time>2007-06-24T09:22:29Z</time></trkpt>
<trkpt lat="46.41598416" lon="6.15583708"><ele>705.264404</ele><time>2007-06-24T09:22:36Z</time></trkpt>
<trkpt lat="46.41603193" lon="6.15580816"><ele>706.706299</ele><time>2007-06-24T09:22:41Z</time></trkpt>
<trkpt lat="46.41617057" lon="6.15559777"><ele>709.109619</ele><time>2007-06-24T09:22:59Z</time></trkpt>
<trkpt lat="46.41624986" lon="6.15539426"><ele>712.474121</ele><time>2007-06-24T09:23:14Z</time></trkpt>
<trkpt lat="46.41625472" lon="6.15538454"><ele>712.474121</ele><time>2007-06-24T09:23:15Z</time></trkpt>
<trkpt lat="46.41643384" lon="6.15533156"><ele>714.877441</ele><time>2007-06-24T09:23:28Z</time></trkpt>
<trkpt lat="46.41646829" lon="6.15534020"><ele>715.838867</ele><time>2007-06-24T09:23:30Z</time></trkpt>
<trkpt lat="46.41650040" lon="6.15535067"><ele>716.31958</ele><time>2007-06-24T09:23:32Z</time></trkpt>
<trkpt lat="46.41652697" lon="6.15533299"><ele>714.396729</ele><time>2007-06-24T09:23:35Z</time></trkpt>
<trkpt lat="46.41652957" lon="6.15532544"><ele>718.242188</ele><time>2007-06-24T09:23:36Z</time></trkpt>
<trkpt lat="46.41653225" lon="6.15531790"><ele>717.761475</ele><time>2007-06-24T09:23:37Z</time></trkpt>
<trkpt lat="46.41659997" lon="6.15529519"><ele>717.761475</ele><time>2007-06-24T09:23:42Z</time></trkpt>
<trkpt lat="46.41688169" lon="6.15538387"><ele>721.606689</ele><time>2007-06-24T09:24:01Z</time></trkpt>
<trkpt lat="46.41712669" lon="6.15540365"><ele>724.971436</ele><time>2007-06-24T09:24:18Z</time></trkpt>
<trkpt lat="46.41723272" lon="6.15543575"><ele>724.971436</ele><time>2007-06-24T09:24:24Z</time></trkpt>
<trkpt lat="46.41748024" lon="6.15552435"><ele>728.81665</ele><time>2007-06-24T09:24:40Z</time></trkpt>
<trkpt lat="46.41766339" lon="6.15556969"><ele>732.181396</ele><time>2007-06-24T09:24:53Z</time></trkpt>
<trkpt lat="46.41780957" lon="6.15544748"><ele>735.06543</ele><time>2007-06-24T09:25:06Z</time></trkpt>
<trkpt lat="46.41798693" lon="6.15530424"><ele>737.949219</ele><time>2007-06-24T09:25:20Z</time></trkpt>
<trkpt lat="46.41812665" lon="6.15529158"><ele>738.910645</ele><time>2007-06-24T09:25:30Z</time></trkpt>
<trkpt lat="46.41836185" lon="6.15539392"><ele>741.313721</ele><time>2007-06-24T09:25:45Z</time></trkpt>
<trkpt lat="46.41856645" lon="6.15546173"><ele>744.678223</ele><time>2007-06-24T09:25:58Z</time></trkpt>
<trkpt lat="46.41883560" lon="6.15549937"><ele>747.081543</ele><time>2007-06-24T09:26:16Z</time></trkpt>
<trkpt lat="46.41905637" lon="6.15541714"><ele>749.96582</ele><time>2007-06-24T09:26:33Z</time></trkpt>
<trkpt lat="46.41908982" lon="6.15538973"><ele>751.407715</ele><time>2007-06-24T09:26:36Z</time></trkpt>
<trkpt lat="46.41922795" lon="6.15535704"><ele>753.330322</ele><time>2007-06-24T09:26:47Z</time></trkpt>
<trkpt lat="46.41945167" lon="6.15537255"><ele>756.214111</ele><time>2007-06-24T09:27:04Z</time></trkpt>
<trkpt lat="46.41953062" lon="6.15558604"><ele>759.098145</ele><time>2007-06-24T09:27:17Z</time></trkpt>
<trkpt lat="46.41971125" lon="6.15572216"><ele>761.982178</ele><time>2007-06-24T09:27:33Z</time></trkpt>
<trkpt lat="46.41993094" lon="6.15590723"><ele>764.866211</ele><time>2007-06-24T09:27:50Z</time></trkpt>
<trkpt lat="46.42011392" lon="6.15619356"><ele>767.269531</ele><time>2007-06-24T09:28:06Z</time></trkpt>
<trkpt lat="46.42029564" lon="6.15610865"><ele>770.15332</ele><time>2007-06-24T09:28:20Z</time></trkpt>
<trkpt lat="46.42023294" lon="6.15583188"><ele>773.037354</ele><time>2007-06-24T09:28:34Z</time></trkpt>
<trkpt lat="46.42017804" lon="6.15572208"><ele>773.518066</ele><time>2007-06-24T09:28:40Z</time></trkpt>
<trkpt lat="46.42014007" lon="6.15560498"><ele>773.518066</ele><time>2007-06-24T09:28:45Z</time></trkpt>
<trkpt lat="46.42010604" lon="6.15529024"><ele>775.921143</ele><time>2007-06-24T09:28:57Z</time></trkpt>
<trkpt lat="46.42010227" lon="6.15492848"><ele>778.805176</ele><time>2007-06-24T09:29:13Z</time></trkpt>
<trkpt lat="46.42027644" lon="6.15473402"><ele>781.689209</ele><time>2007-06-24T09:29:28Z</time></trkpt>
<trkpt lat="46.42053813" lon="6.15469647"><ele>785.053955</ele><time>2007-06-24T09:29:44Z</time></trkpt>
<trkpt lat="46.42074709" lon="6.15475506"><ele>787.457031</ele><time>2007-06-24T09:29:58Z</time></trkpt>
<trkpt lat="46.42091313" lon="6.15481465"><ele>789.379639</ele><time>2007-06-24T09:30:14Z</time></trkpt>
<trkpt lat="46.42096644" lon="6.15485379"><ele>790.821533</ele><time>2007-06-24T09:30:41Z</time></trkpt>
<trkpt lat="46.42111212" lon="6.15490467"><ele>791.302246</ele><time>2007-06-24T09:31:10Z</time></trkpt>
<trkpt lat="46.42139149" lon="6.15486377"><ele>794.666748</ele><time>2007-06-24T09:31:23Z</time></trkpt>
<trkpt lat="46.42147816" lon="6.15479127"><ele>796.109131</ele><time>2007-06-24T09:31:30Z</time></trkpt>
<trkpt lat="46.42145486" lon="6.15470175"><ele>796.109131</ele><time>2007-06-24T09:31:35Z</time></trkpt>
<trkpt lat="46.42128923" lon="6.15460385"><ele>798.99292</ele><time>2007-06-24T09:31:49Z</time></trkpt>
<trkpt lat="46.42123735" lon="6.15456303"><ele>800.435059</ele><time>2007-06-24T09:31:53Z</time></trkpt>
<trkpt lat="46.42114213" lon="6.15450863"><ele>799.954346</ele><time>2007-06-24T09:31:58Z</time></trkpt>
<trkpt lat="46.42106862" lon="6.15439665"><ele>801.39624</ele><time>2007-06-24T09:32:04Z</time></trkpt>
<trkpt lat="46.42105177" lon="6.15433395"><ele>803.799561</ele><time>2007-06-24T09:32:07Z</time></trkpt>
<trkpt lat="46.42104976" lon="6.15430998"><ele>802.357422</ele><time>2007-06-24T09:32:08Z</time></trkpt>
<trkpt lat="46.42110399" lon="6.15391846"><ele>805.722168</ele><time>2007-06-24T09:32:24Z</time></trkpt>
<trkpt lat="46.42102269" lon="6.15354689"><ele>808.605957</ele><time>2007-06-24T09:32:40Z</time></trkpt>
<trkpt lat="46.42088832" lon="6.15312905"><ele>811.009277</ele><time>2007-06-24T09:32:59Z</time></trkpt>
<trkpt lat="46.42090316" lon="6.15277927"><ele>812.932129</ele><time>2007-06-24T09:33:14Z</time></trkpt>
<trkpt lat="46.42093317" lon="6.15256428"><ele>816.296631</ele><time>2007-06-24T09:33:24Z</time></trkpt>
<trkpt lat="46.42096678" lon="6.15224107"><ele>819.661377</ele><time>2007-06-24T09:33:39Z</time></trkpt>
<trkpt lat="46.42104490" lon="6.15208458"><ele>821.58374</ele><time>2007-06-24T09:33:50Z</time></trkpt>
<trkpt lat="46.42120030" lon="6.15222783"><ele>824.467773</ele><time>2007-06-24T09:34:05Z</time></trkpt>
<trkpt lat="46.42132628" lon="6.15234626"><ele>826.871094</ele><time>2007-06-24T09:34:16Z</time></trkpt>
<trkpt lat="46.42141177" lon="6.15228944"><ele>829.274414</ele><time>2007-06-24T09:34:25Z</time></trkpt>
<trkpt lat="46.42141186" lon="6.15227343"><ele>829.755127</ele><time>2007-06-24T09:34:27Z</time></trkpt>
<trkpt lat="46.42136014" lon="6.15194050"><ele>833.119629</ele><time>2007-06-24T09:34:44Z</time></trkpt>
<trkpt lat="46.42134204" lon="6.15190890"><ele>833.600342</ele><time>2007-06-24T09:34:46Z</time></trkpt>
<trkpt lat="46.42131412" lon="6.15154127"><ele>835.522949</ele><time>2007-06-24T09:35:06Z</time></trkpt>
<trkpt lat="46.42127892" lon="6.15123373"><ele>838.406982</ele><time>2007-06-24T09:35:20Z</time></trkpt>
<trkpt lat="46.42125092" lon="6.15108646"><ele>841.290771</ele><time>2007-06-24T09:35:28Z</time></trkpt>
<trkpt lat="46.42115126" lon="6.15078480"><ele>843.213379</ele><time>2007-06-24T09:35:45Z</time></trkpt>
<trkpt lat="46.42113676" lon="6.15059168"><ele>845.13623</ele><time>2007-06-24T09:35:56Z</time></trkpt>
<trkpt lat="46.42110776" lon="6.15041273"><ele>847.539551</ele><time>2007-06-24T09:36:07Z</time></trkpt>
<trkpt lat="46.42111639" lon="6.15021097"><ele>849.462158</ele><time>2007-06-24T09:36:23Z</time></trkpt>
<trkpt lat="46.42114749" lon="6.15015037"><ele>850.904053</ele><time>2007-06-24T09:36:28Z</time></trkpt>
<trkpt lat="46.42118630" lon="6.15011542"><ele>851.865479</ele><time>2007-06-24T09:36:32Z</time></trkpt>
<trkpt lat="46.42126794" lon="6.15015917"><ele>853.788086</ele><time>2007-06-24T09:36:43Z</time></trkpt>
<trkpt lat="46.42131245" lon="6.15025456"><ele>855.710693</ele><time>2007-06-24T09:36:50Z</time></trkpt>
<trkpt lat="46.42137489" lon="6.15043519"><ele>858.114014</ele><time>2007-06-24T09:37:05Z</time></trkpt>
<trkpt lat="46.42146148" lon="6.15051700"><ele>860.036621</ele><time>2007-06-24T09:37:14Z</time></trkpt>
<trkpt lat="46.42150833" lon="6.15053292"><ele>861.47876</ele><time>2007-06-24T09:37:18Z</time></trkpt>
<trkpt lat="46.42168988" lon="6.15043402"><ele>863.401367</ele><time>2007-06-24T09:37:37Z</time></trkpt>
<trkpt lat="46.42182483" lon="6.15048087"><ele>866.765869</ele><time>2007-06-24T09:37:49Z</time></trkpt>
<trkpt lat="46.42195308" lon="6.15065672"><ele>869.649902</ele><time>2007-06-24T09:38:03Z</time></trkpt>
<trkpt lat="46.42212692" lon="6.15091690"><ele>872.533691</ele><time>2007-06-24T09:38:21Z</time></trkpt>
<trkpt lat="46.42229497" lon="6.15117288"><ele>875.41748</ele><time>2007-06-24T09:38:38Z</time></trkpt>
<trkpt lat="46.42237259" lon="6.15134102"><ele>878.301758</ele><time>2007-06-24T09:38:51Z</time></trkpt>
<trkpt lat="46.42238097" lon="6.15135519"><ele>878.782471</ele><time>2007-06-24T09:38:52Z</time></trkpt>
<trkpt lat="46.42248834" lon="6.15160715"><ele>881.66626</ele><time>2007-06-24T09:39:09Z</time></trkpt>
<trkpt lat="46.42258884" lon="6.15180580"><ele>884.06958</ele><time>2007-06-24T09:39:24Z</time></trkpt>
<trkpt lat="46.42261902" lon="6.15186137"><ele>884.06958</ele><time>2007-06-24T09:39:27Z</time></trkpt>
<trkpt lat="46.42266763" lon="6.15196405"><ele>885.992188</ele><time>2007-06-24T09:39:31Z</time></trkpt>
<trkpt lat="46.42279697" lon="6.15207620"><ele>887.914795</ele><time>2007-06-24T09:39:41Z</time></trkpt>
<trkpt lat="46.42280309" lon="6.15207947"><ele>885.511475</ele><time>2007-06-24T09:39:42Z</time></trkpt>
<trkpt lat="46.42284198" lon="6.15210730"><ele>888.876221</ele><time>2007-06-24T09:39:45Z</time></trkpt>
<trkpt lat="46.42289143" lon="6.15212423"><ele>888.876221</ele><time>2007-06-24T09:39:48Z</time></trkpt>
<trkpt lat="46.42313115" lon="6.15211392"><ele>891.76001</ele><time>2007-06-24T09:40:06Z</time></trkpt>
<trkpt lat="46.42314339" lon="6.15211425"><ele>892.72168</ele><time>2007-06-24T09:40:07Z</time></trkpt>
<trkpt lat="46.42332880" lon="6.15196036"><ele>894.163574</ele><time>2007-06-24T09:40:23Z</time></trkpt>
<trkpt lat="46.42351194" lon="6.15185785"><ele>898.489258</ele><time>2007-06-24T09:40:36Z</time></trkpt>
<trkpt lat="46.42353424" lon="6.15184595"><ele>898.969971</ele><time>2007-06-24T09:40:38Z</time></trkpt>
<trkpt lat="46.42376659" lon="6.15189406"><ele>901.854004</ele><time>2007-06-24T09:40:54Z</time></trkpt>
<trkpt lat="46.42394504" lon="6.15200663"><ele>904.737793</ele><time>2007-06-24T09:41:09Z</time></trkpt>
<trkpt lat="46.42414352" lon="6.15200822"><ele>905.699219</ele><time>2007-06-24T09:41:20Z</time></trkpt>
<trkpt lat="46.42417076" lon="6.15196413"><ele>906.6604</ele><time>2007-06-24T09:41:38Z</time></trkpt>
<trkpt lat="46.42419532" lon="6.15199573"><ele>906.6604</ele><time>2007-06-24T09:42:06Z</time></trkpt>
<trkpt lat="46.42418736" lon="6.15180387"><ele>909.544678</ele><time>2007-06-24T09:42:20Z</time></trkpt>
<trkpt lat="46.42402307" lon="6.15164512"><ele>912.428467</ele><time>2007-06-24T09:42:36Z</time></trkpt>
<trkpt lat="46.42380866" lon="6.15145862"><ele>914.831787</ele><time>2007-06-24T09:42:52Z</time></trkpt>
<trkpt lat="46.42361705" lon="6.15135259"><ele>918.196289</ele><time>2007-06-24T09:43:05Z</time></trkpt>
<trkpt lat="46.42343433" lon="6.15124103"><ele>922.041504</ele><time>2007-06-24T09:43:19Z</time></trkpt>
<trkpt lat="46.42343156" lon="6.15111572"><ele>923.483643</ele><time>2007-06-24T09:43:25Z</time></trkpt>
<trkpt lat="46.42346282" lon="6.15099896"><ele>924.445068</ele><time>2007-06-24T09:43:32Z</time></trkpt>
<trkpt lat="46.42346936" lon="6.15062345"><ele>927.80957</ele><time>2007-06-24T09:43:50Z</time></trkpt>
<trkpt lat="46.42342485" lon="6.15038733"><ele>930.212891</ele><time>2007-06-24T09:44:04Z</time></trkpt>
<trkpt lat="46.42339585" lon="6.15032497"><ele>930.693604</ele><time>2007-06-24T09:44:08Z</time></trkpt>
<trkpt lat="46.42325713" lon="6.15023889"><ele>932.616211</ele><time>2007-06-24T09:44:19Z</time></trkpt>
<trkpt lat="46.42322704" lon="6.15023805"><ele>933.09668</ele><time>2007-06-24T09:44:23Z</time></trkpt>
<trkpt lat="46.42316476" lon="6.15019857"><ele>933.577393</ele><time>2007-06-24T09:44:28Z</time></trkpt>
<trkpt lat="46.42300073" lon="6.15008726"><ele>935.980713</ele><time>2007-06-24T09:44:38Z</time></trkpt>
<trkpt lat="46.42294876" lon="6.14984502"><ele>938.864746</ele><time>2007-06-24T09:44:50Z</time></trkpt>
<trkpt lat="46.42298548" lon="6.14961938"><ele>940.306885</ele><time>2007-06-24T09:45:02Z</time></trkpt>
<trkpt lat="46.42300257" lon="6.14955786"><ele>941.748779</ele><time>2007-06-24T09:45:06Z</time></trkpt>
<trkpt lat="46.42303987" lon="6.14950052"><ele>942.229492</ele><time>2007-06-24T09:45:11Z</time></trkpt>
<trkpt lat="46.42311162" lon="6.14920079"><ele>945.113281</ele><time>2007-06-24T09:45:26Z</time></trkpt>
<trkpt lat="46.42311573" lon="6.14917003"><ele>946.074707</ele><time>2007-06-24T09:45:28Z</time></trkpt>
<trkpt lat="46.42307860" lon="6.14888286"><ele>947.516602</ele><time>2007-06-24T09:45:43Z</time></trkpt>
<trkpt lat="46.42306997" lon="6.14865605"><ele>950.400635</ele><time>2007-06-24T09:45:55Z</time></trkpt>
<trkpt lat="46.42303334" lon="6.14847776"><ele>951.361816</ele><time>2007-06-24T09:46:04Z</time></trkpt>
<trkpt lat="46.42302814" lon="6.14832127"><ele>953.284424</ele><time>2007-06-24T09:46:13Z</time></trkpt>
<trkpt lat="46.42302822" lon="6.14803277"><ele>956.64917</ele><time>2007-06-24T09:46:28Z</time></trkpt>
<trkpt lat="46.42305764" lon="6.14766673"><ele>959.533203</ele><time>2007-06-24T09:46:45Z</time></trkpt>
<trkpt lat="46.42307357" lon="6.14741729"><ele>963.378418</ele><time>2007-06-24T09:46:59Z</time></trkpt>
<trkpt lat="46.42309838" lon="6.14718184"><ele>965.301025</ele><time>2007-06-24T09:47:12Z</time></trkpt>
<trkpt lat="46.42314607" lon="6.14691027"><ele>968.184814</ele><time>2007-06-24T09:47:28Z</time></trkpt>
<trkpt lat="46.42317700" lon="6.14671664"><ele>970.107422</ele><time>2007-06-24T09:47:37Z</time></trkpt>
<trkpt lat="46.42316644" lon="6.14661229"><ele>970.588135</ele><time>2007-06-24T09:47:40Z</time></trkpt>
<trkpt lat="46.42320056" lon="6.14648153"><ele>971.068848</ele><time>2007-06-24T09:47:46Z</time></trkpt>
<trkpt lat="46.42322746" lon="6.14636829"><ele>972.991699</ele><time>2007-06-24T09:47:52Z</time></trkpt>
<trkpt lat="46.42324490" lon="6.14613360"><ele>974.914307</ele><time>2007-06-24T09:48:05Z</time></trkpt>
<trkpt lat="46.42332729" lon="6.14588876"><ele>978.278809</ele><time>2007-06-24T09:48:19Z</time></trkpt>
<trkpt lat="46.42334850" lon="6.14558576"><ele>980.682129</ele><time>2007-06-24T09:48:32Z</time></trkpt>
<trkpt lat="46.42334288" lon="6.14546036"><ele>981.643311</ele><time>2007-06-24T09:48:38Z</time></trkpt>
<trkpt lat="46.42334338" lon="6.14524947"><ele>984.046631</ele><time>2007-06-24T09:48:52Z</time></trkpt>
<trkpt lat="46.42335168" lon="6.14514847"><ele>985.969238</ele><time>2007-06-24T09:48:58Z</time></trkpt>
<trkpt lat="46.42342192" lon="6.14499458"><ele>988.372803</ele><time>2007-06-24T09:49:11Z</time></trkpt>
<trkpt lat="46.42347959" lon="6.14509106"><ele>989.814697</ele><time>2007-06-24T09:49:22Z</time></trkpt>
<trkpt lat="46.42358922" lon="6.14523137"><ele>992.69873</ele><time>2007-06-24T09:49:35Z</time></trkpt>
<trkpt lat="46.42364337" lon="6.14541527"><ele>994.140625</ele><time>2007-06-24T09:49:46Z</time></trkpt>
<trkpt lat="46.42366156" lon="6.14568324"><ele>997.024414</ele><time>2007-06-24T09:49:58Z</time></trkpt>
<trkpt lat="46.42360875" lon="6.14586253"><ele>998.466309</ele><time>2007-06-24T09:50:10Z</time></trkpt>
<trkpt lat="46.42361823" lon="6.14597250"><ele>999.427734</ele><time>2007-06-24T09:50:16Z</time></trkpt>
<trkpt lat="46.42365133" lon="6.14632512"><ele>1001.350342</ele><time>2007-06-24T09:50:30Z</time></trkpt>
<trkpt lat="46.42366667" lon="6.14660282"><ele>1004.234619</ele><time>2007-06-24T09:50:45Z</time></trkpt>
<trkpt lat="46.42368587" lon="6.14670893"><ele>1006.156982</ele><time>2007-06-24T09:50:50Z</time></trkpt>
<trkpt lat="46.42372333" lon="6.14693482"><ele>1009.041016</ele><time>2007-06-24T09:51:02Z</time></trkpt>
<trkpt lat="46.42382467" lon="6.14721780"><ele>1010.963623</ele><time>2007-06-24T09:51:18Z</time></trkpt>
<trkpt lat="46.42390338" lon="6.14738644"><ele>1012.88623</ele><time>2007-06-24T09:51:29Z</time></trkpt>
<trkpt lat="46.42391117" lon="6.14742357"><ele>1013.366943</ele><time>2007-06-24T09:51:31Z</time></trkpt>
<trkpt lat="46.42401737" lon="6.14767084"><ele>1015.770264</ele><time>2007-06-24T09:51:43Z</time></trkpt>
<trkpt lat="46.42405752" lon="6.14772197"><ele>1016.250732</ele><time>2007-06-24T09:51:47Z</time></trkpt>
<trkpt lat="46.42412860" lon="6.14790754"><ele>1019.134766</ele><time>2007-06-24T09:51:58Z</time></trkpt>
<trkpt lat="46.42427168" lon="6.14816956"><ele>1021.538086</ele><time>2007-06-24T09:52:13Z</time></trkpt>
<trkpt lat="46.42438953" lon="6.14829026"><ele>1024.422119</ele><time>2007-06-24T09:52:26Z</time></trkpt>
<trkpt lat="46.42447243" lon="6.14836645"><ele>1025.383301</ele><time>2007-06-24T09:52:33Z</time></trkpt>
<trkpt lat="46.42469513" lon="6.14850995"><ele>1028.748047</ele><time>2007-06-24T09:52:51Z</time></trkpt>
<trkpt lat="46.42487945" lon="6.14865404"><ele>1031.631836</ele><time>2007-06-24T09:53:06Z</time></trkpt>
<trkpt lat="46.42502647" lon="6.14889602"><ele>1034.515869</ele><time>2007-06-24T09:53:24Z</time></trkpt>
<trkpt lat="46.42514373" lon="6.14906047"><ele>1037.399902</ele><time>2007-06-24T09:53:38Z</time></trkpt>
<trkpt lat="46.42516393" lon="6.14907799"><ele>1037.399902</ele><time>2007-06-24T09:53:40Z</time></trkpt>
<trkpt lat="46.42538019" lon="6.14922694"><ele>1039.803223</ele><time>2007-06-24T09:53:57Z</time></trkpt>
<trkpt lat="46.42551279" lon="6.14926977"><ele>1043.167725</ele><time>2007-06-24T09:54:07Z</time></trkpt>
<trkpt lat="46.42560910" lon="6.14926902"><ele>1044.609619</ele><time>2007-06-24T09:54:15Z</time></trkpt>
<trkpt lat="46.42579459" lon="6.14936524"><ele>1047.974365</ele><time>2007-06-24T09:54:30Z</time></trkpt>
<trkpt lat="46.42601495" lon="6.14944914"><ele>1050.858154</ele><time>2007-06-24T09:54:45Z</time></trkpt>
<trkpt lat="46.42612743" lon="6.14955526"><ele>1049.41626</ele><time>2007-06-24T09:54:51Z</time></trkpt>
<trkpt lat="46.42628334" lon="6.14959398"><ele>1051.338867</ele><time>2007-06-24T09:55:04Z</time></trkpt>
<trkpt lat="46.42633673" lon="6.14958904"><ele>1051.81958</ele><time>2007-06-24T09:55:14Z</time></trkpt>
<trkpt lat="46.42636280" lon="6.14954989"><ele>1052.781006</ele><time>2007-06-24T09:55:17Z</time></trkpt>
<trkpt lat="46.42609583" lon="6.14935074"><ele>1053.261719</ele><time>2007-06-24T09:55:33Z</time></trkpt>
<trkpt lat="46.42587405" lon="6.14914672"><ele>1055.184326</ele><time>2007-06-24T09:55:46Z</time></trkpt>
<trkpt lat="46.42563558" lon="6.14902292"><ele>1057.587646</ele><time>2007-06-24T09:56:00Z</time></trkpt>
<trkpt lat="46.42556727" lon="6.14899602"><ele>1059.990723</ele><time>2007-06-24T09:56:04Z</time></trkpt>
<trkpt lat="46.42540458" lon="6.14865554"><ele>1063.355469</ele><time>2007-06-24T09:56:20Z</time></trkpt>
<trkpt lat="46.42531816" lon="6.14824316"><ele>1066.239258</ele><time>2007-06-24T09:56:38Z</time></trkpt>
<trkpt lat="46.42522378" lon="6.14788743"><ele>1069.123535</ele><time>2007-06-24T09:56:56Z</time></trkpt>
<trkpt lat="46.42514884" lon="6.14777628"><ele>1072.96875</ele><time>2007-06-24T09:57:04Z</time></trkpt>
<trkpt lat="46.42514256" lon="6.14775424"><ele>1072.96875</ele><time>2007-06-24T09:57:05Z</time></trkpt>
<trkpt lat="46.42513795" lon="6.14773873"><ele>1072.488037</ele><time>2007-06-24T09:57:06Z</time></trkpt>
<trkpt lat="46.42498607" lon="6.14744914"><ele>1075.371826</ele><time>2007-06-24T09:57:22Z</time></trkpt>
<trkpt lat="46.42494324" lon="6.14719567"><ele>1077.294678</ele><time>2007-06-24T09:57:33Z</time></trkpt>
<trkpt lat="46.42492664" lon="6.14703013"><ele>1079.697754</ele><time>2007-06-24T09:57:41Z</time></trkpt>
<trkpt lat="46.42491273" lon="6.14697757"><ele>1080.178467</ele><time>2007-06-24T09:57:44Z</time></trkpt>
<trkpt lat="46.42490719" lon="6.14693197"><ele>1081.139893</ele><time>2007-06-24T09:57:46Z</time></trkpt>
<trkpt lat="46.42488624" lon="6.14673425"><ele>1083.062256</ele><time>2007-06-24T09:57:55Z</time></trkpt>
<trkpt lat="46.42498573" lon="6.14636678"><ele>1085.46582</ele><time>2007-06-24T09:58:12Z</time></trkpt>
<trkpt lat="46.42521825" lon="6.14625036"><ele>1088.830566</ele><time>2007-06-24T09:58:28Z</time></trkpt>
<trkpt lat="46.42541287" lon="6.14610460"><ele>1091.233643</ele><time>2007-06-24T09:58:43Z</time></trkpt>
<trkpt lat="46.42547968" lon="6.14597929"><ele>1094.117676</ele><time>2007-06-24T09:58:51Z</time></trkpt>
<trkpt lat="46.42554816" lon="6.14570755"><ele>1097.001465</ele><time>2007-06-24T09:59:03Z</time></trkpt>
<trkpt lat="46.42560968" lon="6.14544293"><ele>1100.846924</ele><time>2007-06-24T09:59:17Z</time></trkpt>
<trkpt lat="46.42556559" lon="6.14513833"><ele>1103.730957</ele><time>2007-06-24T09:59:32Z</time></trkpt>
<trkpt lat="46.42550139" lon="6.14479794"><ele>1107.095459</ele><time>2007-06-24T09:59:48Z</time></trkpt>
<trkpt lat="46.42539997" lon="6.14442486"><ele>1109.979248</ele><time>2007-06-24T10:00:06Z</time></trkpt>
<trkpt lat="46.42537893" lon="6.14400518"><ele>1113.343994</ele><time>2007-06-24T10:00:25Z</time></trkpt>
<trkpt lat="46.42540919" lon="6.14375833"><ele>1116.70874</ele><time>2007-06-24T10:00:36Z</time></trkpt>
<trkpt lat="46.42548119" lon="6.14339615"><ele>1119.592773</ele><time>2007-06-24T10:00:53Z</time></trkpt>
<trkpt lat="46.42552695" lon="6.14327244"><ele>1121.99585</ele><time>2007-06-24T10:00:59Z</time></trkpt>
<trkpt lat="46.42561245" lon="6.14306632"><ele>1125.841064</ele><time>2007-06-24T10:01:09Z</time></trkpt>
<trkpt lat="46.42566676" lon="6.14289349"><ele>1124.39917</ele><time>2007-06-24T10:01:18Z</time></trkpt>
<trkpt lat="46.42567313" lon="6.14285485"><ele>1128.244385</ele><time>2007-06-24T10:01:20Z</time></trkpt>
<trkpt lat="46.42567556" lon="6.14283616"><ele>1126.80249</ele><time>2007-06-24T10:01:21Z</time></trkpt>
<trkpt lat="46.42572384" lon="6.14251798"><ele>1129.686279</ele><time>2007-06-24T10:01:38Z</time></trkpt>
<trkpt lat="46.42576885" lon="6.14224892"><ele>1132.570557</ele><time>2007-06-24T10:01:50Z</time></trkpt>
<trkpt lat="46.42583809" lon="6.14201104"><ele>1135.935059</ele><time>2007-06-24T10:02:02Z</time></trkpt>
<trkpt lat="46.42591923" lon="6.14168105"><ele>1138.819092</ele><time>2007-06-24T10:02:19Z</time></trkpt>
<trkpt lat="46.42594077" lon="6.14164274"><ele>1139.780273</ele><time>2007-06-24T10:02:21Z</time></trkpt>
<trkpt lat="46.42602375" lon="6.14137050"><ele>1141.222168</ele><time>2007-06-24T10:02:37Z</time></trkpt>
<trkpt lat="46.42605568" lon="6.14133286"><ele>1141.222168</ele><time>2007-06-24T10:03:01Z</time></trkpt>
<trkpt lat="46.42605635" lon="6.14133043"><ele>1144.106201</ele><time>2007-06-24T10:03:02Z</time></trkpt>
<trkpt lat="46.42605996" lon="6.14133278"><ele>1140.741455</ele><time>2007-06-24T10:03:07Z</time></trkpt>
<trkpt lat="46.42604328" lon="6.14133647"><ele>1141.702881</ele><time>2007-06-24T10:03:12Z</time></trkpt>
<trkpt lat="46.42605317" lon="6.14124946"><ele>1142.664307</ele><time>2007-06-24T10:03:17Z</time></trkpt>
<trkpt lat="46.42609877" lon="6.14091855"><ele>1146.028809</ele><time>2007-06-24T10:03:35Z</time></trkpt>
<trkpt lat="46.42608259" lon="6.14070397"><ele>1149.393555</ele><time>2007-06-24T10:03:45Z</time></trkpt>
<trkpt lat="46.42607152" lon="6.14050683"><ele>1150.835449</ele><time>2007-06-24T10:03:54Z</time></trkpt>
<trkpt lat="46.42624327" lon="6.14048713"><ele>1151.796875</ele><time>2007-06-24T10:04:07Z</time></trkpt>
<trkpt lat="46.42628585" lon="6.14079047"><ele>1155.64209</ele><time>2007-06-24T10:04:20Z</time></trkpt>
<trkpt lat="46.42628996" lon="6.14081838"><ele>1154.680664</ele><time>2007-06-24T10:04:21Z</time></trkpt>
<trkpt lat="46.42650219" lon="6.14121082"><ele>1155.64209</ele><time>2007-06-24T10:04:37Z</time></trkpt>
<trkpt lat="46.42648970" lon="6.14156663"><ele>1157.083984</ele><time>2007-06-24T10:04:48Z</time></trkpt>
<trkpt lat="46.42652088" lon="6.14218396"><ele>1158.525879</ele><time>2007-06-24T10:05:05Z</time></trkpt>
<trkpt lat="46.42648919" lon="6.14269903"><ele>1159.967773</ele><time>2007-06-24T10:05:20Z</time></trkpt>
<trkpt lat="46.42648048" lon="6.14334293"><ele>1161.890625</ele><time>2007-06-24T10:05:35Z</time></trkpt>
<trkpt lat="46.42661484" lon="6.14384986"><ele>1163.812988</ele><time>2007-06-24T10:05:49Z</time></trkpt>
<trkpt lat="46.42686403" lon="6.14432772"><ele>1165.255371</ele><time>2007-06-24T10:06:03Z</time></trkpt>
<trkpt lat="46.42714969" lon="6.14483315"><ele>1167.177979</ele><time>2007-06-24T10:06:19Z</time></trkpt>
<trkpt lat="46.42749737" lon="6.14523078"><ele>1168.13916</ele><time>2007-06-24T10:06:34Z</time></trkpt>
<trkpt lat="46.42781094" lon="6.14534117"><ele>1169.100586</ele><time>2007-06-24T10:06:47Z</time></trkpt>
<trkpt lat="46.42818050" lon="6.14549632"><ele>1171.503662</ele><time>2007-06-24T10:07:02Z</time></trkpt>
<trkpt lat="46.42849817" lon="6.14562909"><ele>1173.426514</ele><time>2007-06-24T10:07:16Z</time></trkpt>
<trkpt lat="46.42888608" lon="6.14572724"><ele>1175.348877</ele><time>2007-06-24T10:07:30Z</time></trkpt>
<trkpt lat="46.42918649" lon="6.14579857"><ele>1177.271729</ele><time>2007-06-24T10:07:41Z</time></trkpt>
<trkpt lat="46.42948765" lon="6.14553924"><ele>1179.194092</ele><time>2007-06-24T10:07:54Z</time></trkpt>
<trkpt lat="46.42984514" lon="6.14524428"><ele>1180.636475</ele><time>2007-06-24T10:08:07Z</time></trkpt>
<trkpt lat="46.43019852" lon="6.14508016"><ele>1181.597656</ele><time>2007-06-24T10:08:20Z</time></trkpt>
<trkpt lat="46.43057462" lon="6.14499106"><ele>1183.520264</ele><time>2007-06-24T10:08:34Z</time></trkpt>
<trkpt lat="46.43103948" lon="6.14494974"><ele>1185.442871</ele><time>2007-06-24T10:08:50Z</time></trkpt>
<trkpt lat="46.43126302" lon="6.14486198"><ele>1185.923584</ele><time>2007-06-24T10:09:00Z</time></trkpt>
<trkpt lat="46.43113780" lon="6.14476626"><ele>1188.326904</ele><time>2007-06-24T10:09:11Z</time></trkpt>
<trkpt lat="46.43110427" lon="6.14476089"><ele>1188.326904</ele><time>2007-06-24T10:09:13Z</time></trkpt>
<trkpt lat="46.43084083" lon="6.14467967"><ele>1191.691406</ele><time>2007-06-24T10:09:30Z</time></trkpt>
<trkpt lat="46.43060362" lon="6.14460549"><ele>1195.055908</ele><time>2007-06-24T10:09:45Z</time></trkpt>
<trkpt lat="46.43028268" lon="6.14448496"><ele>1196.017578</ele><time>2007-06-24T10:10:01Z</time></trkpt>
<trkpt lat="46.42997674" lon="6.14429545"><ele>1198.901367</ele><time>2007-06-24T10:10:16Z</time></trkpt>
<trkpt lat="46.42977532" lon="6.14414290"><ele>1202.265869</ele><time>2007-06-24T10:10:28Z</time></trkpt>
<trkpt lat="46.42974062" lon="6.14412077"><ele>1202.265869</ele><time>2007-06-24T10:10:30Z</time></trkpt>
<trkpt lat="46.42941548" lon="6.14400317"><ele>1204.188721</ele><time>2007-06-24T10:10:47Z</time></trkpt>
<trkpt lat="46.42913603" lon="6.14398708"><ele>1207.553223</ele><time>2007-06-24T10:11:00Z</time></trkpt>
<trkpt lat="46.42880956" lon="6.14377510"><ele>1209.956299</ele><time>2007-06-24T10:11:18Z</time></trkpt>
<trkpt lat="46.42849113" lon="6.14346136"><ele>1212.840576</ele><time>2007-06-24T10:11:37Z</time></trkpt>
<trkpt lat="46.42840723" lon="6.14334008"><ele>1214.282471</ele><time>2007-06-24T10:11:43Z</time></trkpt>
<trkpt lat="46.42826297" lon="6.14287882"><ele>1216.205078</ele><time>2007-06-24T10:12:03Z</time></trkpt>
<trkpt lat="46.42824596" lon="6.14255846"><ele>1218.608398</ele><time>2007-06-24T10:12:18Z</time></trkpt>
<trkpt lat="46.42826658" lon="6.14228345"><ele>1221.9729</ele><time>2007-06-24T10:12:30Z</time></trkpt>
<trkpt lat="46.42832299" lon="6.14194868"><ele>1223.895508</ele><time>2007-06-24T10:12:45Z</time></trkpt>
<trkpt lat="46.42844528" lon="6.14163872"><ele>1226.298828</ele><time>2007-06-24T10:13:01Z</time></trkpt>
<trkpt lat="46.42851896" lon="6.14147980"><ele>1228.702393</ele><time>2007-06-24T10:13:09Z</time></trkpt>
<trkpt lat="46.42865407" lon="6.14122172"><ele>1231.105713</ele><time>2007-06-24T10:13:22Z</time></trkpt>
<trkpt lat="46.42870487" lon="6.14109255"><ele>1231.105713</ele><time>2007-06-24T10:13:28Z</time></trkpt>
<trkpt lat="46.42876245" lon="6.14062903"><ele>1233.989502</ele><time>2007-06-24T10:13:43Z</time></trkpt>
<trkpt lat="46.42880118" lon="6.14025487"><ele>1235.431396</ele><time>2007-06-24T10:13:56Z</time></trkpt>
<trkpt lat="46.42886228" lon="6.13995438"><ele>1238.31543</ele><time>2007-06-24T10:14:07Z</time></trkpt>
<trkpt lat="46.42891693" lon="6.13946060"><ele>1241.679932</ele><time>2007-06-24T10:14:25Z</time></trkpt>
<trkpt lat="46.42896219" lon="6.13905483"><ele>1243.602539</ele><time>2007-06-24T10:14:41Z</time></trkpt>
<trkpt lat="46.42898574" lon="6.13872643"><ele>1246.006104</ele><time>2007-06-24T10:14:56Z</time></trkpt>
<trkpt lat="46.42900988" lon="6.13837682"><ele>1249.370605</ele><time>2007-06-24T10:15:10Z</time></trkpt>
<trkpt lat="46.42900670" lon="6.13821547"><ele>1249.851318</ele><time>2007-06-24T10:15:16Z</time></trkpt>
<trkpt lat="46.42885717" lon="6.13783317"><ele>1252.254395</ele><time>2007-06-24T10:15:33Z</time></trkpt>
<trkpt lat="46.42870923" lon="6.13739974"><ele>1254.657715</ele><time>2007-06-24T10:15:49Z</time></trkpt>
<trkpt lat="46.42864753" lon="6.13721492"><ele>1256.099609</ele><time>2007-06-24T10:15:56Z</time></trkpt>
<trkpt lat="46.42852264" lon="6.13689909"><ele>1258.50293</ele><time>2007-06-24T10:16:10Z</time></trkpt>
<trkpt lat="46.42840094" lon="6.13652517"><ele>1260.906494</ele><time>2007-06-24T10:16:25Z</time></trkpt>
<trkpt lat="46.42821528" lon="6.13621269"><ele>1264.270996</ele><time>2007-06-24T10:16:41Z</time></trkpt>
<trkpt lat="46.42817220" lon="6.13613918"><ele>1264.751709</ele><time>2007-06-24T10:16:57Z</time></trkpt>
<trkpt lat="46.42816876" lon="6.13613424"><ele>1262.829102</ele><time>2007-06-24T10:17:02Z</time></trkpt>
<trkpt lat="46.42816616" lon="6.13613239"><ele>1263.790283</ele><time>2007-06-24T10:17:04Z</time></trkpt>
<trkpt lat="46.42816876" lon="6.13611035"><ele>1263.309814</ele><time>2007-06-24T10:17:29Z</time></trkpt>
<trkpt lat="46.42816943" lon="6.13610934"><ele>1266.674316</ele><time>2007-06-24T10:17:30Z</time></trkpt>
<trkpt lat="46.42817019" lon="6.13610826"><ele>1264.751709</ele><time>2007-06-24T10:17:31Z</time></trkpt>
<trkpt lat="46.42817086" lon="6.13610708"><ele>1261.387207</ele><time>2007-06-24T10:17:32Z</time></trkpt>
<trkpt lat="46.42817136" lon="6.13610608"><ele>1262.829102</ele><time>2007-06-24T10:17:33Z</time></trkpt>
<trkpt lat="46.42817186" lon="6.13610532"><ele>1266.674316</ele><time>2007-06-24T10:17:34Z</time></trkpt>
<trkpt lat="46.42817228" lon="6.13610473"><ele>1264.270996</ele><time>2007-06-24T10:17:35Z</time></trkpt>
<trkpt lat="46.42817396" lon="6.13610147"><ele>1264.270996</ele><time>2007-06-24T10:17:39Z</time></trkpt>
<trkpt lat="46.42817304" lon="6.13609099"><ele>1264.270996</ele><time>2007-06-24T10:17:51Z</time></trkpt>
<trkpt lat="46.42816340" lon="6.13610867"><ele>1263.790283</ele><time>2007-06-24T10:18:08Z</time></trkpt>
<trkpt lat="46.42799400" lon="6.13590969"><ele>1264.270996</ele><time>2007-06-24T10:18:20Z</time></trkpt>
<trkpt lat="46.42779627" lon="6.13565773"><ele>1266.674316</ele><time>2007-06-24T10:18:34Z</time></trkpt>
<trkpt lat="46.42763726" lon="6.13530225"><ele>1268.596924</ele><time>2007-06-24T10:18:49Z</time></trkpt>
<trkpt lat="46.42744959" lon="6.13497016"><ele>1271.961426</ele><time>2007-06-24T10:19:06Z</time></trkpt>
<trkpt lat="46.42724742" lon="6.13462483"><ele>1275.325928</ele><time>2007-06-24T10:19:26Z</time></trkpt>
<trkpt lat="46.42709923" lon="6.13437203"><ele>1278.210205</ele><time>2007-06-24T10:19:41Z</time></trkpt>
<trkpt lat="46.42685565" lon="6.13422157"><ele>1281.094238</ele><time>2007-06-24T10:19:57Z</time></trkpt>
<trkpt lat="46.42658575" lon="6.13407807"><ele>1283.016602</ele><time>2007-06-24T10:20:13Z</time></trkpt>
<trkpt lat="46.42630463" lon="6.13383735"><ele>1285.419922</ele><time>2007-06-24T10:20:29Z</time></trkpt>
<trkpt lat="46.42596968" lon="6.13371287"><ele>1288.784668</ele><time>2007-06-24T10:20:43Z</time></trkpt>
<trkpt lat="46.42559543" lon="6.13363727"><ele>1290.226563</ele><time>2007-06-24T10:20:58Z</time></trkpt>
<trkpt lat="46.42526292" lon="6.13351615"><ele>1292.149414</ele><time>2007-06-24T10:21:13Z</time></trkpt>
<trkpt lat="46.42500870" lon="6.13319588"><ele>1293.110596</ele><time>2007-06-24T10:21:26Z</time></trkpt>
<trkpt lat="46.42499059" lon="6.13312069"><ele>1294.55249</ele><time>2007-06-24T10:21:37Z</time></trkpt>
<trkpt lat="46.42498364" lon="6.13314307"><ele>1292.149414</ele><time>2007-06-24T10:21:46Z</time></trkpt>
<trkpt lat="46.42496746" lon="6.13313737"><ele>1294.55249</ele><time>2007-06-24T10:21:50Z</time></trkpt>
<trkpt lat="46.42496788" lon="6.13310904"><ele>1294.55249</ele><time>2007-06-24T10:21:52Z</time></trkpt>
<trkpt lat="46.42506712" lon="6.13307225"><ele>1295.033203</ele><time>2007-06-24T10:21:58Z</time></trkpt>
<trkpt lat="46.42532319" lon="6.13288407"><ele>1298.878418</ele><time>2007-06-24T10:22:16Z</time></trkpt>
<trkpt lat="46.42532746" lon="6.13288198"><ele>1298.878418</ele><time>2007-06-24T10:22:17Z</time></trkpt>
<trkpt lat="46.42533517" lon="6.13278919"><ele>1300.320557</ele><time>2007-06-24T10:22:25Z</time></trkpt>
<trkpt lat="46.42530056" lon="6.13259305"><ele>1303.685059</ele><time>2007-06-24T10:22:37Z</time></trkpt>
<trkpt lat="46.42527374" lon="6.13246808"><ele>1305.607666</ele><time>2007-06-24T10:22:44Z</time></trkpt>
<trkpt lat="46.42524733" lon="6.13226406"><ele>1306.568848</ele><time>2007-06-24T10:22:57Z</time></trkpt>
<trkpt lat="46.42525714" lon="6.13202878"><ele>1308.972412</ele><time>2007-06-24T10:23:07Z</time></trkpt>
<trkpt lat="46.42528824" lon="6.13187958"><ele>1310.414307</ele><time>2007-06-24T10:23:13Z</time></trkpt>
<trkpt lat="46.42527248" lon="6.13170885"><ele>1312.336914</ele><time>2007-06-24T10:23:25Z</time></trkpt>
<trkpt lat="46.42525504" lon="6.13163198"><ele>1313.29834</ele><time>2007-06-24T10:23:30Z</time></trkpt>
<trkpt lat="46.42522294" lon="6.13140743"><ele>1316.662842</ele><time>2007-06-24T10:23:45Z</time></trkpt>
<trkpt lat="46.42523509" lon="6.13111189"><ele>1319.546875</ele><time>2007-06-24T10:24:00Z</time></trkpt>
<trkpt lat="46.42521305" lon="6.13083227"><ele>1321.469238</ele><time>2007-06-24T10:24:14Z</time></trkpt>
<trkpt lat="46.42519679" lon="6.13069606"><ele>1324.353516</ele><time>2007-06-24T10:24:25Z</time></trkpt>
<trkpt lat="46.42515027" lon="6.13047495"><ele>1326.756836</ele><time>2007-06-24T10:24:39Z</time></trkpt>
<trkpt lat="46.42514046" lon="6.13024754"><ele>1329.159912</ele><time>2007-06-24T10:24:52Z</time></trkpt>
<trkpt lat="46.42514423" lon="6.13018124"><ele>1329.640625</ele><time>2007-06-24T10:24:55Z</time></trkpt>
<trkpt lat="46.42516368" lon="6.12997689"><ele>1331.082764</ele><time>2007-06-24T10:25:07Z</time></trkpt>
<trkpt lat="46.42517843" lon="6.12983390"><ele>1332.043945</ele><time>2007-06-24T10:25:13Z</time></trkpt>
<trkpt lat="46.42517734" lon="6.12965478"><ele>1333.48584</ele><time>2007-06-24T10:25:26Z</time></trkpt>
<trkpt lat="46.42517852" lon="6.12948638"><ele>1335.88916</ele><time>2007-06-24T10:25:38Z</time></trkpt>
<trkpt lat="46.42519092" lon="6.12936426"><ele>1338.773193</ele><time>2007-06-24T10:25:45Z</time></trkpt>
<trkpt lat="46.42519327" lon="6.12934456"><ele>1337.811768</ele><time>2007-06-24T10:25:46Z</time></trkpt>
<trkpt lat="46.42516284" lon="6.12930919"><ele>1339.734375</ele><time>2007-06-24T10:25:50Z</time></trkpt>
<trkpt lat="46.42514105" lon="6.12917977"><ele>1341.176514</ele><time>2007-06-24T10:25:57Z</time></trkpt>
<trkpt lat="46.42511699" lon="6.12892957"><ele>1343.099121</ele><time>2007-06-24T10:26:12Z</time></trkpt>
<trkpt lat="46.42508715" lon="6.12871198"><ele>1346.463867</ele><time>2007-06-24T10:26:26Z</time></trkpt>
<trkpt lat="46.42506586" lon="6.12853772"><ele>1347.425049</ele><time>2007-06-24T10:26:37Z</time></trkpt>
<trkpt lat="46.42508657" lon="6.12847863"><ele>1345.983154</ele><time>2007-06-24T10:26:49Z</time></trkpt>
<trkpt lat="46.42507559" lon="6.12847569"><ele>1348.38623</ele><time>2007-06-24T10:26:56Z</time></trkpt>
<trkpt lat="46.42502588" lon="6.12814955"><ele>1350.789551</ele><time>2007-06-24T10:27:14Z</time></trkpt>
<trkpt lat="46.42498397" lon="6.12803405"><ele>1352.712158</ele><time>2007-06-24T10:27:22Z</time></trkpt>
<trkpt lat="46.42484609" lon="6.12783037"><ele>1356.076904</ele><time>2007-06-24T10:27:41Z</time></trkpt>
<trkpt lat="46.42479085" lon="6.12772325"><ele>1357.03833</ele><time>2007-06-24T10:27:49Z</time></trkpt>
<trkpt lat="46.42477929" lon="6.12768704"><ele>1356.557617</ele><time>2007-06-24T10:27:51Z</time></trkpt>
<trkpt lat="46.42478515" lon="6.12759853"><ele>1357.999756</ele><time>2007-06-24T10:27:55Z</time></trkpt>
<trkpt lat="46.42456530" lon="6.12744598"><ele>1361.364258</ele><time>2007-06-24T10:28:13Z</time></trkpt>
<trkpt lat="46.42445206" lon="6.12717683"><ele>1364.248047</ele><time>2007-06-24T10:28:31Z</time></trkpt>
<trkpt lat="46.42439229" lon="6.12714213"><ele>1365.209473</ele><time>2007-06-24T10:28:36Z</time></trkpt>
<trkpt lat="46.42427377" lon="6.12698070"><ele>1368.093262</ele><time>2007-06-24T10:28:51Z</time></trkpt>
<trkpt lat="46.42423463" lon="6.12690493"><ele>1368.093262</ele><time>2007-06-24T10:28:56Z</time></trkpt>
<trkpt lat="46.42422893" lon="6.12682178"><ele>1370.015869</ele><time>2007-06-24T10:29:00Z</time></trkpt>
<trkpt lat="46.42417839" lon="6.12656370"><ele>1372.900146</ele><time>2007-06-24T10:29:15Z</time></trkpt>
<trkpt lat="46.42411888" lon="6.12627679"><ele>1376.745361</ele><time>2007-06-24T10:29:33Z</time></trkpt>
<trkpt lat="46.42407487" lon="6.12617830"><ele>1378.187256</ele><time>2007-06-24T10:29:40Z</time></trkpt>
<trkpt lat="46.42406305" lon="6.12606246"><ele>1379.62915</ele><time>2007-06-24T10:29:47Z</time></trkpt>
<trkpt lat="46.42402106" lon="6.12588493"><ele>1382.032471</ele><time>2007-06-24T10:30:00Z</time></trkpt>
<trkpt lat="46.42404134" lon="6.12574194"><ele>1383.474365</ele><time>2007-06-24T10:30:12Z</time></trkpt>
<trkpt lat="46.42409465" lon="6.12569223"><ele>1384.916504</ele><time>2007-06-24T10:30:16Z</time></trkpt>
<trkpt lat="46.42413950" lon="6.12567698"><ele>1385.877686</ele><time>2007-06-24T10:30:19Z</time></trkpt>
<trkpt lat="46.42428844" lon="6.12569299"><ele>1389.242432</ele><time>2007-06-24T10:30:32Z</time></trkpt>
<trkpt lat="46.42446220" lon="6.12577379"><ele>1390.684326</ele><time>2007-06-24T10:30:46Z</time></trkpt>
<trkpt lat="46.42456018" lon="6.12601317"><ele>1394.049072</ele><time>2007-06-24T10:31:02Z</time></trkpt>
<trkpt lat="46.42460654" lon="6.12611954"><ele>1394.529541</ele><time>2007-06-24T10:31:09Z</time></trkpt>
<trkpt lat="46.42467175" lon="6.12615617"><ele>1395.97168</ele><time>2007-06-24T10:31:15Z</time></trkpt>
<trkpt lat="46.42471693" lon="6.12619632"><ele>1396.452393</ele><time>2007-06-24T10:31:19Z</time></trkpt>
<trkpt lat="46.42480619" lon="6.12623965"><ele>1396.932861</ele><time>2007-06-24T10:31:26Z</time></trkpt>
<trkpt lat="46.42483553" lon="6.12627025"><ele>1397.413574</ele><time>2007-06-24T10:31:29Z</time></trkpt>
<trkpt lat="46.42501700" lon="6.12636857"><ele>1398.374756</ele><time>2007-06-24T10:31:41Z</time></trkpt>
<trkpt lat="46.42501918" lon="6.12636513"><ele>1400.778076</ele><time>2007-06-24T10:31:42Z</time></trkpt>
<trkpt lat="46.42507232" lon="6.12636329"><ele>1401.739502</ele><time>2007-06-24T10:31:49Z</time></trkpt>
<trkpt lat="46.42515019" lon="6.12637234"><ele>1403.181396</ele><time>2007-06-24T10:31:56Z</time></trkpt>
<trkpt lat="46.42535403" lon="6.12631752"><ele>1404.623535</ele><time>2007-06-24T10:32:11Z</time></trkpt>
<trkpt lat="46.42537977" lon="6.12631786"><ele>1404.623535</ele><time>2007-06-24T10:32:13Z</time></trkpt>
<trkpt lat="46.42543123" lon="6.12625424"><ele>1405.104248</ele><time>2007-06-24T10:32:25Z</time></trkpt>
<trkpt lat="46.42545319" lon="6.12619699"><ele>1405.104248</ele><time>2007-06-24T10:32:40Z</time></trkpt>
<trkpt lat="46.42543559" lon="6.12627335"><ele>1405.584961</ele><time>2007-06-24T10:32:49Z</time></trkpt>
<trkpt lat="46.42558043" lon="6.12627570"><ele>1407.988281</ele><time>2007-06-24T10:33:02Z</time></trkpt>
<trkpt lat="46.42580515" lon="6.12634158"><ele>1410.391357</ele><time>2007-06-24T10:33:18Z</time></trkpt>
<trkpt lat="46.42600765" lon="6.12647192"><ele>1412.794678</ele><time>2007-06-24T10:33:32Z</time></trkpt>
<trkpt lat="46.42616725" lon="6.12654517"><ele>1414.717285</ele><time>2007-06-24T10:33:45Z</time></trkpt>
<trkpt lat="46.42633430" lon="6.12658599"><ele>1418.081787</ele><time>2007-06-24T10:34:00Z</time></trkpt>
<trkpt lat="46.42645248" lon="6.12663419"><ele>1420.004639</ele><time>2007-06-24T10:34:10Z</time></trkpt>
<trkpt lat="46.42662473" lon="6.12691775"><ele>1423.849854</ele><time>2007-06-24T10:34:26Z</time></trkpt>
<trkpt lat="46.42667385" lon="6.12701347"><ele>1424.811279</ele><time>2007-06-24T10:34:32Z</time></trkpt>
<trkpt lat="46.42683243" lon="6.12713635"><ele>1426.733887</ele><time>2007-06-24T10:34:46Z</time></trkpt>
<trkpt lat="46.42699462" lon="6.12711506"><ele>1428.175781</ele><time>2007-06-24T10:35:00Z</time></trkpt>
<trkpt lat="46.42714927" lon="6.12702688"><ele>1431.540283</ele><time>2007-06-24T10:35:14Z</time></trkpt>
<trkpt lat="46.42736636" lon="6.12702336"><ele>1432.501709</ele><time>2007-06-24T10:35:30Z</time></trkpt>
<trkpt lat="46.42749209" lon="6.12705563"><ele>1434.424316</ele><time>2007-06-24T10:35:40Z</time></trkpt>
<trkpt lat="46.42757331" lon="6.12703560"><ele>1435.866211</ele><time>2007-06-24T10:35:46Z</time></trkpt>
<trkpt lat="46.42756342" lon="6.12714146"><ele>1438.269775</ele><time>2007-06-24T10:35:53Z</time></trkpt>
<trkpt lat="46.42766987" lon="6.12723224"><ele>1441.153564</ele><time>2007-06-24T10:36:13Z</time></trkpt>
<trkpt lat="46.42775889" lon="6.12727658"><ele>1443.556885</ele><time>2007-06-24T10:36:29Z</time></trkpt>
<trkpt lat="46.42781706" lon="6.12733106"><ele>1446.440918</ele><time>2007-06-24T10:36:45Z</time></trkpt>
<trkpt lat="46.42790582" lon="6.12749895"><ele>1447.882813</ele><time>2007-06-24T10:37:07Z</time></trkpt>
<trkpt lat="46.42795829" lon="6.12757212"><ele>1448.843994</ele><time>2007-06-24T10:37:33Z</time></trkpt>
<trkpt lat="46.42798260" lon="6.12754740"><ele>1448.843994</ele><time>2007-06-24T10:37:39Z</time></trkpt>
<trkpt lat="46.42807136" lon="6.12764647"><ele>1451.728027</ele><time>2007-06-24T10:37:51Z</time></trkpt>
<trkpt lat="46.42816189" lon="6.12776432"><ele>1453.650879</ele><time>2007-06-24T10:38:01Z</time></trkpt>
<trkpt lat="46.42821905" lon="6.12779844"><ele>1454.131592</ele><time>2007-06-24T10:38:06Z</time></trkpt>
<trkpt lat="46.42828845" lon="6.12781604"><ele>1455.573486</ele><time>2007-06-24T10:38:10Z</time></trkpt>
<trkpt lat="46.42834160" lon="6.12790908"><ele>1456.534668</ele><time>2007-06-24T10:38:17Z</time></trkpt>
<trkpt lat="46.42847914" lon="6.12805660"><ele>1459.418701</ele><time>2007-06-24T10:38:32Z</time></trkpt>
<trkpt lat="46.42848853" lon="6.12806406"><ele>1459.89917</ele><time>2007-06-24T10:38:33Z</time></trkpt>
<trkpt lat="46.42852834" lon="6.12808133"><ele>1460.860596</ele><time>2007-06-24T10:38:37Z</time></trkpt>
<trkpt lat="46.42864158" lon="6.12816632"><ele>1464.225098</ele><time>2007-06-24T10:38:51Z</time></trkpt>
<trkpt lat="46.42873538" lon="6.12824880"><ele>1465.667236</ele><time>2007-06-24T10:39:03Z</time></trkpt>
<trkpt lat="46.42887485" lon="6.12847972"><ele>1466.147705</ele><time>2007-06-24T10:39:16Z</time></trkpt>
<trkpt lat="46.42895356" lon="6.12868725"><ele>1466.147705</ele><time>2007-06-24T10:39:22Z</time></trkpt>
<trkpt lat="46.42898357" lon="6.12881374"><ele>1466.628418</ele><time>2007-06-24T10:39:28Z</time></trkpt>
<trkpt lat="46.42904752" lon="6.12886705"><ele>1466.147705</ele><time>2007-06-24T10:39:32Z</time></trkpt>
<trkpt lat="46.42927534" lon="6.12913149"><ele>1466.147705</ele><time>2007-06-24T10:39:48Z</time></trkpt>
<trkpt lat="46.42932429" lon="6.12921037"><ele>1467.109131</ele><time>2007-06-24T10:39:53Z</time></trkpt>
<trkpt lat="46.42938254" lon="6.12923342"><ele>1468.55127</ele><time>2007-06-24T10:39:58Z</time></trkpt>
<trkpt lat="46.42950115" lon="6.12933937"><ele>1471.435059</ele><time>2007-06-24T10:40:09Z</time></trkpt>
<trkpt lat="46.42962746" lon="6.12934649"><ele>1473.838379</ele><time>2007-06-24T10:40:22Z</time></trkpt>
<trkpt lat="46.42978923" lon="6.12938966"><ele>1477.683594</ele><time>2007-06-24T10:40:38Z</time></trkpt>
<trkpt lat="46.42994732" lon="6.12946912"><ele>1478.64502</ele><time>2007-06-24T10:40:53Z</time></trkpt>
<trkpt lat="46.43004145" lon="6.12944967"><ele>1478.64502</ele><time>2007-06-24T10:41:08Z</time></trkpt>
<trkpt lat="46.43004756" lon="6.12966835"><ele>1479.606201</ele><time>2007-06-24T10:41:46Z</time></trkpt>
<trkpt lat="46.43010825" lon="6.12953383"><ele>1479.606201</ele><time>2007-06-24T10:42:38Z</time></trkpt>
<trkpt lat="46.43018444" lon="6.12931673"><ele>1480.567627</ele><time>2007-06-24T10:42:54Z</time></trkpt>
<trkpt lat="46.43030355" lon="6.12902747"><ele>1482.009521</ele><time>2007-06-24T10:43:08Z</time></trkpt>
<trkpt lat="46.43042148" lon="6.12880259"><ele>1484.893799</ele><time>2007-06-24T10:43:22Z</time></trkpt>
<trkpt lat="46.43049767" lon="6.12866965"><ele>1488.258301</ele><time>2007-06-24T10:43:32Z</time></trkpt>
<trkpt lat="46.43050874" lon="6.12864283"><ele>1489.219482</ele><time>2007-06-24T10:43:34Z</time></trkpt>
<trkpt lat="46.43054863" lon="6.12855566"><ele>1491.622803</ele><time>2007-06-24T10:43:41Z</time></trkpt>
<trkpt lat="46.43058677" lon="6.12853973"><ele>1492.103516</ele><time>2007-06-24T10:43:45Z</time></trkpt>
<trkpt lat="46.43067042" lon="6.12850595"><ele>1493.54541</ele><time>2007-06-24T10:43:55Z</time></trkpt>
<trkpt lat="46.43058074" lon="6.12821862"><ele>1496.429443</ele><time>2007-06-24T10:44:12Z</time></trkpt>
<trkpt lat="46.43052843" lon="6.12811628"><ele>1497.390625</ele><time>2007-06-24T10:44:18Z</time></trkpt>
<trkpt lat="46.43036499" lon="6.12786340"><ele>1499.793945</ele><time>2007-06-24T10:44:35Z</time></trkpt>
<trkpt lat="46.43030145" lon="6.12776876"><ele>1501.236084</ele><time>2007-06-24T10:44:41Z</time></trkpt>
<trkpt lat="46.43004145" lon="6.12751270"><ele>1503.158691</ele><time>2007-06-24T10:45:00Z</time></trkpt>
<trkpt lat="46.42992779" lon="6.12739669"><ele>1505.562012</ele><time>2007-06-24T10:45:08Z</time></trkpt>
<trkpt lat="46.42976727" lon="6.12717088"><ele>1508.445801</ele><time>2007-06-24T10:45:21Z</time></trkpt>
<trkpt lat="46.42967256" lon="6.12694357"><ele>1510.368408</ele><time>2007-06-24T10:45:31Z</time></trkpt>
<trkpt lat="46.42964574" lon="6.12663838"><ele>1513.73291</ele><time>2007-06-24T10:45:44Z</time></trkpt>
<trkpt lat="46.42947089" lon="6.12634753"><ele>1515.175049</ele><time>2007-06-24T10:45:59Z</time></trkpt>
<trkpt lat="46.42921013" lon="6.12578787"><ele>1518.059082</ele><time>2007-06-24T10:46:21Z</time></trkpt>
<trkpt lat="46.42920326" lon="6.12546743"><ele>1521.423584</ele><time>2007-06-24T10:46:33Z</time></trkpt>
<trkpt lat="46.42929428" lon="6.12499109"><ele>1524.78833</ele><time>2007-06-24T10:46:48Z</time></trkpt>
<trkpt lat="46.42940216" lon="6.12437753"><ele>1527.19165</ele><time>2007-06-24T10:47:08Z</time></trkpt>
<trkpt lat="46.42947843" lon="6.12413588"><ele>1527.672119</ele><time>2007-06-24T10:47:20Z</time></trkpt>
<trkpt lat="46.42950123" lon="6.12410855"><ele>1527.672119</ele><time>2007-06-24T10:47:23Z</time></trkpt>
<trkpt lat="46.42949268" lon="6.12408659"><ele>1526.710938</ele><time>2007-06-24T10:47:37Z</time></trkpt>
<trkpt lat="46.42945245" lon="6.12412859"><ele>1527.672119</ele><time>2007-06-24T10:48:01Z</time></trkpt>
<trkpt lat="46.42948128" lon="6.12412197"><ele>1529.114014</ele><time>2007-06-24T10:48:23Z</time></trkpt>
<trkpt lat="46.42950526" lon="6.12406857"><ele>1529.594727</ele><time>2007-06-24T10:48:55Z</time></trkpt>
<trkpt lat="46.42950718" lon="6.12406388"><ele>1525.749512</ele><time>2007-06-24T10:49:01Z</time></trkpt>
<trkpt lat="46.42950727" lon="6.12406338"><ele>1531.036865</ele><time>2007-06-24T10:49:02Z</time></trkpt>
<trkpt lat="46.42950735" lon="6.12406212"><ele>1526.230225</ele><time>2007-06-24T10:49:04Z</time></trkpt>
<trkpt lat="46.42950743" lon="6.12406170"><ele>1528.152832</ele><time>2007-06-24T10:49:05Z</time></trkpt>
<trkpt lat="46.42950752" lon="6.12406128"><ele>1531.517334</ele><time>2007-06-24T10:49:06Z</time></trkpt>
<trkpt lat="46.42950743" lon="6.12406086"><ele>1530.075439</ele><time>2007-06-24T10:49:07Z</time></trkpt>
<trkpt lat="46.42950492" lon="6.12406472"><ele>1528.633545</ele><time>2007-06-24T10:49:14Z</time></trkpt>
<trkpt lat="46.42954356" lon="6.12380404"><ele>1528.633545</ele><time>2007-06-24T10:49:24Z</time></trkpt>
<trkpt lat="46.42956066" lon="6.12336609"><ele>1528.152832</ele><time>2007-06-24T10:49:36Z</time></trkpt>
<trkpt lat="46.42957943" lon="6.12272303"><ele>1525.749512</ele><time>2007-06-24T10:49:50Z</time></trkpt>
<trkpt lat="46.42949780" lon="6.12214752"><ele>1525.749512</ele><time>2007-06-24T10:50:03Z</time></trkpt>
<trkpt lat="46.42944432" lon="6.12186036"><ele>1523.826904</ele><time>2007-06-24T10:50:11Z</time></trkpt>
<trkpt lat="46.42937316" lon="6.12144269"><ele>1525.749512</ele><time>2007-06-24T10:50:23Z</time></trkpt>
<trkpt lat="46.42924894" lon="6.12071279"><ele>1522.865723</ele><time>2007-06-24T10:50:39Z</time></trkpt>
<trkpt lat="46.42919219" lon="6.12019194"><ele>1525.749512</ele><time>2007-06-24T10:50:53Z</time></trkpt>
<trkpt lat="46.42913729" lon="6.11950714"><ele>1525.749512</ele><time>2007-06-24T10:51:07Z</time></trkpt>
<trkpt lat="46.42925547" lon="6.11860164"><ele>1523.346436</ele><time>2007-06-24T10:51:20Z</time></trkpt>
<trkpt lat="46.42930258" lon="6.11842328"><ele>1523.826904</ele><time>2007-06-24T10:51:25Z</time></trkpt>
<trkpt lat="46.42941456" lon="6.11792556"><ele>1520.943115</ele><time>2007-06-24T10:51:32Z</time></trkpt>
<trkpt lat="46.42946435" lon="6.11777410"><ele>1519.020508</ele><time>2007-06-24T10:51:34Z</time></trkpt>
<trkpt lat="46.42951883" lon="6.11742684"><ele>1514.213623</ele><time>2007-06-24T10:51:38Z</time></trkpt>
<trkpt lat="46.42955077" lon="6.11717387"><ele>1511.329834</ele><time>2007-06-24T10:51:42Z</time></trkpt>
<trkpt lat="46.42956845" lon="6.11713305"><ele>1510.849121</ele><time>2007-06-24T10:51:50Z</time></trkpt>
<trkpt lat="46.42956703" lon="6.11712249"><ele>1510.368408</ele><time>2007-06-24T10:52:17Z</time></trkpt>
<trkpt lat="46.42956954" lon="6.11713624"><ele>1510.849121</ele><time>2007-06-24T10:52:39Z</time></trkpt>
<trkpt lat="46.42953258" lon="6.11711805"><ele>1508.926514</ele><time>2007-06-24T10:52:42Z</time></trkpt>
<trkpt lat="46.42952009" lon="6.11711503"><ele>1508.926514</ele><time>2007-06-24T10:52:43Z</time></trkpt>
<trkpt lat="46.42944499" lon="6.11711939"><ele>1509.407227</ele><time>2007-06-24T10:52:58Z</time></trkpt>
<trkpt lat="46.42944465" lon="6.11706776"><ele>1508.926514</ele><time>2007-06-24T10:53:08Z</time></trkpt>
<trkpt lat="46.42939780" lon="6.11702057"><ele>1509.407227</ele><time>2007-06-24T10:53:21Z</time></trkpt>
<trkpt lat="46.42945924" lon="6.11663156"><ele>1509.407227</ele><time>2007-06-24T10:53:37Z</time></trkpt>
<trkpt lat="46.42949344" lon="6.11647683"><ele>1508.926514</ele><time>2007-06-24T10:53:48Z</time></trkpt>
<trkpt lat="46.42945128" lon="6.11614197"><ele>1510.849121</ele><time>2007-06-24T10:54:02Z</time></trkpt>
<trkpt lat="46.42935094" lon="6.11569078"><ele>1510.849121</ele><time>2007-06-24T10:54:18Z</time></trkpt>
<trkpt lat="46.42920753" lon="6.11535148"><ele>1508.926514</ele><time>2007-06-24T10:54:32Z</time></trkpt>
<trkpt lat="46.42911038" lon="6.11514579"><ele>1506.04248</ele><time>2007-06-24T10:54:37Z</time></trkpt>
<trkpt lat="46.42904568" lon="6.11495283"><ele>1502.197266</ele><time>2007-06-24T10:54:41Z</time></trkpt>
<trkpt lat="46.42901399" lon="6.11479802"><ele>1498.83252</ele><time>2007-06-24T10:54:44Z</time></trkpt>
<trkpt lat="46.42897627" lon="6.11455478"><ele>1494.987305</ele><time>2007-06-24T10:54:48Z</time></trkpt>
<trkpt lat="46.42894375" lon="6.11428220"><ele>1491.622803</ele><time>2007-06-24T10:54:53Z</time></trkpt>
<trkpt lat="46.42894484" lon="6.11424314"><ele>1491.622803</ele><time>2007-06-24T10:54:54Z</time></trkpt>
<trkpt lat="46.42895465" lon="6.11405714"><ele>1490.180908</ele><time>2007-06-24T10:55:04Z</time></trkpt>
<trkpt lat="46.42893436" lon="6.11411196"><ele>1489.700195</ele><time>2007-06-24T10:55:19Z</time></trkpt>
<trkpt lat="46.42893788" lon="6.11409872"><ele>1489.700195</ele><time>2007-06-24T10:55:20Z</time></trkpt>
<trkpt lat="46.42899170" lon="6.11381466"><ele>1488.258301</ele><time>2007-06-24T10:55:27Z</time></trkpt>
<trkpt lat="46.42904635" lon="6.11359220"><ele>1484.893799</ele><time>2007-06-24T10:55:33Z</time></trkpt>
<trkpt lat="46.42909043" lon="6.11339673"><ele>1481.528809</ele><time>2007-06-24T10:55:38Z</time></trkpt>
<trkpt lat="46.42914802" lon="6.11303966"><ele>1478.64502</ele><time>2007-06-24T10:55:49Z</time></trkpt>
<trkpt lat="46.42914207" lon="6.11289868"><ele>1477.683594</ele><time>2007-06-24T10:55:54Z</time></trkpt>
<trkpt lat="46.42915213" lon="6.11283707"><ele>1475.280273</ele><time>2007-06-24T10:55:57Z</time></trkpt>
<trkpt lat="46.42915078" lon="6.11280045"><ele>1475.760986</ele><time>2007-06-24T10:55:59Z</time></trkpt>
<trkpt lat="46.42908859" lon="6.11249073"><ele>1472.877197</ele><time>2007-06-24T10:56:15Z</time></trkpt>
<trkpt lat="46.42906688" lon="6.11227339"><ele>1469.993164</ele><time>2007-06-24T10:56:23Z</time></trkpt>
<trkpt lat="46.42906227" lon="6.11214498"><ele>1468.55127</ele><time>2007-06-24T10:56:27Z</time></trkpt>
<trkpt lat="46.42898415" lon="6.11168448"><ele>1465.186523</ele><time>2007-06-24T10:56:37Z</time></trkpt>
<trkpt lat="46.42895725" lon="6.11154710"><ele>1462.783203</ele><time>2007-06-24T10:56:40Z</time></trkpt>
<trkpt lat="46.42894492" lon="6.11152715"><ele>1460.379883</ele><time>2007-06-24T10:56:43Z</time></trkpt>
<trkpt lat="46.42894736" lon="6.11153863"><ele>1460.860596</ele><time>2007-06-24T10:56:52Z</time></trkpt>
<trkpt lat="46.42894166" lon="6.11140897"><ele>1459.89917</ele><time>2007-06-24T10:56:58Z</time></trkpt>
<trkpt lat="46.42892489" lon="6.11110663"><ele>1457.976807</ele><time>2007-06-24T10:57:09Z</time></trkpt>
<trkpt lat="46.42892472" lon="6.11105332"><ele>1457.015381</ele><time>2007-06-24T10:57:11Z</time></trkpt>
<trkpt lat="46.42892405" lon="6.11094939"><ele>1455.573486</ele><time>2007-06-24T10:57:14Z</time></trkpt>
<trkpt lat="46.42891626" lon="6.11070279"><ele>1452.689453</ele><time>2007-06-24T10:57:22Z</time></trkpt>
<trkpt lat="46.42888919" lon="6.11057555"><ele>1451.247314</ele><time>2007-06-24T10:57:28Z</time></trkpt>
<trkpt lat="46.42884317" lon="6.11057044"><ele>1449.80542</ele><time>2007-06-24T10:57:34Z</time></trkpt>
<trkpt lat="46.42883554" lon="6.11057329"><ele>1449.80542</ele><time>2007-06-24T10:57:48Z</time></trkpt>
<trkpt lat="46.42879623" lon="6.11053457"><ele>1450.286133</ele><time>2007-06-24T10:57:57Z</time></trkpt>
<trkpt lat="46.42873035" lon="6.11046567"><ele>1451.728027</ele><time>2007-06-24T10:58:12Z</time></trkpt>
<trkpt lat="46.42872674" lon="6.11044672"><ele>1452.20874</ele><time>2007-06-24T10:58:18Z</time></trkpt>
<trkpt lat="46.42856279" lon="6.11021622"><ele>1451.247314</ele><time>2007-06-24T10:58:30Z</time></trkpt>
<trkpt lat="46.42836615" lon="6.10997725"><ele>1448.843994</ele><time>2007-06-24T10:58:40Z</time></trkpt>
<trkpt lat="46.42822308" lon="6.10979185"><ele>1448.843994</ele><time>2007-06-24T10:58:50Z</time></trkpt>
<trkpt lat="46.42801009" lon="6.10948188"><ele>1449.324707</ele><time>2007-06-24T10:59:04Z</time></trkpt>
<trkpt lat="46.42781555" lon="6.10925532"><ele>1450.766602</ele><time>2007-06-24T10:59:15Z</time></trkpt>
<trkpt lat="46.42768588" lon="6.10912339"><ele>1449.324707</ele><time>2007-06-24T10:59:29Z</time></trkpt>
<trkpt lat="46.42757474" lon="6.10905642"><ele>1447.4021</ele><time>2007-06-24T10:59:34Z</time></trkpt>
<trkpt lat="46.42754397" lon="6.10903672"><ele>1446.440918</ele><time>2007-06-24T10:59:35Z</time></trkpt>
<trkpt lat="46.42743325" lon="6.10893236"><ele>1444.518066</ele><time>2007-06-24T10:59:38Z</time></trkpt>
<trkpt lat="46.42723996" lon="6.10878996"><ele>1444.998779</ele><time>2007-06-24T10:59:47Z</time></trkpt>
<trkpt lat="46.42705992" lon="6.10859742"><ele>1445.479492</ele><time>2007-06-24T10:59:57Z</time></trkpt>
<trkpt lat="46.42687686" lon="6.10835183"><ele>1446.921387</ele><time>2007-06-24T11:00:11Z</time></trkpt>
<trkpt lat="46.42686722" lon="6.10834178"><ele>1447.4021</ele><time>2007-06-24T11:00:12Z</time></trkpt>
<trkpt lat="46.42675046" lon="6.10817062"><ele>1448.843994</ele><time>2007-06-24T11:00:26Z</time></trkpt>
<trkpt lat="46.42663487" lon="6.10802243"><ele>1444.998779</ele><time>2007-06-24T11:00:34Z</time></trkpt>
<trkpt lat="46.42661115" lon="6.10799770"><ele>1444.998779</ele><time>2007-06-24T11:00:35Z</time></trkpt>
<trkpt lat="46.42642256" lon="6.10777415"><ele>1444.037598</ele><time>2007-06-24T11:00:48Z</time></trkpt>
<trkpt lat="46.42625090" lon="6.10774389"><ele>1444.998779</ele><time>2007-06-24T11:00:57Z</time></trkpt>
<trkpt lat="46.42619633" lon="6.10774549"><ele>1446.440918</ele><time>2007-06-24T11:01:08Z</time></trkpt>
<trkpt lat="46.42616339" lon="6.10771984"><ele>1447.882813</ele><time>2007-06-24T11:01:16Z</time></trkpt>
<trkpt lat="46.42614302" lon="6.10768204"><ele>1448.843994</ele><time>2007-06-24T11:01:29Z</time></trkpt>
<trkpt lat="46.42611000" lon="6.10762127"><ele>1447.882813</ele><time>2007-06-24T11:01:44Z</time></trkpt>
<trkpt lat="46.42609097" lon="6.10759629"><ele>1447.882813</ele><time>2007-06-24T11:01:58Z</time></trkpt>
<trkpt lat="46.42607588" lon="6.10762479"><ele>1447.4021</ele><time>2007-06-24T11:02:13Z</time></trkpt>
<trkpt lat="46.42606524" lon="6.10765739"><ele>1448.363281</ele><time>2007-06-24T11:02:45Z</time></trkpt>
<trkpt lat="46.42609474" lon="6.10764247"><ele>1449.324707</ele><time>2007-06-24T11:03:31Z</time></trkpt>
<trkpt lat="46.42608753" lon="6.10765329"><ele>1448.843994</ele><time>2007-06-24T11:03:41Z</time></trkpt>
<trkpt lat="46.42608720" lon="6.10765597"><ele>1449.324707</ele><time>2007-06-24T11:03:53Z</time></trkpt>
<trkpt lat="46.42609147" lon="6.10765295"><ele>1449.324707</ele><time>2007-06-24T11:04:19Z</time></trkpt>
<trkpt lat="46.42610237" lon="6.10764507"><ele>1448.843994</ele><time>2007-06-24T11:04:52Z</time></trkpt>
<trkpt lat="46.42608276" lon="6.10765496"><ele>1447.4021</ele><time>2007-06-24T11:05:45Z</time></trkpt>
<trkpt lat="46.42609147" lon="6.10765480"><ele>1447.4021</ele><time>2007-06-24T11:06:19Z</time></trkpt>
<trkpt lat="46.42609105" lon="6.10765002"><ele>1447.4021</ele><time>2007-06-24T11:06:38Z</time></trkpt>
<trkpt lat="46.42611293" lon="6.10762269"><ele>1447.882813</ele><time>2007-06-24T11:07:24Z</time></trkpt>
<trkpt lat="46.42612190" lon="6.10761808"><ele>1448.363281</ele><time>2007-06-24T11:07:47Z</time></trkpt>
<trkpt lat="46.42611955" lon="6.10762009"><ele>1447.882813</ele><time>2007-06-24T11:08:09Z</time></trkpt>
<trkpt lat="46.42611737" lon="6.10762504"><ele>1448.363281</ele><time>2007-06-24T11:08:33Z</time></trkpt>
<trkpt lat="46.42611997" lon="6.10762269"><ele>1447.882813</ele><time>2007-06-24T11:08:56Z</time></trkpt>
<trkpt lat="46.42611955" lon="6.10762353"><ele>1449.324707</ele><time>2007-06-24T11:09:15Z</time></trkpt>
<trkpt lat="46.42610857" lon="6.10764449"><ele>1448.843994</ele><time>2007-06-24T11:09:34Z</time></trkpt>
<trkpt lat="46.42611729" lon="6.10763024"><ele>1447.882813</ele><time>2007-06-24T11:09:57Z</time></trkpt>
<trkpt lat="46.42611570" lon="6.10762646"><ele>1447.882813</ele><time>2007-06-24T11:10:16Z</time></trkpt>
<trkpt lat="46.42611729" lon="6.10762848"><ele>1447.4021</ele><time>2007-06-24T11:11:41Z</time></trkpt>
<trkpt lat="46.42610740" lon="6.10762839"><ele>1446.921387</ele><time>2007-06-24T11:12:28Z</time></trkpt>
<trkpt lat="46.42611343" lon="6.10762303"><ele>1446.921387</ele><time>2007-06-24T11:13:37Z</time></trkpt>
<trkpt lat="46.42611193" lon="6.10763527"><ele>1447.882813</ele><time>2007-06-24T11:14:02Z</time></trkpt>
<trkpt lat="46.42609667" lon="6.10762353"><ele>1446.921387</ele><time>2007-06-24T11:14:31Z</time></trkpt>
<trkpt lat="46.42611595" lon="6.10762286"><ele>1446.921387</ele><time>2007-06-24T11:15:32Z</time></trkpt>
<trkpt lat="46.42610623" lon="6.10763267"><ele>1444.518066</ele><time>2007-06-24T11:16:52Z</time></trkpt>
<trkpt lat="46.42610648" lon="6.10764893"><ele>1447.882813</ele><time>2007-06-24T11:17:37Z</time></trkpt>
<trkpt lat="46.42610212" lon="6.10765656"><ele>1444.518066</ele><time>2007-06-24T11:18:11Z</time></trkpt>
<trkpt lat="46.42610497" lon="6.10764985"><ele>1446.921387</ele><time>2007-06-24T11:18:13Z</time></trkpt>
<trkpt lat="46.42609835" lon="6.10765555"><ele>1446.921387</ele><time>2007-06-24T11:19:53Z</time></trkpt>
<trkpt lat="46.42609566" lon="6.10762286"><ele>1446.440918</ele><time>2007-06-24T11:23:42Z</time></trkpt>
<trkpt lat="46.42609273" lon="6.10761993"><ele>1445.479492</ele><time>2007-06-24T11:24:35Z</time></trkpt>
<trkpt lat="46.42609022" lon="6.10762764"><ele>1444.998779</ele><time>2007-06-24T11:26:26Z</time></trkpt>
<trkpt lat="46.42609273" lon="6.10762982"><ele>1444.998779</ele><time>2007-06-24T11:27:23Z</time></trkpt>
<trkpt lat="46.42610069" lon="6.10761892"><ele>1445.479492</ele><time>2007-06-24T11:28:05Z</time></trkpt>
<trkpt lat="46.42610572" lon="6.10761188"><ele>1445.479492</ele><time>2007-06-24T11:28:42Z</time></trkpt>
<trkpt lat="46.42610254" lon="6.10763736"><ele>1444.518066</ele><time>2007-06-24T11:30:54Z</time></trkpt>
<trkpt lat="46.42609290" lon="6.10764273"><ele>1444.518066</ele><time>2007-06-24T11:31:24Z</time></trkpt>
<trkpt lat="46.42607722" lon="6.10766368"><ele>1445.479492</ele><time>2007-06-24T11:31:55Z</time></trkpt>
<trkpt lat="46.42606784" lon="6.10766670"><ele>1444.998779</ele><time>2007-06-24T11:32:34Z</time></trkpt>
<trkpt lat="46.42606993" lon="6.10766133"><ele>1443.556885</ele><time>2007-06-24T11:33:22Z</time></trkpt>
<trkpt lat="46.42606038" lon="6.10769243"><ele>1445.479492</ele><time>2007-06-24T11:35:02Z</time></trkpt>
<trkpt lat="46.42609407" lon="6.10763635"><ele>1445.960205</ele><time>2007-06-24T11:38:49Z</time></trkpt>
<trkpt lat="46.42607722" lon="6.10763694"><ele>1444.998779</ele><time>2007-06-24T11:43:43Z</time></trkpt>
<trkpt lat="46.42607672" lon="6.10759595"><ele>1445.960205</ele><time>2007-06-24T11:44:11Z</time></trkpt>
<trkpt lat="46.42604495" lon="6.10760895"><ele>1445.960205</ele><time>2007-06-24T11:44:15Z</time></trkpt>
<trkpt lat="46.42615694" lon="6.10751105"><ele>1446.440918</ele><time>2007-06-24T11:44:21Z</time></trkpt>
<trkpt lat="46.42605677" lon="6.10763342"><ele>1445.960205</ele><time>2007-06-24T11:46:18Z</time></trkpt>
<trkpt lat="46.42609047" lon="6.10763250"><ele>1445.479492</ele><time>2007-06-24T11:46:51Z</time></trkpt>
<trkpt lat="46.42605233" lon="6.10767734"><ele>1445.479492</ele><time>2007-06-24T11:47:24Z</time></trkpt>
<trkpt lat="46.42607613" lon="6.10762110"><ele>1444.998779</ele><time>2007-06-24T11:48:03Z</time></trkpt>
<trkpt lat="46.42612659" lon="6.10761448"><ele>1444.998779</ele><time>2007-06-24T11:48:17Z</time></trkpt>
<trkpt lat="46.42607345" lon="6.10758506"><ele>1444.518066</ele><time>2007-06-24T11:48:21Z</time></trkpt>
<trkpt lat="46.42575075" lon="6.10739286"><ele>1444.998779</ele><time>2007-06-24T11:48:33Z</time></trkpt>
<trkpt lat="46.42550357" lon="6.10762889"><ele>1444.037598</ele><time>2007-06-24T11:48:45Z</time></trkpt>
<trkpt lat="46.42549175" lon="6.10768388"><ele>1443.556885</ele><time>2007-06-24T11:48:46Z</time></trkpt>
<trkpt lat="46.42549217" lon="6.10787507"><ele>1444.037598</ele><time>2007-06-24T11:48:49Z</time></trkpt>
<trkpt lat="46.42553198" lon="6.10808512"><ele>1443.076172</ele><time>2007-06-24T11:48:52Z</time></trkpt>
<trkpt lat="46.42558177" lon="6.10822552"><ele>1443.076172</ele><time>2007-06-24T11:48:54Z</time></trkpt>
<trkpt lat="46.42573952" lon="6.10856633"><ele>1441.634277</ele><time>2007-06-24T11:48:59Z</time></trkpt>
<trkpt lat="46.42565327" lon="6.10910134"><ele>1442.11499</ele><time>2007-06-24T11:49:06Z</time></trkpt>
<trkpt lat="46.42552343" lon="6.10921375"><ele>1440.672852</ele><time>2007-06-24T11:49:08Z</time></trkpt>
<trkpt lat="46.42512839" lon="6.10945255"><ele>1440.192383</ele><time>2007-06-24T11:49:13Z</time></trkpt>
<trkpt lat="46.42486663" lon="6.10978112"><ele>1439.230957</ele><time>2007-06-24T11:49:17Z</time></trkpt>
<trkpt lat="46.42435784" lon="6.11076163"><ele>1436.347168</ele><time>2007-06-24T11:49:27Z</time></trkpt>
<trkpt lat="46.42424050" lon="6.11103052"><ele>1435.385498</ele><time>2007-06-24T11:49:30Z</time></trkpt>
<trkpt lat="46.42412055" lon="6.11141223"><ele>1432.501709</ele><time>2007-06-24T11:49:34Z</time></trkpt>
<trkpt lat="46.42409616" lon="6.11151407"><ele>1432.020996</ele><time>2007-06-24T11:49:35Z</time></trkpt>
<trkpt lat="46.42383456" lon="6.11186167"><ele>1429.617676</ele><time>2007-06-24T11:49:40Z</time></trkpt>
<trkpt lat="46.42302562" lon="6.11236903"><ele>1426.253174</ele><time>2007-06-24T11:49:48Z</time></trkpt>
<trkpt lat="46.42280644" lon="6.11251194"><ele>1421.446533</ele><time>2007-06-24T11:49:50Z</time></trkpt>
<trkpt lat="46.42229967" lon="6.11265955"><ele>1416.15918</ele><time>2007-06-24T11:49:54Z</time></trkpt>
<trkpt lat="46.42207663" lon="6.11268025"><ele>1413.755859</ele><time>2007-06-24T11:49:56Z</time></trkpt>
<trkpt lat="46.42191469" lon="6.11283355"><ele>1410.391357</ele><time>2007-06-24T11:49:58Z</time></trkpt>
<trkpt lat="46.42204452" lon="6.11320755"><ele>1408.949463</ele><time>2007-06-24T11:50:02Z</time></trkpt>
<trkpt lat="46.42226564" lon="6.11302927"><ele>1404.623535</ele><time>2007-06-24T11:50:03Z</time></trkpt>
<trkpt lat="46.42281105" lon="6.11297957"><ele>1395.010254</ele><time>2007-06-24T11:50:07Z</time></trkpt>
<trkpt lat="46.42291347" lon="6.11305945"><ele>1395.97168</ele><time>2007-06-24T11:50:08Z</time></trkpt>
<trkpt lat="46.42299553" lon="6.11317663"><ele>1392.126465</ele><time>2007-06-24T11:50:09Z</time></trkpt>
<trkpt lat="46.42310986" lon="6.11348148"><ele>1390.203857</ele><time>2007-06-24T11:50:11Z</time></trkpt>
<trkpt lat="46.42329812" lon="6.11391868"><ele>1390.684326</ele><time>2007-06-24T11:50:14Z</time></trkpt>
<trkpt lat="46.42337398" lon="6.11404818"><ele>1393.568359</ele><time>2007-06-24T11:50:15Z</time></trkpt>
<trkpt lat="46.42362979" lon="6.11440617"><ele>1394.049072</ele><time>2007-06-24T11:50:18Z</time></trkpt>
<trkpt lat="46.42371495" lon="6.11488905"><ele>1388.28125</ele><time>2007-06-24T11:50:21Z</time></trkpt>
<trkpt lat="46.42367489" lon="6.11507714"><ele>1387.800293</ele><time>2007-06-24T11:50:22Z</time></trkpt>
<trkpt lat="46.42358160" lon="6.11663667"><ele>1384.435791</ele><time>2007-06-24T11:50:31Z</time></trkpt>
<trkpt lat="46.42359199" lon="6.11679803"><ele>1383.955078</ele><time>2007-06-24T11:50:32Z</time></trkpt>
<trkpt lat="46.42366114" lon="6.11710070"><ele>1382.993652</ele><time>2007-06-24T11:50:34Z</time></trkpt>
<trkpt lat="46.42380866" lon="6.11734520"><ele>1382.513184</ele><time>2007-06-24T11:50:36Z</time></trkpt>
<trkpt lat="46.42401016" lon="6.11804743"><ele>1379.148438</ele><time>2007-06-24T11:50:41Z</time></trkpt>
<trkpt lat="46.42360892" lon="6.11809353"><ele>1376.745361</ele><time>2007-06-24T11:50:44Z</time></trkpt>
<trkpt lat="46.42335738" lon="6.11788935"><ele>1372.419434</ele><time>2007-06-24T11:50:46Z</time></trkpt>
<trkpt lat="46.42317843" lon="6.11764192"><ele>1370.977295</ele><time>2007-06-24T11:50:48Z</time></trkpt>
<trkpt lat="46.42301766" lon="6.11739063"><ele>1372.419434</ele><time>2007-06-24T11:50:50Z</time></trkpt>
<trkpt lat="46.42286729" lon="6.11644247"><ele>1368.093262</ele><time>2007-06-24T11:50:56Z</time></trkpt>
<trkpt lat="46.42282555" lon="6.11629922"><ele>1368.093262</ele><time>2007-06-24T11:50:57Z</time></trkpt>
<trkpt lat="46.42239807" lon="6.11618422"><ele>1367.13208</ele><time>2007-06-24T11:51:02Z</time></trkpt>
<trkpt lat="46.42228710" lon="6.11631129"><ele>1365.209473</ele><time>2007-06-24T11:51:04Z</time></trkpt>
<trkpt lat="46.42223806" lon="6.11640148"><ele>1363.767334</ele><time>2007-06-24T11:51:13Z</time></trkpt>
<trkpt lat="46.42224192" lon="6.11640827"><ele>1360.402832</ele><time>2007-06-24T11:51:18Z</time></trkpt>
<trkpt lat="46.42224217" lon="6.11640944"><ele>1366.651367</ele><time>2007-06-24T11:51:20Z</time></trkpt>
<trkpt lat="46.42224192" lon="6.11640994"><ele>1364.248047</ele><time>2007-06-24T11:51:21Z</time></trkpt>
<trkpt lat="46.42224242" lon="6.11640852"><ele>1363.286865</ele><time>2007-06-24T11:51:23Z</time></trkpt>
<trkpt lat="46.42225415" lon="6.11642537"><ele>1362.806152</ele><time>2007-06-24T11:51:52Z</time></trkpt>
<trkpt lat="46.42228316" lon="6.11643325"><ele>1363.286865</ele><time>2007-06-24T11:51:54Z</time></trkpt>
<trkpt lat="46.42239396" lon="6.11652897"><ele>1361.844971</ele><time>2007-06-24T11:51:58Z</time></trkpt>
<trkpt lat="46.42243143" lon="6.11660985"><ele>1361.844971</ele><time>2007-06-24T11:52:00Z</time></trkpt>
<trkpt lat="46.42231517" lon="6.11709139"><ele>1359.922119</ele><time>2007-06-24T11:52:10Z</time></trkpt>
<trkpt lat="46.42229556" lon="6.11741292"><ele>1358.480225</ele><time>2007-06-24T11:52:15Z</time></trkpt>
<trkpt lat="46.42230134" lon="6.11810284"><ele>1356.076904</ele><time>2007-06-24T11:52:25Z</time></trkpt>
<trkpt lat="46.42245599" lon="6.11817199"><ele>1353.673584</ele><time>2007-06-24T11:52:29Z</time></trkpt>
<trkpt lat="46.42251777" lon="6.11828372"><ele>1352.231445</ele><time>2007-06-24T11:52:31Z</time></trkpt>
<trkpt lat="46.42249404" lon="6.11850584"><ele>1350.309082</ele><time>2007-06-24T11:52:34Z</time></trkpt>
<trkpt lat="46.42243529" lon="6.11868639"><ele>1348.38623</ele><time>2007-06-24T11:52:37Z</time></trkpt>
<trkpt lat="46.42231987" lon="6.11888428"><ele>1346.944336</ele><time>2007-06-24T11:52:40Z</time></trkpt>
<trkpt lat="46.42224527" lon="6.11901395"><ele>1345.983154</ele><time>2007-06-24T11:52:42Z</time></trkpt>
<trkpt lat="46.42195283" lon="6.11926004"><ele>1341.176514</ele><time>2007-06-24T11:52:48Z</time></trkpt>
<trkpt lat="46.42187512" lon="6.11934889"><ele>1340.695801</ele><time>2007-06-24T11:52:50Z</time></trkpt>
<trkpt lat="46.42173959" lon="6.11962616"><ele>1338.29248</ele><time>2007-06-24T11:52:55Z</time></trkpt>
<trkpt lat="46.42171034" lon="6.11984686"><ele>1334.447266</ele><time>2007-06-24T11:53:00Z</time></trkpt>
<trkpt lat="46.42167849" lon="6.12009346"><ele>1332.524658</ele><time>2007-06-24T11:53:04Z</time></trkpt>
<trkpt lat="46.42173389" lon="6.12048003"><ele>1328.679443</ele><time>2007-06-24T11:53:09Z</time></trkpt>
<trkpt lat="46.42191477" lon="6.12094447"><ele>1325.314697</ele><time>2007-06-24T11:53:15Z</time></trkpt>
<trkpt lat="46.42180975" lon="6.12109895"><ele>1323.39209</ele><time>2007-06-24T11:53:18Z</time></trkpt>
<trkpt lat="46.42171687" lon="6.12124085"><ele>1322.430664</ele><time>2007-06-24T11:53:20Z</time></trkpt>
<trkpt lat="46.42156323" lon="6.12158099"><ele>1319.066162</ele><time>2007-06-24T11:53:24Z</time></trkpt>
<trkpt lat="46.42146793" lon="6.12186715"><ele>1317.624023</ele><time>2007-06-24T11:53:27Z</time></trkpt>
<trkpt lat="46.42125419" lon="6.12222598"><ele>1313.778809</ele><time>2007-06-24T11:53:32Z</time></trkpt>
<trkpt lat="46.42116157" lon="6.12230804"><ele>1308.972412</ele><time>2007-06-24T11:53:34Z</time></trkpt>
<trkpt lat="46.42113886" lon="6.12218826"><ele>1308.972412</ele><time>2007-06-24T11:53:41Z</time></trkpt>
<trkpt lat="46.42115897" lon="6.12206907"><ele>1308.491699</ele><time>2007-06-24T11:53:44Z</time></trkpt>
<trkpt lat="46.42120583" lon="6.12185349"><ele>1307.530273</ele><time>2007-06-24T11:53:49Z</time></trkpt>
<trkpt lat="46.42115596" lon="6.12189246"><ele>1307.530273</ele><time>2007-06-24T11:53:58Z</time></trkpt>
<trkpt lat="46.42106937" lon="6.12188182"><ele>1305.126953</ele><time>2007-06-24T11:54:05Z</time></trkpt>
<trkpt lat="46.42098874" lon="6.12180387"><ele>1305.126953</ele><time>2007-06-24T11:54:28Z</time></trkpt>
<trkpt lat="46.42104833" lon="6.12176422"><ele>1305.126953</ele><time>2007-06-24T11:54:41Z</time></trkpt>
<trkpt lat="46.42094339" lon="6.12197838"><ele>1304.64624</ele><time>2007-06-24T11:54:46Z</time></trkpt>
<trkpt lat="46.42089184" lon="6.12230075"><ele>1302.723633</ele><time>2007-06-24T11:54:50Z</time></trkpt>
<trkpt lat="46.42098187" lon="6.12285336"><ele>1295.994629</ele><time>2007-06-24T11:54:55Z</time></trkpt>
<trkpt lat="46.42115193" lon="6.12377713"><ele>1295.994629</ele><time>2007-06-24T11:55:03Z</time></trkpt>
<trkpt lat="46.42100416" lon="6.12415943"><ele>1294.55249</ele><time>2007-06-24T11:55:06Z</time></trkpt>
<trkpt lat="46.42078246" lon="6.12424895"><ele>1290.707031</ele><time>2007-06-24T11:55:08Z</time></trkpt>
<trkpt lat="46.42065103" lon="6.12419363"><ele>1290.707031</ele><time>2007-06-24T11:55:09Z</time></trkpt>
<trkpt lat="46.42042983" lon="6.12405793"><ele>1286.861816</ele><time>2007-06-24T11:55:11Z</time></trkpt>
<trkpt lat="46.42036529" lon="6.12392734"><ele>1286.861816</ele><time>2007-06-24T11:55:12Z</time></trkpt>
<trkpt lat="46.42036144" lon="6.12340389"><ele>1283.497314</ele><time>2007-06-24T11:55:15Z</time></trkpt>
<trkpt lat="46.42038977" lon="6.12322778"><ele>1283.016602</ele><time>2007-06-24T11:55:16Z</time></trkpt>
<trkpt lat="46.42044006" lon="6.12287046"><ele>1283.016602</ele><time>2007-06-24T11:55:18Z</time></trkpt>
<trkpt lat="46.42032179" lon="6.12219145"><ele>1278.690918</ele><time>2007-06-24T11:55:22Z</time></trkpt>
<trkpt lat="46.42015893" lon="6.12169725"><ele>1276.768311</ele><time>2007-06-24T11:55:25Z</time></trkpt>
<trkpt lat="46.42004829" lon="6.12096207"><ele>1272.922852</ele><time>2007-06-24T11:55:29Z</time></trkpt>
<trkpt lat="46.41997386" lon="6.12061372"><ele>1271.000244</ele><time>2007-06-24T11:55:31Z</time></trkpt>
<trkpt lat="46.41983254" lon="6.12037408"><ele>1267.155029</ele><time>2007-06-24T11:55:33Z</time></trkpt>
<trkpt lat="46.41949399" lon="6.12043007"><ele>1263.790283</ele><time>2007-06-24T11:55:36Z</time></trkpt>
<trkpt lat="46.41931915" lon="6.12069486"><ele>1259.464355</ele><time>2007-06-24T11:55:38Z</time></trkpt>
<trkpt lat="46.41929752" lon="6.12088353"><ele>1257.541748</ele><time>2007-06-24T11:55:39Z</time></trkpt>
<trkpt lat="46.41923189" lon="6.12113868"><ele>1256.099609</ele><time>2007-06-24T11:55:41Z</time></trkpt>
<trkpt lat="46.41919308" lon="6.12126566"><ele>1249.851318</ele><time>2007-06-24T11:55:42Z</time></trkpt>
<trkpt lat="46.41907766" lon="6.12151938"><ele>1246.486816</ele><time>2007-06-24T11:55:44Z</time></trkpt>
<trkpt lat="46.41888589" lon="6.12185894"><ele>1241.199219</ele><time>2007-06-24T11:55:47Z</time></trkpt>
<trkpt lat="46.41882612" lon="6.12196622"><ele>1244.563965</ele><time>2007-06-24T11:55:48Z</time></trkpt>
<trkpt lat="46.41876485" lon="6.12207762"><ele>1245.044678</ele><time>2007-06-24T11:55:49Z</time></trkpt>
<trkpt lat="46.41832178" lon="6.12244634"><ele>1241.679932</ele><time>2007-06-24T11:55:54Z</time></trkpt>
<trkpt lat="46.41810587" lon="6.12257182"><ele>1236.873291</ele><time>2007-06-24T11:55:56Z</time></trkpt>
<trkpt lat="46.41795013" lon="6.12283853"><ele>1233.508789</ele><time>2007-06-24T11:55:58Z</time></trkpt>
<trkpt lat="46.41787017" lon="6.12316442"><ele>1230.144287</ele><time>2007-06-24T11:56:00Z</time></trkpt>
<trkpt lat="46.41784955" lon="6.12334547"><ele>1229.182861</ele><time>2007-06-24T11:56:01Z</time></trkpt>
<trkpt lat="46.41780529" lon="6.12367856"><ele>1225.337402</ele><time>2007-06-24T11:56:03Z</time></trkpt>
<trkpt lat="46.41765039" lon="6.12418357"><ele>1219.569824</ele><time>2007-06-24T11:56:07Z</time></trkpt>
<trkpt lat="46.41762634" lon="6.12426882"><ele>1219.089111</ele><time>2007-06-24T11:56:08Z</time></trkpt>
<trkpt lat="46.41744009" lon="6.12446789"><ele>1218.127686</ele><time>2007-06-24T11:56:12Z</time></trkpt>
<trkpt lat="46.41717187" lon="6.12452019"><ele>1219.569824</ele><time>2007-06-24T11:56:20Z</time></trkpt>
<trkpt lat="46.41687473" lon="6.12455833"><ele>1216.685791</ele><time>2007-06-24T11:56:27Z</time></trkpt>
<trkpt lat="46.41682846" lon="6.12454902"><ele>1218.127686</ele><time>2007-06-24T11:56:29Z</time></trkpt>
<trkpt lat="46.41677834" lon="6.12451416"><ele>1214.282471</ele><time>2007-06-24T11:56:36Z</time></trkpt>
<trkpt lat="46.41677524" lon="6.12451633"><ele>1218.127686</ele><time>2007-06-24T11:56:37Z</time></trkpt>
<trkpt lat="46.41675588" lon="6.12454257"><ele>1214.763184</ele><time>2007-06-24T11:56:42Z</time></trkpt>
<trkpt lat="46.41675554" lon="6.12453092"><ele>1218.608398</ele><time>2007-06-24T11:56:44Z</time></trkpt>
<trkpt lat="46.41674205" lon="6.12453218"><ele>1213.801758</ele><time>2007-06-24T11:56:52Z</time></trkpt>
<trkpt lat="46.41674163" lon="6.12453209"><ele>1220.050293</ele><time>2007-06-24T11:56:53Z</time></trkpt>
<trkpt lat="46.41674238" lon="6.12452924"><ele>1216.685791</ele><time>2007-06-24T11:56:58Z</time></trkpt>
<trkpt lat="46.41674079" lon="6.12453117"><ele>1219.089111</ele><time>2007-06-24T11:57:02Z</time></trkpt>
<trkpt lat="46.41674037" lon="6.12453234"><ele>1213.801758</ele><time>2007-06-24T11:57:04Z</time></trkpt>
<trkpt lat="46.41674096" lon="6.12453184"><ele>1218.127686</ele><time>2007-06-24T11:57:05Z</time></trkpt>
<trkpt lat="46.41674138" lon="6.12453125"><ele>1215.243896</ele><time>2007-06-24T11:57:06Z</time></trkpt>
<trkpt lat="46.41674196" lon="6.12453084"><ele>1221.011719</ele><time>2007-06-24T11:57:09Z</time></trkpt>
<trkpt lat="46.41674263" lon="6.12453008"><ele>1217.646973</ele><time>2007-06-24T11:57:10Z</time></trkpt>
<trkpt lat="46.41674557" lon="6.12452690"><ele>1214.282471</ele><time>2007-06-24T11:57:14Z</time></trkpt>
<trkpt lat="46.41674599" lon="6.12452648"><ele>1220.050293</ele><time>2007-06-24T11:57:15Z</time></trkpt>
<trkpt lat="46.41675219" lon="6.12451835"><ele>1218.608398</ele><time>2007-06-24T11:57:16Z</time></trkpt>
<trkpt lat="46.41675848" lon="6.12451030"><ele>1217.166504</ele><time>2007-06-24T11:57:19Z</time></trkpt>
<trkpt lat="46.41676074" lon="6.12450703"><ele>1220.050293</ele><time>2007-06-24T11:57:24Z</time></trkpt>
<trkpt lat="46.41676099" lon="6.12450644"><ele>1217.646973</ele><time>2007-06-24T11:57:25Z</time></trkpt>
<trkpt lat="46.41676317" lon="6.12450024"><ele>1217.166504</ele><time>2007-06-24T11:57:40Z</time></trkpt>
<trkpt lat="46.41675487" lon="6.12454274"><ele>1216.205078</ele><time>2007-06-24T11:58:14Z</time></trkpt>
<trkpt lat="46.41682645" lon="6.12446546"><ele>1215.724609</ele><time>2007-06-24T11:58:55Z</time></trkpt>
<trkpt lat="46.41670299" lon="6.12460376"><ele>1217.166504</ele><time>2007-06-24T11:59:56Z</time></trkpt>
<trkpt lat="46.41662420" lon="6.12459253"><ele>1216.205078</ele><time>2007-06-24T12:00:01Z</time></trkpt>
<trkpt lat="46.41648673" lon="6.12458775"><ele>1214.763184</ele><time>2007-06-24T12:00:05Z</time></trkpt>
<trkpt lat="46.41630384" lon="6.12458046"><ele>1214.282471</ele><time>2007-06-24T12:00:08Z</time></trkpt>
<trkpt lat="46.41618113" lon="6.12455925"><ele>1213.321289</ele><time>2007-06-24T12:00:10Z</time></trkpt>
<trkpt lat="46.41605238" lon="6.12447015"><ele>1212.359863</ele><time>2007-06-24T12:00:12Z</time></trkpt>
<trkpt lat="46.41591526" lon="6.12433168"><ele>1209.956299</ele><time>2007-06-24T12:00:14Z</time></trkpt>
<trkpt lat="46.41570822" lon="6.12407327"><ele>1208.033936</ele><time>2007-06-24T12:00:17Z</time></trkpt>
<trkpt lat="46.41544797" lon="6.12370363"><ele>1205.630615</ele><time>2007-06-24T12:00:21Z</time></trkpt>
<trkpt lat="46.41508897" lon="6.12351914"><ele>1201.304688</ele><time>2007-06-24T12:00:26Z</time></trkpt>
<trkpt lat="46.41490440" lon="6.12349844"><ele>1200.343506</ele><time>2007-06-24T12:00:28Z</time></trkpt>
<trkpt lat="46.41472754" lon="6.12348318"><ele>1197.459473</ele><time>2007-06-24T12:00:30Z</time></trkpt>
<trkpt lat="46.41449880" lon="6.12341504"><ele>1194.575195</ele><time>2007-06-24T12:00:33Z</time></trkpt>
<trkpt lat="46.41443895" lon="6.12284574"><ele>1193.133301</ele><time>2007-06-24T12:00:38Z</time></trkpt>
<trkpt lat="46.41436955" lon="6.12248624"><ele>1188.807617</ele><time>2007-06-24T12:00:41Z</time></trkpt>
<trkpt lat="46.41414198" lon="6.12210847"><ele>1185.442871</ele><time>2007-06-24T12:00:46Z</time></trkpt>
<trkpt lat="46.41389547" lon="6.12180848"><ele>1180.636475</ele><time>2007-06-24T12:00:50Z</time></trkpt>
<trkpt lat="46.41362306" lon="6.12156255"><ele>1178.23291</ele><time>2007-06-24T12:00:54Z</time></trkpt>
<trkpt lat="46.41335425" lon="6.12107942"><ele>1173.426514</ele><time>2007-06-24T12:00:59Z</time></trkpt>
<trkpt lat="46.41328753" lon="6.12092435"><ele>1171.984375</ele><time>2007-06-24T12:01:01Z</time></trkpt>
<trkpt lat="46.41319457" lon="6.12078773"><ele>1171.503662</ele><time>2007-06-24T12:01:03Z</time></trkpt>
<trkpt lat="46.41303565" lon="6.12057424"><ele>1169.581299</ele><time>2007-06-24T12:01:06Z</time></trkpt>
<trkpt lat="46.41285427" lon="6.12026587"><ele>1165.255371</ele><time>2007-06-24T12:01:11Z</time></trkpt>
<trkpt lat="46.41273449" lon="6.12038934"><ele>1163.812988</ele><time>2007-06-24T12:01:14Z</time></trkpt>
<trkpt lat="46.41265604" lon="6.12053317"><ele>1162.371094</ele><time>2007-06-24T12:01:16Z</time></trkpt>
<trkpt lat="46.41250005" lon="6.12076979"><ele>1160.448486</ele><time>2007-06-24T12:01:19Z</time></trkpt>
<trkpt lat="46.41209445" lon="6.12096325"><ele>1157.083984</ele><time>2007-06-24T12:01:24Z</time></trkpt>
<trkpt lat="46.41200627" lon="6.12095419"><ele>1155.64209</ele><time>2007-06-24T12:01:25Z</time></trkpt>
<trkpt lat="46.41174727" lon="6.12093475"><ele>1154.200195</ele><time>2007-06-24T12:01:28Z</time></trkpt>
<trkpt lat="46.41166077" lon="6.12093768"><ele>1153.719482</ele><time>2007-06-24T12:01:29Z</time></trkpt>
<trkpt lat="46.41123455" lon="6.12135384"><ele>1149.393555</ele><time>2007-06-24T12:01:35Z</time></trkpt>
<trkpt lat="46.41112424" lon="6.12160647"><ele>1146.028809</ele><time>2007-06-24T12:01:37Z</time></trkpt>
<trkpt lat="46.41103682" lon="6.12202087"><ele>1143.625488</ele><time>2007-06-24T12:01:40Z</time></trkpt>
<trkpt lat="46.41097773" lon="6.12242874"><ele>1139.780273</ele><time>2007-06-24T12:01:43Z</time></trkpt>
<trkpt lat="46.41075016" lon="6.12288136"><ele>1135.454346</ele><time>2007-06-24T12:01:48Z</time></trkpt>
<trkpt lat="46.41072250" lon="6.12298354"><ele>1134.012451</ele><time>2007-06-24T12:01:51Z</time></trkpt>
<trkpt lat="46.41074614" lon="6.12320566"><ele>1131.608887</ele><time>2007-06-24T12:01:59Z</time></trkpt>
<trkpt lat="46.41064874" lon="6.12349978"><ele>1131.608887</ele><time>2007-06-24T12:02:06Z</time></trkpt>
<trkpt lat="46.41048797" lon="6.12393958"><ele>1128.725098</ele><time>2007-06-24T12:02:11Z</time></trkpt>
<trkpt lat="46.41035755" lon="6.12422934"><ele>1128.244385</ele><time>2007-06-24T12:02:14Z</time></trkpt>
<trkpt lat="46.41017214" lon="6.12446453"><ele>1125.841064</ele><time>2007-06-24T12:02:17Z</time></trkpt>
<trkpt lat="46.41009344" lon="6.12454198"><ele>1125.360352</ele><time>2007-06-24T12:02:18Z</time></trkpt>
<trkpt lat="46.40976227" lon="6.12482747"><ele>1121.034668</ele><time>2007-06-24T12:02:22Z</time></trkpt>
<trkpt lat="46.40940210" lon="6.12503819"><ele>1117.189453</ele><time>2007-06-24T12:02:26Z</time></trkpt>
<trkpt lat="46.40931685" lon="6.12507214"><ele>1116.70874</ele><time>2007-06-24T12:02:27Z</time></trkpt>
<trkpt lat="46.40886666" lon="6.12558226"><ele>1112.382568</ele><time>2007-06-24T12:02:33Z</time></trkpt>
<trkpt lat="46.40870824" lon="6.12575518"><ele>1108.056885</ele><time>2007-06-24T12:02:35Z</time></trkpt>
<trkpt lat="46.40857296" lon="6.12588963"><ele>1106.134033</ele><time>2007-06-24T12:02:37Z</time></trkpt>
<trkpt lat="46.40841605" lon="6.12597085"><ele>1105.172852</ele><time>2007-06-24T12:02:39Z</time></trkpt>
<trkpt lat="46.40799696" lon="6.12589474"><ele>1101.80835</ele><time>2007-06-24T12:02:44Z</time></trkpt>
<trkpt lat="46.40777727" lon="6.12567740"><ele>1098.924072</ele><time>2007-06-24T12:02:47Z</time></trkpt>
<trkpt lat="46.40770166" lon="6.12560355"><ele>1098.443359</ele><time>2007-06-24T12:02:48Z</time></trkpt>
<trkpt lat="46.40746789" lon="6.12539082"><ele>1096.040283</ele><time>2007-06-24T12:02:51Z</time></trkpt>
<trkpt lat="46.40732406" lon="6.12527724"><ele>1095.55957</ele><time>2007-06-24T12:02:53Z</time></trkpt>
<trkpt lat="46.40713052" lon="6.12518286"><ele>1093.636963</ele><time>2007-06-24T12:02:56Z</time></trkpt>
<trkpt lat="46.40665376" lon="6.12528688"><ele>1090.272461</ele><time>2007-06-24T12:03:01Z</time></trkpt>
<trkpt lat="46.40635737" lon="6.12523357"><ele>1088.349854</ele><time>2007-06-24T12:03:04Z</time></trkpt>
<trkpt lat="46.40605847" lon="6.12516040"><ele>1084.985352</ele><time>2007-06-24T12:03:07Z</time></trkpt>
<trkpt lat="46.40581464" lon="6.12510659"><ele>1080.178467</ele><time>2007-06-24T12:03:10Z</time></trkpt>
<trkpt lat="46.40570752" lon="6.12512176"><ele>1079.217041</ele><time>2007-06-24T12:03:12Z</time></trkpt>
<trkpt lat="46.40562396" lon="6.12512352"><ele>1076.333252</ele><time>2007-06-24T12:03:15Z</time></trkpt>
<trkpt lat="46.40561515" lon="6.12512738"><ele>1076.333252</ele><time>2007-06-24T12:03:16Z</time></trkpt>
<trkpt lat="46.40563519" lon="6.12511958"><ele>1076.333252</ele><time>2007-06-24T12:03:37Z</time></trkpt>
<trkpt lat="46.40561054" lon="6.12512712"><ele>1077.294678</ele><time>2007-06-24T12:04:28Z</time></trkpt>
<trkpt lat="46.40561272" lon="6.12512855"><ele>1076.333252</ele><time>2007-06-24T12:04:30Z</time></trkpt>
<trkpt lat="46.40560359" lon="6.12507423"><ele>1076.333252</ele><time>2007-06-24T12:04:50Z</time></trkpt>
<trkpt lat="46.40554206" lon="6.12491892"><ele>1074.891357</ele><time>2007-06-24T12:04:54Z</time></trkpt>
<trkpt lat="46.40549169" lon="6.12476645"><ele>1074.410645</ele><time>2007-06-24T12:04:56Z</time></trkpt>
<trkpt lat="46.40541198" lon="6.12458708"><ele>1072.96875</ele><time>2007-06-24T12:04:59Z</time></trkpt>
<trkpt lat="46.40523277" lon="6.12462790"><ele>1069.604248</ele><time>2007-06-24T12:05:04Z</time></trkpt>
<trkpt lat="46.40481720" lon="6.12469294"><ele>1066.239258</ele><time>2007-06-24T12:05:08Z</time></trkpt>
<trkpt lat="46.40447882" lon="6.12458113"><ele>1063.355469</ele><time>2007-06-24T12:05:11Z</time></trkpt>
<trkpt lat="46.40410608" lon="6.12438600"><ele>1060.471436</ele><time>2007-06-24T12:05:14Z</time></trkpt>
<trkpt lat="46.40358355" lon="6.12417603"><ele>1054.223145</ele><time>2007-06-24T12:05:18Z</time></trkpt>
<trkpt lat="46.40318558" lon="6.12404594"><ele>1050.377686</ele><time>2007-06-24T12:05:21Z</time></trkpt>
<trkpt lat="46.40293043" lon="6.12399305"><ele>1047.012939</ele><time>2007-06-24T12:05:23Z</time></trkpt>
<trkpt lat="46.40280219" lon="6.12396858"><ele>1044.609619</ele><time>2007-06-24T12:05:24Z</time></trkpt>
<trkpt lat="46.40229726" lon="6.12397335"><ele>1038.842041</ele><time>2007-06-24T12:05:28Z</time></trkpt>
<trkpt lat="46.40186266" lon="6.12363196"><ele>1036.438721</ele><time>2007-06-24T12:05:32Z</time></trkpt>
<trkpt lat="46.40164825" lon="6.12341663"><ele>1033.07373</ele><time>2007-06-24T12:05:34Z</time></trkpt>
<trkpt lat="46.40130409" lon="6.12310776"><ele>1028.748047</ele><time>2007-06-24T12:05:37Z</time></trkpt>
<trkpt lat="46.40108197" lon="6.12289217"><ele>1025.383301</ele><time>2007-06-24T12:05:39Z</time></trkpt>
<trkpt lat="46.40079933" lon="6.12254248"><ele>1021.538086</ele><time>2007-06-24T12:05:42Z</time></trkpt>
<trkpt lat="46.40072482" lon="6.12244894"><ele>1020.096191</ele><time>2007-06-24T12:05:43Z</time></trkpt>
<trkpt lat="46.40064259" lon="6.12259495"><ele>1014.808838</ele><time>2007-06-24T12:05:49Z</time></trkpt>
<trkpt lat="46.40085138" lon="6.12280944"><ele>1012.405518</ele><time>2007-06-24T12:05:52Z</time></trkpt>
<trkpt lat="46.40133862" lon="6.12360539"><ele>1007.118408</ele><time>2007-06-24T12:05:59Z</time></trkpt>
<trkpt lat="46.40167323" lon="6.12414527"><ele>1002.311523</ele><time>2007-06-24T12:06:03Z</time></trkpt>
<trkpt lat="46.40193122" lon="6.12456897"><ele>998.947021</ele><time>2007-06-24T12:06:06Z</time></trkpt>
<trkpt lat="46.40212644" lon="6.12482814"><ele>994.140625</ele><time>2007-06-24T12:06:08Z</time></trkpt>
<trkpt lat="46.40245870" lon="6.12516887"><ele>990.29541</ele><time>2007-06-24T12:06:11Z</time></trkpt>
<trkpt lat="46.40268358" lon="6.12533508"><ele>985.969238</ele><time>2007-06-24T12:06:13Z</time></trkpt>
<trkpt lat="46.40296153" lon="6.12568854"><ele>982.124023</ele><time>2007-06-24T12:06:16Z</time></trkpt>
<trkpt lat="46.40305465" lon="6.12617847"><ele>977.798096</ele><time>2007-06-24T12:06:19Z</time></trkpt>
<trkpt lat="46.40316982" lon="6.12643395"><ele>975.394775</ele><time>2007-06-24T12:06:21Z</time></trkpt>
<trkpt lat="46.40356704" lon="6.12663754"><ele>971.549316</ele><time>2007-06-24T12:06:25Z</time></trkpt>
<trkpt lat="46.40386149" lon="6.12684877"><ele>966.262207</ele><time>2007-06-24T12:06:28Z</time></trkpt>
<trkpt lat="46.40398529" lon="6.12701238"><ele>962.897705</ele><time>2007-06-24T12:06:31Z</time></trkpt>
<trkpt lat="46.40365924" lon="6.12697776"><ele>960.975098</ele><time>2007-06-24T12:06:35Z</time></trkpt>
<trkpt lat="46.40335858" lon="6.12686452"><ele>958.571777</ele><time>2007-06-24T12:06:38Z</time></trkpt>
<trkpt lat="46.40303093" lon="6.12683963"><ele>956.168457</ele><time>2007-06-24T12:06:41Z</time></trkpt>
<trkpt lat="46.40280487" lon="6.12681205"><ele>953.765137</ele><time>2007-06-24T12:06:43Z</time></trkpt>
<trkpt lat="46.40252936" lon="6.12660158"><ele>948.477783</ele><time>2007-06-24T12:06:46Z</time></trkpt>
<trkpt lat="46.40223364" lon="6.12624787"><ele>946.074707</ele><time>2007-06-24T12:06:49Z</time></trkpt>
<trkpt lat="46.40172687" lon="6.12596154"><ele>938.864746</ele><time>2007-06-24T12:06:53Z</time></trkpt>
<trkpt lat="46.40115699" lon="6.12574839"><ele>933.577393</ele><time>2007-06-24T12:06:57Z</time></trkpt>
<trkpt lat="46.40076363" lon="6.12549157"><ele>929.732178</ele><time>2007-06-24T12:07:00Z</time></trkpt>
<trkpt lat="46.40053513" lon="6.12530172"><ele>924.445068</ele><time>2007-06-24T12:07:02Z</time></trkpt>
<trkpt lat="46.40041812" lon="6.12523542"><ele>924.445068</ele><time>2007-06-24T12:07:03Z</time></trkpt>
<trkpt lat="46.40007606" lon="6.12514548"><ele>918.677002</ele><time>2007-06-24T12:07:06Z</time></trkpt>
<trkpt lat="46.39979585" lon="6.12491456"><ele>914.831787</ele><time>2007-06-24T12:07:09Z</time></trkpt>
<trkpt lat="46.39971589" lon="6.12481314"><ele>914.831787</ele><time>2007-06-24T12:07:10Z</time></trkpt>
<trkpt lat="46.39945303" lon="6.12473845"><ele>911.467285</ele><time>2007-06-24T12:07:13Z</time></trkpt>
<trkpt lat="46.39924290" lon="6.12459688"><ele>907.621826</ele><time>2007-06-24T12:07:16Z</time></trkpt>
<trkpt lat="46.39907677" lon="6.12429807"><ele>901.854004</ele><time>2007-06-24T12:07:19Z</time></trkpt>
<trkpt lat="46.39901172" lon="6.12419397"><ele>901.854004</ele><time>2007-06-24T12:07:20Z</time></trkpt>
<trkpt lat="46.39896017" lon="6.12406857"><ele>897.047363</ele><time>2007-06-24T12:07:21Z</time></trkpt>
<trkpt lat="46.39891265" lon="6.12393379"><ele>895.124756</ele><time>2007-06-24T12:07:22Z</time></trkpt>
<trkpt lat="46.39867913" lon="6.12333625"><ele>891.76001</ele><time>2007-06-24T12:07:27Z</time></trkpt>
<trkpt lat="46.39862917" lon="6.12323524"><ele>891.279297</ele><time>2007-06-24T12:07:28Z</time></trkpt>
<trkpt lat="46.39853043" lon="6.12305319"><ele>889.837402</ele><time>2007-06-24T12:07:30Z</time></trkpt>
<trkpt lat="46.39829650" lon="6.12248716"><ele>889.356689</ele><time>2007-06-24T12:07:36Z</time></trkpt>
<trkpt lat="46.39816632" lon="6.12197226"><ele>885.992188</ele><time>2007-06-24T12:07:40Z</time></trkpt>
<trkpt lat="46.39791026" lon="6.12141176"><ele>881.185791</ele><time>2007-06-24T12:07:44Z</time></trkpt>
<trkpt lat="46.39778034" lon="6.12117874"><ele>878.301758</ele><time>2007-06-24T12:07:46Z</time></trkpt>
<trkpt lat="46.39741958" lon="6.12128880"><ele>874.937012</ele><time>2007-06-24T12:07:50Z</time></trkpt>
<trkpt lat="46.39728555" lon="6.12164377"><ele>871.091797</ele><time>2007-06-24T12:07:52Z</time></trkpt>
<trkpt lat="46.39724147" lon="6.12180127"><ele>869.169189</ele><time>2007-06-24T12:07:53Z</time></trkpt>
<trkpt lat="46.39727038" lon="6.12216764"><ele>864.843262</ele><time>2007-06-24T12:07:56Z</time></trkpt>
<trkpt lat="46.39736493" lon="6.12218818"><ele>863.401367</ele><time>2007-06-24T12:07:58Z</time></trkpt>
<trkpt lat="46.39738932" lon="6.12217577"><ele>862.920654</ele><time>2007-06-24T12:07:59Z</time></trkpt>
<trkpt lat="46.39735102" lon="6.12206345"><ele>864.843262</ele><time>2007-06-24T12:08:03Z</time></trkpt>
<trkpt lat="46.39730567" lon="6.12187302"><ele>867.727051</ele><time>2007-06-24T12:08:12Z</time></trkpt>
<trkpt lat="46.39729419" lon="6.12192725"><ele>866.285156</ele><time>2007-06-24T12:08:15Z</time></trkpt>
<trkpt lat="46.39727994" lon="6.12196765"><ele>863.401367</ele><time>2007-06-24T12:08:21Z</time></trkpt>
<trkpt lat="46.39727667" lon="6.12196958"><ele>865.323975</ele><time>2007-06-24T12:08:22Z</time></trkpt>
<trkpt lat="46.39727483" lon="6.12197276"><ele>869.169189</ele><time>2007-06-24T12:08:23Z</time></trkpt>
<trkpt lat="46.39728120" lon="6.12197997"><ele>868.207764</ele><time>2007-06-24T12:08:24Z</time></trkpt>
<trkpt lat="46.39728547" lon="6.12198994"><ele>864.843262</ele><time>2007-06-24T12:08:26Z</time></trkpt>
<trkpt lat="46.39728815" lon="6.12198852"><ele>869.649902</ele><time>2007-06-24T12:08:27Z</time></trkpt>
<trkpt lat="46.39728614" lon="6.12200562"><ele>867.727051</ele><time>2007-06-24T12:08:28Z</time></trkpt>
<trkpt lat="46.39729620" lon="6.12200453"><ele>866.765869</ele><time>2007-06-24T12:08:30Z</time></trkpt>
<trkpt lat="46.39729293" lon="6.12200612"><ele>867.246582</ele><time>2007-06-24T12:08:34Z</time></trkpt>
<trkpt lat="46.39729075" lon="6.12202808"><ele>865.804688</ele><time>2007-06-24T12:08:39Z</time></trkpt>
<trkpt lat="46.39742293" lon="6.12207829"><ele>864.843262</ele><time>2007-06-24T12:08:45Z</time></trkpt>
<trkpt lat="46.39744825" lon="6.12211743"><ele>862.439941</ele><time>2007-06-24T12:08:47Z</time></trkpt>
<trkpt lat="46.39750055" lon="6.12239555"><ele>858.594482</ele><time>2007-06-24T12:08:51Z</time></trkpt>
<trkpt lat="46.39751907" lon="6.12269520"><ele>855.710693</ele><time>2007-06-24T12:08:54Z</time></trkpt>
<trkpt lat="46.39750985" lon="6.12279846"><ele>855.22998</ele><time>2007-06-24T12:08:55Z</time></trkpt>
<trkpt lat="46.39748806" lon="6.12299913"><ele>852.82666</ele><time>2007-06-24T12:08:57Z</time></trkpt>
<trkpt lat="46.39743023" lon="6.12340573"><ele>847.058838</ele><time>2007-06-24T12:09:01Z</time></trkpt>
<trkpt lat="46.39740634" lon="6.12363230"><ele>845.13623</ele><time>2007-06-24T12:09:03Z</time></trkpt>
<trkpt lat="46.39736887" lon="6.12407327"><ele>841.290771</ele><time>2007-06-24T12:09:08Z</time></trkpt>
<trkpt lat="46.39733786" lon="6.12427988"><ele>837.92627</ele><time>2007-06-24T12:09:12Z</time></trkpt>
<trkpt lat="46.39735387" lon="6.12439848"><ele>836.003662</ele><time>2007-06-24T12:09:14Z</time></trkpt>
<trkpt lat="46.39739837" lon="6.12459102"><ele>832.158447</ele><time>2007-06-24T12:09:18Z</time></trkpt>
<trkpt lat="46.39740047" lon="6.12464692"><ele>830.716553</ele><time>2007-06-24T12:09:19Z</time></trkpt>
<trkpt lat="46.39731405" lon="6.12496778"><ele>827.351807</ele><time>2007-06-24T12:09:24Z</time></trkpt>
<trkpt lat="46.39722286" lon="6.12514892"><ele>822.545166</ele><time>2007-06-24T12:09:27Z</time></trkpt>
<trkpt lat="46.39700845" lon="6.12539853"><ele>817.738525</ele><time>2007-06-24T12:09:33Z</time></trkpt>
<trkpt lat="46.39681877" lon="6.12555284"><ele>813.893311</ele><time>2007-06-24T12:09:41Z</time></trkpt>
<trkpt lat="46.39681047" lon="6.12583288"><ele>810.047852</ele><time>2007-06-24T12:09:45Z</time></trkpt>
<trkpt lat="46.39673805" lon="6.12607093"><ele>806.68335</ele><time>2007-06-24T12:09:49Z</time></trkpt>
<trkpt lat="46.39673696" lon="6.12612197"><ele>805.722168</ele><time>2007-06-24T12:09:50Z</time></trkpt>
<trkpt lat="46.39667912" lon="6.12639648"><ele>800.915527</ele><time>2007-06-24T12:09:56Z</time></trkpt>
<trkpt lat="46.39667736" lon="6.12656076"><ele>797.551025</ele><time>2007-06-24T12:10:00Z</time></trkpt>
<trkpt lat="46.39668558" lon="6.12659412"><ele>797.551025</ele><time>2007-06-24T12:10:01Z</time></trkpt>
<trkpt lat="46.39670226" lon="6.12673318"><ele>794.186279</ele><time>2007-06-24T12:10:05Z</time></trkpt>
<trkpt lat="46.39668734" lon="6.12684919"><ele>792.263672</ele><time>2007-06-24T12:10:08Z</time></trkpt>
<trkpt lat="46.39666487" lon="6.12703468"><ele>788.89917</ele><time>2007-06-24T12:10:13Z</time></trkpt>
<trkpt lat="46.39665649" lon="6.12706896"><ele>788.89917</ele><time>2007-06-24T12:10:14Z</time></trkpt>
<trkpt lat="46.39663772" lon="6.12717809"><ele>785.053955</ele><time>2007-06-24T12:10:17Z</time></trkpt>
<trkpt lat="46.39663680" lon="6.12720148"><ele>784.573242</ele><time>2007-06-24T12:10:18Z</time></trkpt>
<trkpt lat="46.39661659" lon="6.12724473"><ele>783.611816</ele><time>2007-06-24T12:10:20Z</time></trkpt>
<trkpt lat="46.39657343" lon="6.12728664"><ele>782.650635</ele><time>2007-06-24T12:10:22Z</time></trkpt>
<trkpt lat="46.39652515" lon="6.12761144"><ele>778.324463</ele><time>2007-06-24T12:10:28Z</time></trkpt>
<trkpt lat="46.39637033" lon="6.12787765"><ele>773.998535</ele><time>2007-06-24T12:10:34Z</time></trkpt>
<trkpt lat="46.39633974" lon="6.12793783"><ele>772.556641</ele><time>2007-06-24T12:10:36Z</time></trkpt>
<trkpt lat="46.39616967" lon="6.12816347"><ele>767.75</ele><time>2007-06-24T12:10:41Z</time></trkpt>
<trkpt lat="46.39612282" lon="6.12821342"><ele>767.75</ele><time>2007-06-24T12:10:42Z</time></trkpt>
<trkpt lat="46.39605350" lon="6.12858457"><ele>764.866211</ele><time>2007-06-24T12:10:49Z</time></trkpt>
<trkpt lat="46.39603623" lon="6.12865959"><ele>763.904541</ele><time>2007-06-24T12:10:50Z</time></trkpt>
<trkpt lat="46.39587203" lon="6.12892027"><ele>762.943359</ele><time>2007-06-24T12:10:53Z</time></trkpt>
<trkpt lat="46.39578486" lon="6.12909562"><ele>761.501465</ele><time>2007-06-24T12:10:55Z</time></trkpt>
<trkpt lat="46.39572870" lon="6.12928748"><ele>759.578857</ele><time>2007-06-24T12:10:57Z</time></trkpt>
<trkpt lat="46.39568905" lon="6.12947658"><ele>759.098145</ele><time>2007-06-24T12:10:59Z</time></trkpt>
<trkpt lat="46.39559694" lon="6.12975787"><ele>755.25293</ele><time>2007-06-24T12:11:03Z</time></trkpt>
<trkpt lat="46.39552066" lon="6.12997119"><ele>751.888428</ele><time>2007-06-24T12:11:07Z</time></trkpt>
<trkpt lat="46.39549392" lon="6.12999592"><ele>750.927002</ele><time>2007-06-24T12:11:14Z</time></trkpt>
<trkpt lat="46.39549619" lon="6.13002827"><ele>751.407715</ele><time>2007-06-24T12:11:30Z</time></trkpt>
<trkpt lat="46.39537423" lon="6.13012467"><ele>749.485107</ele><time>2007-06-24T12:11:35Z</time></trkpt>
<trkpt lat="46.39533986" lon="6.13016632"><ele>749.004395</ele><time>2007-06-24T12:11:37Z</time></trkpt>
<trkpt lat="46.39529452" lon="6.13033488"><ele>747.081543</ele><time>2007-06-24T12:11:45Z</time></trkpt>
<trkpt lat="46.39519318" lon="6.13055876"><ele>743.717041</ele><time>2007-06-24T12:11:49Z</time></trkpt>
<trkpt lat="46.39504457" lon="6.13077183"><ele>737.949219</ele><time>2007-06-24T12:11:53Z</time></trkpt>
<trkpt lat="46.39494784" lon="6.13089228"><ele>736.026611</ele><time>2007-06-24T12:11:55Z</time></trkpt>
<trkpt lat="46.39477559" lon="6.13104047"><ele>732.181396</ele><time>2007-06-24T12:11:59Z</time></trkpt>
<trkpt lat="46.39470007" lon="6.13110468"><ele>730.258545</ele><time>2007-06-24T12:12:02Z</time></trkpt>
<trkpt lat="46.39466789" lon="6.13114466"><ele>727.374756</ele><time>2007-06-24T12:12:07Z</time></trkpt>
<trkpt lat="46.39456504" lon="6.13128514"><ele>723.048828</ele><time>2007-06-24T12:12:13Z</time></trkpt>
<trkpt lat="46.39450444" lon="6.13135479"><ele>719.684326</ele><time>2007-06-24T12:12:15Z</time></trkpt>
<trkpt lat="46.39435583" lon="6.13152076"><ele>716.800293</ele><time>2007-06-24T12:12:19Z</time></trkpt>
<trkpt lat="46.39424452" lon="6.13169904"><ele>713.916016</ele><time>2007-06-24T12:12:23Z</time></trkpt>
<trkpt lat="46.39420076" lon="6.13178495"><ele>712.954834</ele><time>2007-06-24T12:12:25Z</time></trkpt>
<trkpt lat="46.39417394" lon="6.13197975"><ele>709.109619</ele><time>2007-06-24T12:12:28Z</time></trkpt>
<trkpt lat="46.39409347" lon="6.13220614"><ele>704.303223</ele><time>2007-06-24T12:12:32Z</time></trkpt>
<trkpt lat="46.39400806" lon="6.13237512"><ele>700.458008</ele><time>2007-06-24T12:12:35Z</time></trkpt>
<trkpt lat="46.39389860" lon="6.13253497"><ele>697.57373</ele><time>2007-06-24T12:12:38Z</time></trkpt>
<trkpt lat="46.39374152" lon="6.13265474"><ele>693.247803</ele><time>2007-06-24T12:12:41Z</time></trkpt>
<trkpt lat="46.39362610" lon="6.13275239"><ele>689.883301</ele><time>2007-06-24T12:12:44Z</time></trkpt>
<trkpt lat="46.39356609" lon="6.13283177"><ele>686.999268</ele><time>2007-06-24T12:12:47Z</time></trkpt>
<trkpt lat="46.39349157" lon="6.13296814"><ele>683.153809</ele><time>2007-06-24T12:12:50Z</time></trkpt>
<trkpt lat="46.39340658" lon="6.13308482"><ele>680.27002</ele><time>2007-06-24T12:12:53Z</time></trkpt>
<trkpt lat="46.39333617" lon="6.13323804"><ele>676.905518</ele><time>2007-06-24T12:12:56Z</time></trkpt>
<trkpt lat="46.39331589" lon="6.13328649"><ele>675.463379</ele><time>2007-06-24T12:12:57Z</time></trkpt>
<trkpt lat="46.39324564" lon="6.13344289"><ele>672.57959</ele><time>2007-06-24T12:13:01Z</time></trkpt>
<trkpt lat="46.39328764" lon="6.13360064"><ele>671.618164</ele><time>2007-06-24T12:13:06Z</time></trkpt>
<trkpt lat="46.39334673" lon="6.13364733"><ele>671.137695</ele><time>2007-06-24T12:13:19Z</time></trkpt>
<trkpt lat="46.39332829" lon="6.13366258"><ele>671.137695</ele><time>2007-06-24T12:13:39Z</time></trkpt>
<trkpt lat="46.39327657" lon="6.13352839"><ele>671.618164</ele><time>2007-06-24T12:13:48Z</time></trkpt>
<trkpt lat="46.39326895" lon="6.13351439"><ele>672.098877</ele><time>2007-06-24T12:13:49Z</time></trkpt>
<trkpt lat="46.39317314" lon="6.13332622"><ele>672.57959</ele><time>2007-06-24T12:14:02Z</time></trkpt>
<trkpt lat="46.39308069" lon="6.13313804"><ele>674.021484</ele><time>2007-06-24T12:14:12Z</time></trkpt>
<trkpt lat="46.39308698" lon="6.13314508"><ele>674.021484</ele><time>2007-06-24T12:14:15Z</time></trkpt>
<trkpt lat="46.39316174" lon="6.13326469"><ele>672.57959</ele><time>2007-06-24T12:14:20Z</time></trkpt>
<trkpt lat="46.39320030" lon="6.13338523"><ele>673.060303</ele><time>2007-06-24T12:14:24Z</time></trkpt>
<trkpt lat="46.39317834" lon="6.13331247"><ele>672.098877</ele><time>2007-06-24T12:14:43Z</time></trkpt>
<trkpt lat="46.39315638" lon="6.13324047"><ele>672.098877</ele><time>2007-06-24T12:15:12Z</time></trkpt>
<trkpt lat="46.39312427" lon="6.13317065"><ele>672.098877</ele><time>2007-06-24T12:15:38Z</time></trkpt>
<trkpt lat="46.39313559" lon="6.13318909"><ele>672.57959</ele><time>2007-06-24T12:15:50Z</time></trkpt>
<trkpt lat="46.39340272" lon="6.13363526"><ele>668.734375</ele><time>2007-06-24T12:16:01Z</time></trkpt>
<trkpt lat="46.39344455" lon="6.13365646"><ele>668.734375</ele><time>2007-06-24T12:16:02Z</time></trkpt>
<trkpt lat="46.39373272" lon="6.13369703"><ele>665.850342</ele><time>2007-06-24T12:16:08Z</time></trkpt>
<trkpt lat="46.39391192" lon="6.13377566"><ele>662.005127</ele><time>2007-06-24T12:16:13Z</time></trkpt>
<trkpt lat="46.39392366" lon="6.13379644"><ele>662.005127</ele><time>2007-06-24T12:16:14Z</time></trkpt>
<trkpt lat="46.39393858" lon="6.13384799"><ele>661.524414</ele><time>2007-06-24T12:16:17Z</time></trkpt>
<trkpt lat="46.39386079" lon="6.13393147"><ele>659.601807</ele><time>2007-06-24T12:16:20Z</time></trkpt>
<trkpt lat="46.39375174" lon="6.13404337"><ele>657.198486</ele><time>2007-06-24T12:16:22Z</time></trkpt>
<trkpt lat="46.39364789" lon="6.13416709"><ele>656.237061</ele><time>2007-06-24T12:16:24Z</time></trkpt>
<trkpt lat="46.39358696" lon="6.13422643"><ele>654.795166</ele><time>2007-06-24T12:16:25Z</time></trkpt>
<trkpt lat="46.39343893" lon="6.13435996"><ele>652.872559</ele><time>2007-06-24T12:16:30Z</time></trkpt>
<trkpt lat="46.39333567" lon="6.13451527"><ele>650.949707</ele><time>2007-06-24T12:16:34Z</time></trkpt>
<trkpt lat="46.39315034" lon="6.13475106"><ele>647.585205</ele><time>2007-06-24T12:16:38Z</time></trkpt>
<trkpt lat="46.39305294" lon="6.13483815"><ele>646.143311</ele><time>2007-06-24T12:16:40Z</time></trkpt>
<trkpt lat="46.39296737" lon="6.13497527"><ele>641.33667</ele><time>2007-06-24T12:16:44Z</time></trkpt>
<trkpt lat="46.39297374" lon="6.13497988"><ele>641.33667</ele><time>2007-06-24T12:16:45Z</time></trkpt>
<trkpt lat="46.39294515" lon="6.13504317"><ele>639.414063</ele><time>2007-06-24T12:16:55Z</time></trkpt>
<trkpt lat="46.39291364" lon="6.13506974"><ele>638.933594</ele><time>2007-06-24T12:16:58Z</time></trkpt>
<trkpt lat="46.39287533" lon="6.13514509"><ele>637.972168</ele><time>2007-06-24T12:17:00Z</time></trkpt>
<trkpt lat="46.39279545" lon="6.13546880"><ele>634.607422</ele><time>2007-06-24T12:17:05Z</time></trkpt>
<trkpt lat="46.39271566" lon="6.13566686"><ele>630.762207</ele><time>2007-06-24T12:17:08Z</time></trkpt>
<trkpt lat="46.39264399" lon="6.13576225"><ele>629.800781</ele><time>2007-06-24T12:17:10Z</time></trkpt>
<trkpt lat="46.39246412" lon="6.13622937"><ele>628.358887</ele><time>2007-06-24T12:17:20Z</time></trkpt>
<trkpt lat="46.39246956" lon="6.13634915"><ele>627.878174</ele><time>2007-06-24T12:17:22Z</time></trkpt>
<trkpt lat="46.39231090" lon="6.13693396"><ele>624.994385</ele><time>2007-06-24T12:17:34Z</time></trkpt>
<trkpt lat="46.39216865" lon="6.13712523"><ele>621.629639</ele><time>2007-06-24T12:17:38Z</time></trkpt>
<trkpt lat="46.39209037" lon="6.13720905"><ele>620.668457</ele><time>2007-06-24T12:17:40Z</time></trkpt>
<trkpt lat="46.39183690" lon="6.13737233"><ele>619.226318</ele><time>2007-06-24T12:17:45Z</time></trkpt>
<trkpt lat="46.39165116" lon="6.13744123"><ele>615.861816</ele><time>2007-06-24T12:17:49Z</time></trkpt>
<trkpt lat="46.39136609" lon="6.13746545"><ele>612.977783</ele><time>2007-06-24T12:17:56Z</time></trkpt>
<trkpt lat="46.39125880" lon="6.13744475"><ele>611.535889</ele><time>2007-06-24T12:17:59Z</time></trkpt>
<trkpt lat="46.39115947" lon="6.13746537"><ele>609.132568</ele><time>2007-06-24T12:18:07Z</time></trkpt>
<trkpt lat="46.39114765" lon="6.13736512"><ele>610.09375</ele><time>2007-06-24T12:18:30Z</time></trkpt>
<trkpt lat="46.39099234" lon="6.13749714"><ele>610.574463</ele><time>2007-06-24T12:18:37Z</time></trkpt>
<trkpt lat="46.39073309" lon="6.13780442"><ele>607.209961</ele><time>2007-06-24T12:18:42Z</time></trkpt>
<trkpt lat="46.39056520" lon="6.13794129"><ele>605.287354</ele><time>2007-06-24T12:18:44Z</time></trkpt>
<trkpt lat="46.39023143" lon="6.13825553"><ele>601.922607</ele><time>2007-06-24T12:18:48Z</time></trkpt>
<trkpt lat="46.39014593" lon="6.13833088"><ele>601.441895</ele><time>2007-06-24T12:18:49Z</time></trkpt>
<trkpt lat="46.38935242" lon="6.13866876"><ele>598.557861</ele><time>2007-06-24T12:18:57Z</time></trkpt>
<trkpt lat="46.38916609" lon="6.13873699"><ele>597.59668</ele><time>2007-06-24T12:18:59Z</time></trkpt>
<trkpt lat="46.38854248" lon="6.13892868"><ele>595.674072</ele><time>2007-06-24T12:19:07Z</time></trkpt>
<trkpt lat="46.38825229" lon="6.13921928"><ele>594.712646</ele><time>2007-06-24T12:19:12Z</time></trkpt>
<trkpt lat="46.38820837" lon="6.13936756"><ele>591.828857</ele><time>2007-06-24T12:19:16Z</time></trkpt>
<trkpt lat="46.38821432" lon="6.13936320"><ele>592.30957</ele><time>2007-06-24T12:19:19Z</time></trkpt>
<trkpt lat="46.38823662" lon="6.13933420"><ele>592.790283</ele><time>2007-06-24T12:19:23Z</time></trkpt>
<trkpt lat="46.38824995" lon="6.13922725"><ele>591.828857</ele><time>2007-06-24T12:19:36Z</time></trkpt>
<trkpt lat="46.38822698" lon="6.13921040"><ele>591.828857</ele><time>2007-06-24T12:20:15Z</time></trkpt>
<trkpt lat="46.38828775" lon="6.13916044"><ele>591.348145</ele><time>2007-06-24T12:20:52Z</time></trkpt>
<trkpt lat="46.38824173" lon="6.13921308"><ele>590.386963</ele><time>2007-06-24T12:21:21Z</time></trkpt>
<trkpt lat="46.38822514" lon="6.13923345"><ele>590.867432</ele><time>2007-06-24T12:21:42Z</time></trkpt>
<trkpt lat="46.38809815" lon="6.13968984"><ele>589.425537</ele><time>2007-06-24T12:21:52Z</time></trkpt>
<trkpt lat="46.38795189" lon="6.13996636"><ele>587.983398</ele><time>2007-06-24T12:21:56Z</time></trkpt>
<trkpt lat="46.38742793" lon="6.14107168"><ele>585.099609</ele><time>2007-06-24T12:22:09Z</time></trkpt>
<trkpt lat="46.38692737" lon="6.14187878"><ele>580.773682</ele><time>2007-06-24T12:22:18Z</time></trkpt>
<trkpt lat="46.38687783" lon="6.14197223"><ele>580.292969</ele><time>2007-06-24T12:22:19Z</time></trkpt>
<trkpt lat="46.38628162" lon="6.14289542"><ele>576.928467</ele><time>2007-06-24T12:22:30Z</time></trkpt>
<trkpt lat="46.38527320" lon="6.14396696"><ele>574.525146</ele><time>2007-06-24T12:22:46Z</time></trkpt>
<trkpt lat="46.38468202" lon="6.14515476"><ele>574.044434</ele><time>2007-06-24T12:22:59Z</time></trkpt>
<trkpt lat="46.38398616" lon="6.14619437"><ele>575.005859</ele><time>2007-06-24T12:23:14Z</time></trkpt>
<trkpt lat="46.38357108" lon="6.14673114"><ele>574.044434</ele><time>2007-06-24T12:23:24Z</time></trkpt>
<trkpt lat="46.38318795" lon="6.14734864"><ele>571.1604</ele><time>2007-06-24T12:23:32Z</time></trkpt>
<trkpt lat="46.38284395" lon="6.14795364"><ele>567.315186</ele><time>2007-06-24T12:23:38Z</time></trkpt>
<trkpt lat="46.38225647" lon="6.14893399"><ele>563.469971</ele><time>2007-06-24T12:23:47Z</time></trkpt>
<trkpt lat="46.38181885" lon="6.15003177"><ele>560.585938</ele><time>2007-06-24T12:23:56Z</time></trkpt>
<trkpt lat="46.38158667" lon="6.15064968"><ele>560.105225</ele><time>2007-06-24T12:24:01Z</time></trkpt>
<trkpt lat="46.38122859" lon="6.15109175"><ele>558.66333</ele><time>2007-06-24T12:24:06Z</time></trkpt>
<trkpt lat="46.38107822" lon="6.15122066"><ele>556.740723</ele><time>2007-06-24T12:24:08Z</time></trkpt>
<trkpt lat="46.38109415" lon="6.15172626"><ele>558.66333</ele><time>2007-06-24T12:24:13Z</time></trkpt>
<trkpt lat="46.38134644" lon="6.15227845"><ele>556.26001</ele><time>2007-06-24T12:24:19Z</time></trkpt>
<trkpt lat="46.38154208" lon="6.15275480"><ele>552.895264</ele><time>2007-06-24T12:24:24Z</time></trkpt>
<trkpt lat="46.38169907" lon="6.15322888"><ele>550.972656</ele><time>2007-06-24T12:24:28Z</time></trkpt>
<trkpt lat="46.38161995" lon="6.15393304"><ele>547.608154</ele><time>2007-06-24T12:24:33Z</time></trkpt>
<trkpt lat="46.38137528" lon="6.15448499"><ele>543.762817</ele><time>2007-06-24T12:24:37Z</time></trkpt>
<trkpt lat="46.38110010" lon="6.15507374"><ele>539.917603</ele><time>2007-06-24T12:24:41Z</time></trkpt>
<trkpt lat="46.38089407" lon="6.15554974"><ele>536.553101</ele><time>2007-06-24T12:24:44Z</time></trkpt>
<trkpt lat="46.38068159" lon="6.15626782"><ele>532.707764</ele><time>2007-06-24T12:24:48Z</time></trkpt>
<trkpt lat="46.38048369" lon="6.15703066"><ele>529.34314</ele><time>2007-06-24T12:24:52Z</time></trkpt>
<trkpt lat="46.38032469" lon="6.15761479"><ele>525.978394</ele><time>2007-06-24T12:24:55Z</time></trkpt>
<trkpt lat="46.38022578" lon="6.15800975"><ele>524.536499</ele><time>2007-06-24T12:24:57Z</time></trkpt>
<trkpt lat="46.38002202" lon="6.15877946"><ele>521.652588</ele><time>2007-06-24T12:25:01Z</time></trkpt>
<trkpt lat="46.37963092" lon="6.16016507"><ele>518.768555</ele><time>2007-06-24T12:25:09Z</time></trkpt>
<trkpt lat="46.37897948" lon="6.16074963"><ele>520.210571</ele><time>2007-06-24T12:25:16Z</time></trkpt>
<trkpt lat="46.37887822" lon="6.16077217"><ele>519.729858</ele><time>2007-06-24T12:25:17Z</time></trkpt>
<trkpt lat="46.37868469" lon="6.16081215"><ele>518.768555</ele><time>2007-06-24T12:25:19Z</time></trkpt>
<trkpt lat="46.37759035" lon="6.16107048"><ele>515.404053</ele><time>2007-06-24T12:25:31Z</time></trkpt>
<trkpt lat="46.37750502" lon="6.16109203"><ele>515.404053</ele><time>2007-06-24T12:25:32Z</time></trkpt>
<trkpt lat="46.37651905" lon="6.16136905"><ele>512.039429</ele><time>2007-06-24T12:25:43Z</time></trkpt>
<trkpt lat="46.37633298" lon="6.16141146"><ele>510.59729</ele><time>2007-06-24T12:25:45Z</time></trkpt>
<trkpt lat="46.37536696" lon="6.16170793"><ele>507.713501</ele><time>2007-06-24T12:25:55Z</time></trkpt>
<trkpt lat="46.37470454" lon="6.16248284"><ele>505.790894</ele><time>2007-06-24T12:26:04Z</time></trkpt>
<trkpt lat="46.37438318" lon="6.16316428"><ele>503.868164</ele><time>2007-06-24T12:26:11Z</time></trkpt>
<trkpt lat="46.37374959" lon="6.16366192"><ele>503.387451</ele><time>2007-06-24T12:26:21Z</time></trkpt>
<trkpt lat="46.37319538" lon="6.16407892"><ele>503.387451</ele><time>2007-06-24T12:26:29Z</time></trkpt>
<trkpt lat="46.37245878" lon="6.16536772"><ele>501.464844</ele><time>2007-06-24T12:26:42Z</time></trkpt>
<trkpt lat="46.37148916" lon="6.16643013"><ele>500.984131</ele><time>2007-06-24T12:26:56Z</time></trkpt>
<trkpt lat="46.37014772" lon="6.16770359"><ele>498.580933</ele><time>2007-06-24T12:27:15Z</time></trkpt>
<trkpt lat="46.36846254" lon="6.16930042"><ele>497.138916</ele><time>2007-06-24T12:27:40Z</time></trkpt>
<trkpt lat="46.36776173" lon="6.16988540"><ele>498.580933</ele><time>2007-06-24T12:27:52Z</time></trkpt>
<trkpt lat="46.36761429" lon="6.17025487"><ele>497.619629</ele><time>2007-06-24T12:27:58Z</time></trkpt>
<trkpt lat="46.36762996" lon="6.17039803"><ele>497.619629</ele><time>2007-06-24T12:28:00Z</time></trkpt>
<trkpt lat="46.36758344" lon="6.17160327"><ele>498.100342</ele><time>2007-06-24T12:28:14Z</time></trkpt>
<trkpt lat="46.36745922" lon="6.17300036"><ele>498.100342</ele><time>2007-06-24T12:28:29Z</time></trkpt>
<trkpt lat="46.36710609" lon="6.17409169"><ele>497.138916</ele><time>2007-06-24T12:28:42Z</time></trkpt>
<trkpt lat="46.36643655" lon="6.17542684"><ele>498.580933</ele><time>2007-06-24T12:28:59Z</time></trkpt>
<trkpt lat="46.36625374" lon="6.17655354"><ele>498.580933</ele><time>2007-06-24T12:29:10Z</time></trkpt>
<trkpt lat="46.36616506" lon="6.17717564"><ele>498.580933</ele><time>2007-06-24T12:29:16Z</time></trkpt>
<trkpt lat="46.36556885" lon="6.17815909"><ele>500.984131</ele><time>2007-06-24T12:29:29Z</time></trkpt>
<trkpt lat="46.36509217" lon="6.17896887"><ele>500.022949</ele><time>2007-06-24T12:29:40Z</time></trkpt>
<trkpt lat="46.36499846" lon="6.17914095"><ele>500.50354</ele><time>2007-06-24T12:29:42Z</time></trkpt>
<trkpt lat="46.36487718" lon="6.17943783"><ele>500.50354</ele><time>2007-06-24T12:29:45Z</time></trkpt>
<trkpt lat="46.36467953" lon="6.18031408"><ele>499.061523</ele><time>2007-06-24T12:29:52Z</time></trkpt>
<trkpt lat="46.36454634" lon="6.18056109"><ele>497.619629</ele><time>2007-06-24T12:29:54Z</time></trkpt>
<trkpt lat="46.36395684" lon="6.18150607"><ele>494.735596</ele><time>2007-06-24T12:30:02Z</time></trkpt>
<trkpt lat="46.36351638" lon="6.18247418"><ele>491.370972</ele><time>2007-06-24T12:30:09Z</time></trkpt>
<trkpt lat="46.36345309" lon="6.18261835"><ele>490.890381</ele><time>2007-06-24T12:30:10Z</time></trkpt>
<trkpt lat="46.36296635" lon="6.18352502"><ele>487.525635</ele><time>2007-06-24T12:30:17Z</time></trkpt>
<trkpt lat="46.36199523" lon="6.18491977"><ele>487.045044</ele><time>2007-06-24T12:30:31Z</time></trkpt>
<trkpt lat="46.36099409" lon="6.18629423"><ele>486.08374</ele><time>2007-06-24T12:30:46Z</time></trkpt>
<trkpt lat="46.36035833" lon="6.18651417"><ele>484.641846</ele><time>2007-06-24T12:30:53Z</time></trkpt>
<trkpt lat="46.35857784" lon="6.18603674"><ele>482.719238</ele><time>2007-06-24T12:31:13Z</time></trkpt>
<trkpt lat="46.35740295" lon="6.18629239"><ele>481.757813</ele><time>2007-06-24T12:31:27Z</time></trkpt>
<trkpt lat="46.35660944" lon="6.18714273"><ele>479.354492</ele><time>2007-06-24T12:31:38Z</time></trkpt>
<trkpt lat="46.35609386" lon="6.18804948"><ele>477.912476</ele><time>2007-06-24T12:31:47Z</time></trkpt>
<trkpt lat="46.35571467" lon="6.18806692"><ele>475.028687</ele><time>2007-06-24T12:31:52Z</time></trkpt>
<trkpt lat="46.35463382" lon="6.18703385"><ele>473.58667</ele><time>2007-06-24T12:32:07Z</time></trkpt>
<trkpt lat="46.35412118" lon="6.18662146"><ele>475.028687</ele><time>2007-06-24T12:32:14Z</time></trkpt>
<trkpt lat="46.35392413" lon="6.18658324"><ele>473.106079</ele><time>2007-06-24T12:32:17Z</time></trkpt>
<trkpt lat="46.35381407" lon="6.18688188"><ele>471.18335</ele><time>2007-06-24T12:32:21Z</time></trkpt>
<trkpt lat="46.35358164" lon="6.18687250"><ele>471.18335</ele><time>2007-06-24T12:32:26Z</time></trkpt>
<trkpt lat="46.35324955" lon="6.18640445"><ele>472.144653</ele><time>2007-06-24T12:32:32Z</time></trkpt>
<trkpt lat="46.35281386" lon="6.18492379"><ele>469.741333</ele><time>2007-06-24T12:32:45Z</time></trkpt>
<trkpt lat="46.35236987" lon="6.18447569"><ele>469.741333</ele><time>2007-06-24T12:32:51Z</time></trkpt>
<trkpt lat="46.35221623" lon="6.18437025"><ele>469.741333</ele><time>2007-06-24T12:32:53Z</time></trkpt>
<trkpt lat="46.35203627" lon="6.18419087"><ele>471.18335</ele><time>2007-06-24T12:32:56Z</time></trkpt>
<trkpt lat="46.35125147" lon="6.18342963"><ele>474.547974</ele><time>2007-06-24T12:33:10Z</time></trkpt>
<trkpt lat="46.35036098" lon="6.18273519"><ele>475.028687</ele><time>2007-06-24T12:33:25Z</time></trkpt>
<trkpt lat="46.34965254" lon="6.18207210"><ele>474.547974</ele><time>2007-06-24T12:33:37Z</time></trkpt>
<trkpt lat="46.34935783" lon="6.18188979"><ele>474.547974</ele><time>2007-06-24T12:33:41Z</time></trkpt>
<trkpt lat="46.34852350" lon="6.18128923"><ele>474.547974</ele><time>2007-06-24T12:33:53Z</time></trkpt>
<trkpt lat="46.34801312" lon="6.18094699"><ele>473.58667</ele><time>2007-06-24T12:34:00Z</time></trkpt>
<trkpt lat="46.34742823" lon="6.18010554"><ele>473.58667</ele><time>2007-06-24T12:34:09Z</time></trkpt>
<trkpt lat="46.34691996" lon="6.17861808"><ele>474.067261</ele><time>2007-06-24T12:34:23Z</time></trkpt>
<trkpt lat="46.34674729" lon="6.17803663"><ele>474.547974</ele><time>2007-06-24T12:34:29Z</time></trkpt>
<trkpt lat="46.34610674" lon="6.17693433"><ele>477.431885</ele><time>2007-06-24T12:34:43Z</time></trkpt>
<trkpt lat="46.34586384" lon="6.17663794"><ele>477.431885</ele><time>2007-06-24T12:34:48Z</time></trkpt>
<trkpt lat="46.34566795" lon="6.17655546"><ele>475.989868</ele><time>2007-06-24T12:34:51Z</time></trkpt>
<trkpt lat="46.34533293" lon="6.17691957"><ele>474.547974</ele><time>2007-06-24T12:34:56Z</time></trkpt>
<trkpt lat="46.34508767" lon="6.17743783"><ele>474.067261</ele><time>2007-06-24T12:35:01Z</time></trkpt>
<trkpt lat="46.34482750" lon="6.17759172"><ele>473.58667</ele><time>2007-06-24T12:35:05Z</time></trkpt>
<trkpt lat="46.34357985" lon="6.17768836"><ele>473.58667</ele><time>2007-06-24T12:35:21Z</time></trkpt>
<trkpt lat="46.34343577" lon="6.17770270"><ele>473.58667</ele><time>2007-06-24T12:35:23Z</time></trkpt>
<trkpt lat="46.34263932" lon="6.17726642"><ele>474.067261</ele><time>2007-06-24T12:35:35Z</time></trkpt>
<trkpt lat="46.34206943" lon="6.17668773"><ele>473.106079</ele><time>2007-06-24T12:35:44Z</time></trkpt>
<trkpt lat="46.34098129" lon="6.17587745"><ele>471.66394</ele><time>2007-06-24T12:35:59Z</time></trkpt>
<trkpt lat="46.34034444" lon="6.17542642"><ele>468.299316</ele><time>2007-06-24T12:36:07Z</time></trkpt>
<trkpt lat="46.34021234" lon="6.17538803"><ele>467.338135</ele><time>2007-06-24T12:36:09Z</time></trkpt>
<trkpt lat="46.34005593" lon="6.17550714"><ele>465.896118</ele><time>2007-06-24T12:36:12Z</time></trkpt>
<trkpt lat="46.33991939" lon="6.17572239"><ele>465.415527</ele><time>2007-06-24T12:36:15Z</time></trkpt>
<trkpt lat="46.33945445" lon="6.17581484"><ele>463.973389</ele><time>2007-06-24T12:36:22Z</time></trkpt>
<trkpt lat="46.33906913" lon="6.17560169"><ele>468.299316</ele><time>2007-06-24T12:36:28Z</time></trkpt>
<trkpt lat="46.33894357" lon="6.17555710"><ele>468.780029</ele><time>2007-06-24T12:36:30Z</time></trkpt>
<trkpt lat="46.33863864" lon="6.17541226"><ele>470.221924</ele><time>2007-06-24T12:36:35Z</time></trkpt>
<trkpt lat="46.33782987" lon="6.17448907"><ele>469.741333</ele><time>2007-06-24T12:36:50Z</time></trkpt>
<trkpt lat="46.33699042" lon="6.17354494"><ele>467.818726</ele><time>2007-06-24T12:37:03Z</time></trkpt>
<trkpt lat="46.33653293" lon="6.17296809"><ele>464.934814</ele><time>2007-06-24T12:37:09Z</time></trkpt>
<trkpt lat="46.33602432" lon="6.17251572"><ele>462.050781</ele><time>2007-06-24T12:37:15Z</time></trkpt>
<trkpt lat="46.33487969" lon="6.17187182"><ele>462.050781</ele><time>2007-06-24T12:37:29Z</time></trkpt>
<trkpt lat="46.33474315" lon="6.17176839"><ele>462.050781</ele><time>2007-06-24T12:37:31Z</time></trkpt>
<trkpt lat="46.33451692" lon="6.17191575"><ele>462.531372</ele><time>2007-06-24T12:37:37Z</time></trkpt>
<trkpt lat="46.33444014" lon="6.17207215"><ele>462.050781</ele><time>2007-06-24T12:37:39Z</time></trkpt>
<trkpt lat="46.33415055" lon="6.17245629"><ele>460.608765</ele><time>2007-06-24T12:37:44Z</time></trkpt>
<trkpt lat="46.33308948" lon="6.17303096"><ele>458.686157</ele><time>2007-06-24T12:37:57Z</time></trkpt>
<trkpt lat="46.33283677" lon="6.17313372"><ele>458.686157</ele><time>2007-06-24T12:38:00Z</time></trkpt>
<trkpt lat="46.33249076" lon="6.17348325"><ele>458.205566</ele><time>2007-06-24T12:38:05Z</time></trkpt>
<trkpt lat="46.33162374" lon="6.17490465"><ele>456.282959</ele><time>2007-06-24T12:38:21Z</time></trkpt>
<trkpt lat="46.33131562" lon="6.17510523"><ele>454.84082</ele><time>2007-06-24T12:38:25Z</time></trkpt>
<trkpt lat="46.32983806" lon="6.17514647"><ele>454.84082</ele><time>2007-06-24T12:38:42Z</time></trkpt>
<trkpt lat="46.32893616" lon="6.17482309"><ele>455.321533</ele><time>2007-06-24T12:38:54Z</time></trkpt>
<trkpt lat="46.32829009" lon="6.17456434"><ele>454.360229</ele><time>2007-06-24T12:39:02Z</time></trkpt>
<trkpt lat="46.32776613" lon="6.17474405"><ele>452.918213</ele><time>2007-06-24T12:39:08Z</time></trkpt>
<trkpt lat="46.32744653" lon="6.17504253"><ele>451.957031</ele><time>2007-06-24T12:39:12Z</time></trkpt>
<trkpt lat="46.32641162" lon="6.17551016"><ele>449.072998</ele><time>2007-06-24T12:39:23Z</time></trkpt>
<trkpt lat="46.32622076" lon="6.17561569"><ele>448.592407</ele><time>2007-06-24T12:39:25Z</time></trkpt>
<trkpt lat="46.32529758" lon="6.17659234"><ele>447.150269</ele><time>2007-06-24T12:39:37Z</time></trkpt>
<trkpt lat="46.32453156" lon="6.17741738"><ele>446.669678</ele><time>2007-06-24T12:39:49Z</time></trkpt>
<trkpt lat="46.32415353" lon="6.17764587"><ele>445.708374</ele><time>2007-06-24T12:39:54Z</time></trkpt>
<trkpt lat="46.32397349" lon="6.17766833"><ele>443.785767</ele><time>2007-06-24T12:39:56Z</time></trkpt>
<trkpt lat="46.32367124" lon="6.17805297"><ele>443.785767</ele><time>2007-06-24T12:40:01Z</time></trkpt>
<trkpt lat="46.32325030" lon="6.17939165"><ele>442.343872</ele><time>2007-06-24T12:40:13Z</time></trkpt>
<trkpt lat="46.32310655" lon="6.18022389"><ele>441.382446</ele><time>2007-06-24T12:40:20Z</time></trkpt>
<trkpt lat="46.32280036" lon="6.18133583"><ele>439.459717</ele><time>2007-06-24T12:40:30Z</time></trkpt>
<trkpt lat="46.32248704" lon="6.18138663"><ele>438.498535</ele><time>2007-06-24T12:40:35Z</time></trkpt>
<trkpt lat="46.32236383" lon="6.18130163"><ele>438.979126</ele><time>2007-06-24T12:40:37Z</time></trkpt>
<trkpt lat="46.32130478" lon="6.18074172"><ele>440.421265</ele><time>2007-06-24T12:40:52Z</time></trkpt>
<trkpt lat="46.32103563" lon="6.18053578"><ele>439.94043</ele><time>2007-06-24T12:40:56Z</time></trkpt>
<trkpt lat="46.32054454" lon="6.17977839"><ele>440.901855</ele><time>2007-06-24T12:41:06Z</time></trkpt>
<trkpt lat="46.32048318" lon="6.17939559"><ele>440.421265</ele><time>2007-06-24T12:41:10Z</time></trkpt>
<trkpt lat="46.32048385" lon="6.17908655"><ele>441.382446</ele><time>2007-06-24T12:41:13Z</time></trkpt>
<trkpt lat="46.32021882" lon="6.17861909"><ele>440.901855</ele><time>2007-06-24T12:41:19Z</time></trkpt>
<trkpt lat="46.31966880" lon="6.17815892"><ele>437.537109</ele><time>2007-06-24T12:41:26Z</time></trkpt>
<trkpt lat="46.31957802" lon="6.17806530"><ele>437.537109</ele><time>2007-06-24T12:41:27Z</time></trkpt>
<trkpt lat="46.31914786" lon="6.17784980"><ele>434.65332</ele><time>2007-06-24T12:41:31Z</time></trkpt>
<trkpt lat="46.31866607" lon="6.17760706"><ele>432.25</ele><time>2007-06-24T12:41:36Z</time></trkpt>
<trkpt lat="46.31849675" lon="6.17738787"><ele>433.211304</ele><time>2007-06-24T12:41:42Z</time></trkpt>
<trkpt lat="46.31790575" lon="6.17677038"><ele>436.575928</ele><time>2007-06-24T12:41:56Z</time></trkpt>
<trkpt lat="46.31699338" lon="6.17594409"><ele>438.017822</ele><time>2007-06-24T12:42:15Z</time></trkpt>
<trkpt lat="46.31604354" lon="6.17516994"><ele>438.979126</ele><time>2007-06-24T12:42:33Z</time></trkpt>
<trkpt lat="46.31566719" lon="6.17484866"><ele>438.979126</ele><time>2007-06-24T12:42:40Z</time></trkpt>
<trkpt lat="46.31542906" lon="6.17460944"><ele>438.979126</ele><time>2007-06-24T12:42:45Z</time></trkpt>
<trkpt lat="46.31529562" lon="6.17458354"><ele>439.459717</ele><time>2007-06-24T12:42:47Z</time></trkpt>
<trkpt lat="46.31379719" lon="6.17426779"><ele>437.537109</ele><time>2007-06-24T12:43:07Z</time></trkpt>
<trkpt lat="46.31234779" lon="6.17397442"><ele>437.537109</ele><time>2007-06-24T12:43:25Z</time></trkpt>
<trkpt lat="46.31079848" lon="6.17365197"><ele>435.614502</ele><time>2007-06-24T12:43:44Z</time></trkpt>
<trkpt lat="46.30993112" lon="6.17346757"><ele>434.65332</ele><time>2007-06-24T12:43:55Z</time></trkpt>
<trkpt lat="46.30927063" lon="6.17335282"><ele>433.211304</ele><time>2007-06-24T12:44:03Z</time></trkpt>
<trkpt lat="46.30899536" lon="6.17324696"><ele>432.25</ele><time>2007-06-24T12:44:06Z</time></trkpt>
<trkpt lat="46.30790144" lon="6.17242780"><ele>428.404663</ele><time>2007-06-24T12:44:18Z</time></trkpt>
<trkpt lat="46.30674818" lon="6.17239745"><ele>427.92395</ele><time>2007-06-24T12:44:31Z</time></trkpt>
<trkpt lat="46.30618759" lon="6.17245495"><ele>429.846558</ele><time>2007-06-24T12:44:39Z</time></trkpt>
<trkpt lat="46.30578065" lon="6.17212387"><ele>430.807983</ele><time>2007-06-24T12:44:47Z</time></trkpt>
<trkpt lat="46.30566414" lon="6.17185925"><ele>430.327271</ele><time>2007-06-24T12:44:50Z</time></trkpt>
<trkpt lat="46.30482118" lon="6.17062510"><ele>429.846558</ele><time>2007-06-24T12:45:06Z</time></trkpt>
<trkpt lat="46.30443226" lon="6.17019737"><ele>430.327271</ele><time>2007-06-24T12:45:13Z</time></trkpt>
<trkpt lat="46.30348502" lon="6.16962187"><ele>429.365967</ele><time>2007-06-24T12:45:27Z</time></trkpt>
<trkpt lat="46.30318687" lon="6.16888653"><ele>430.807983</ele><time>2007-06-24T12:45:35Z</time></trkpt>
<trkpt lat="46.30252713" lon="6.16793199"><ele>430.327271</ele><time>2007-06-24T12:45:48Z</time></trkpt>
<trkpt lat="46.30169129" lon="6.16670480"><ele>430.327271</ele><time>2007-06-24T12:46:04Z</time></trkpt>
<trkpt lat="46.30082024" lon="6.16556989"><ele>431.288574</ele><time>2007-06-24T12:46:20Z</time></trkpt>
<trkpt lat="46.29968525" lon="6.16461502"><ele>429.846558</ele><time>2007-06-24T12:46:37Z</time></trkpt>
<trkpt lat="46.29918493" lon="6.16400172"><ele>429.365967</ele><time>2007-06-24T12:46:45Z</time></trkpt>
<trkpt lat="46.29845303" lon="6.16298449"><ele>430.807983</ele><time>2007-06-24T12:46:59Z</time></trkpt>
<trkpt lat="46.29801666" lon="6.16233506"><ele>430.327271</ele><time>2007-06-24T12:47:08Z</time></trkpt>
<trkpt lat="46.29755792" lon="6.16100393"><ele>433.691895</ele><time>2007-06-24T12:47:22Z</time></trkpt>
<trkpt lat="46.29718820" lon="6.15992719"><ele>437.537109</ele><time>2007-06-24T12:47:34Z</time></trkpt>
<trkpt lat="46.29681319" lon="6.15872883"><ele>438.979126</ele><time>2007-06-24T12:47:48Z</time></trkpt>
<trkpt lat="46.29607952" lon="6.15730215"><ele>438.498535</ele><time>2007-06-24T12:48:06Z</time></trkpt>
<trkpt lat="46.29517847" lon="6.15630965"><ele>440.421265</ele><time>2007-06-24T12:48:22Z</time></trkpt>
<trkpt lat="46.29411506" lon="6.15532452"><ele>439.94043</ele><time>2007-06-24T12:48:39Z</time></trkpt>
<trkpt lat="46.29383544" lon="6.15497374"><ele>441.382446</ele><time>2007-06-24T12:48:44Z</time></trkpt>
<trkpt lat="46.29309456" lon="6.15431174"><ele>441.382446</ele><time>2007-06-24T12:48:56Z</time></trkpt>
<trkpt lat="46.29241822" lon="6.15367530"><ele>439.94043</ele><time>2007-06-24T12:49:07Z</time></trkpt>
<trkpt lat="46.29206216" lon="6.15352543"><ele>439.94043</ele><time>2007-06-24T12:49:14Z</time></trkpt>
<trkpt lat="46.29198815" lon="6.15366692"><ele>439.459717</ele><time>2007-06-24T12:49:16Z</time></trkpt>
<trkpt lat="46.29109455" lon="6.15547045"><ele>439.459717</ele><time>2007-06-24T12:49:37Z</time></trkpt>
<trkpt lat="46.29045384" lon="6.15666940"><ele>440.901855</ele><time>2007-06-24T12:49:53Z</time></trkpt>
<trkpt lat="46.29019987" lon="6.15716862"><ele>438.017822</ele><time>2007-06-24T12:49:59Z</time></trkpt>
<trkpt lat="46.28991807" lon="6.15737373"><ele>437.537109</ele><time>2007-06-24T12:50:03Z</time></trkpt>
<trkpt lat="46.28897561" lon="6.15746249"><ele>435.614502</ele><time>2007-06-24T12:50:15Z</time></trkpt>
<trkpt lat="46.28803859" lon="6.15759837"><ele>432.25</ele><time>2007-06-24T12:50:28Z</time></trkpt>
<trkpt lat="46.28740299" lon="6.15768730"><ele>430.327271</ele><time>2007-06-24T12:50:37Z</time></trkpt>
<trkpt lat="46.28718574" lon="6.15774798"><ele>430.327271</ele><time>2007-06-24T12:50:40Z</time></trkpt>
<trkpt lat="46.28705506" lon="6.15776894"><ele>426.001343</ele><time>2007-06-24T12:50:42Z</time></trkpt>
<trkpt lat="46.28698298" lon="6.15779023"><ele>426.001343</ele><time>2007-06-24T12:50:43Z</time></trkpt>
<trkpt lat="46.28690653" lon="6.15780163"><ele>426.482056</ele><time>2007-06-24T12:50:44Z</time></trkpt>
<trkpt lat="46.28668685" lon="6.15783046"><ele>425.040161</ele><time>2007-06-24T12:50:47Z</time></trkpt>
<trkpt lat="46.28550709" lon="6.15799122"><ele>423.598022</ele><time>2007-06-24T12:51:04Z</time></trkpt>
<trkpt lat="46.28513427" lon="6.15804956"><ele>423.598022</ele><time>2007-06-24T12:51:10Z</time></trkpt>
<trkpt lat="46.28912313" lon="6.15745118"><ele>409.659058</ele><time>2007-06-24T12:47:09Z</time></trkpt>
</trkseg></trk></gpx>